Darstellungsparameter: Aktuell verwendete Einstellungen:
Skalierung der Graphiken ... ?
xyx+y,   Skalierungsfaktor:      Skalierung: Modus: x, Faktor: 1
Darstellungszeitraum ... ?
Vom - - bis: - -   Zeitraum: 16.02.2010 - 15.05.2010
Min/Max/Avg-Anzeige ... ?
Zeige MMA aktuell
Zeige MMA Monat
Zeige MMA alles
Zeige --A aktuell
Zeige --A Monat
Zeige --A alles
Keine MMA-Anzeige
MMA:
Average (ber die Originaldaten)
MMA-Basis: 16.02.2010 - 15.05.2010
Quicknavigation für Darstellung... ?
Tage:      1T, 2T, 3T, 5T -1T -2T -3T -5T +1T +2T +3T +5T
Wochen: 1W, 2W, 3W -1W -2W -3W +1W +2W +3W
Monate: 1M, 3M, 6M -1M -3M -6M +1M +3M +6M
Jahre:    1J, 3J, 5J, 10J -1J -3J -5J -10J +1J +3J +5J +10J
Nutze für die Darstellung ... ?
Originaldaten oder Mittelwerte auf ...
Stundenbasis Tagesbasis Wochenbasis
Monatsbasis Jahresbasis      Datenbasis: Original-Daten
Darstellen als:
Statistik (Auto) Statistik J:M      Darstellung:
Zur Graphik,    zurück zur Übersicht aller Sensoren.
 
Tabellarische Datenbersicht: ?
 
Sensor: Nr:Datum:Temp:Abs-Feuchte:Windchill:Wind:
Aussen-T/F 1 16-02-2010 00:06:33 -1.4 C 3.43 g/m*3 -1.4 C 0 km/h
2 16-02-2010 00:31:33 -2.1 C 3.22 g/m*3 -2.1 C 0 km/h
3 16-02-2010 00:56:33 -2.7 C 3.13 g/m*3 -2.7 C 0 km/h
4 16-02-2010 01:21:33 -2.9 C 3.13 g/m*3 -2.9 C 0 km/h
5 16-02-2010 01:46:33 -2.9 C 3.16 g/m*3 -2.9 C 0 km/h
6 16-02-2010 02:11:33 -2.9 C 3.16 g/m*3 -2.9 C 0 km/h
7 16-02-2010 02:36:33 -3.2 C 3.1 g/m*3 -3.2 C 0 km/h
8 16-02-2010 03:01:34 -3.3 C 3.08 g/m*3 -3.3 C 0 km/h
9 16-02-2010 03:26:34 -3.4 C 3.09 g/m*3 -3.4 C 0 km/h
10 16-02-2010 03:51:34 -3.1 C 3.16 g/m*3 -3.1 C 0 km/h
11 16-02-2010 04:16:34 -2.9 C 3.2 g/m*3 -2.9 C 0 km/h
12 16-02-2010 04:41:34 -2.7 C 3.29 g/m*3 -2.7 C 0 km/h
13 16-02-2010 05:06:34 -2.7 C 3.25 g/m*3 -2.7 C 0 km/h
14 16-02-2010 05:31:34 -2.7 C 3.25 g/m*3 -2.7 C 0 km/h
15 16-02-2010 05:56:34 -2.6 C 3.27 g/m*3 -2.6 C 0 km/h
16 16-02-2010 06:21:34 -2.3 C 3.34 g/m*3 -2.3 C 0 km/h
17 16-02-2010 06:46:34 -2.3 C 3.3 g/m*3 -2.3 C 0 km/h
18 16-02-2010 07:11:34 -2.5 C 3.26 g/m*3 -2.5 C 0 km/h
19 16-02-2010 07:36:34 -2.8 C 3.19 g/m*3 -2.8 C 0 km/h
20 16-02-2010 08:01:34 -2.8 C 3.19 g/m*3 -2.8 C 0 km/h
21 16-02-2010 08:26:34 -2.5 C 3.3 g/m*3 -2.5 C 0 km/h
22 16-02-2010 08:51:34 -1.9 C 3.4 g/m*3 -1.9 C 0 km/h
23 16-02-2010 09:16:34 -1.4 C 3.47 g/m*3 -1.4 C 0 km/h
24 16-02-2010 09:41:34 -0.7 C 3.51 g/m*3 -0.7 C 0 km/h
25 16-02-2010 10:06:34 -0.6 C 3.35 g/m*3 -0.6 C 0 km/h
Sensor: Nr:Datum:Temp:Abs-Feuchte:Windchill:Wind:
Aussen-T/F 26 16-02-2010 10:31:34 0.1 C 3.42 g/m*3 0.1 C 0 km/h
27 16-02-2010 10:56:34 -0.1 C 3.27 g/m*3 -0.1 C 0 km/h
28 16-02-2010 11:21:34 0.3 C 3.31 g/m*3 0.3 C 0 km/h
29 16-02-2010 11:46:35 0.4 C 3.19 g/m*3 0.4 C 0 km/h
30 16-02-2010 12:11:35 1.2 C 3.31 g/m*3 1.2 C 0 km/h
31 16-02-2010 12:36:35 2.4 C 2.91 g/m*3 2.4 C 0 km/h
32 16-02-2010 13:01:35 2.8 C 2.76 g/m*3 2.8 C 0 km/h
33 16-02-2010 13:26:35 2.9 C 2.6 g/m*3 2.9 C 0 km/h
34 16-02-2010 13:51:35 2.8 C 2.7 g/m*3 2.8 C 0 km/h
35 16-02-2010 14:16:35 3.5 C 2.64 g/m*3 3.5 C 0 km/h
36 16-02-2010 14:41:35 3.4 C 2.57 g/m*3 3.4 C 0 km/h
37 16-02-2010 15:06:35 3.2 C 2.53 g/m*3 3.2 C 0 km/h
38 16-02-2010 15:31:35 3.9 C 2.4 g/m*3 3.9 C 0 km/h
39 16-02-2010 15:56:35 4.5 C 2.43 g/m*3 4.5 C 0 km/h
40 16-02-2010 16:21:35 4.4 C 2.42 g/m*3 4.4 C 0 km/h
41 16-02-2010 16:46:35 4.1 C 2.43 g/m*3 4.1 C 0 km/h
42 16-02-2010 17:11:35 2.8 C 2.58 g/m*3 2.8 C 0 km/h
43 16-02-2010 17:36:35 1.1 C 2.61 g/m*3 1.1 C 0 km/h
44 16-02-2010 18:01:35 -0.2 C 2.63 g/m*3 -0.2 C 0 km/h
45 16-02-2010 18:26:35 -1.4 C 2.73 g/m*3 -1.4 C 0 km/h
46 16-02-2010 18:51:35 -2 C 2.74 g/m*3 -2 C 0 km/h
47 16-02-2010 19:16:35 -2.5 C 2.73 g/m*3 -2.5 C 0 km/h
48 16-02-2010 19:41:35 -2.7 C 2.77 g/m*3 -2.7 C 0 km/h
49 16-02-2010 20:06:36 -3 C 2.75 g/m*3 -3 C 0 km/h
50 16-02-2010 20:31:36 -3.2 C 2.75 g/m*3 -3.2 C 0 km/h
Sensor: Nr:Datum:Temp:Abs-Feuchte:Windchill:Wind:
Aussen-T/F 51 16-02-2010 20:56:36 -3.6 C 2.67 g/m*3 -3.6 C 0 km/h
52 16-02-2010 21:21:36 -3.8 C 2.67 g/m*3 -3.8 C 0 km/h
53 16-02-2010 21:46:36 -4.1 C 2.62 g/m*3 -4.1 C 0 km/h
54 16-02-2010 22:11:36 -4.2 C 2.63 g/m*3 -4.2 C 0 km/h
55 16-02-2010 22:36:36 -4.5 C 2.58 g/m*3 -4.5 C 0 km/h
56 16-02-2010 23:01:36 -4.7 C 2.54 g/m*3 -4.7 C 0 km/h
57 16-02-2010 23:26:36 -4.9 C 2.5 g/m*3 -4.9 C 0 km/h
58 16-02-2010 23:51:36 -5.1 C 2.47 g/m*3 -5.1 C 0 km/h
59 17-02-2010 00:16:36 -5.4 C 2.41 g/m*3 -5.4 C 0 km/h
60 17-02-2010 00:41:36 -5.7 C 2.36 g/m*3 -5.7 C 0 km/h
61 17-02-2010 01:06:36 -6 C 2.34 g/m*3 -6 C 0 km/h
62 17-02-2010 01:31:36 -6.2 C 2.31 g/m*3 -6.2 C 0 km/h
63 17-02-2010 01:56:36 -6.5 C 2.26 g/m*3 -6.5 C 0 km/h
64 17-02-2010 02:21:36 -6.6 C 2.27 g/m*3 -6.6 C 0 km/h
65 17-02-2010 02:46:36 -6.8 C 2.24 g/m*3 -6.8 C 0 km/h
66 17-02-2010 03:11:36 -6.9 C 2.22 g/m*3 -6.9 C 0 km/h
67 17-02-2010 03:36:36 -6.2 C 2.37 g/m*3 -6.2 C 0 km/h
68 17-02-2010 04:01:36 -5.8 C 2.44 g/m*3 -5.8 C 0 km/h
69 17-02-2010 04:26:36 -5.5 C 2.5 g/m*3 -5.5 C 0 km/h
70 17-02-2010 04:51:37 -5.3 C 2.5 g/m*3 -5.3 C 0 km/h
71 17-02-2010 05:16:37 -5.2 C 2.48 g/m*3 -5.2 C 0 km/h
72 17-02-2010 05:41:37 -4.9 C 2.54 g/m*3 -4.9 C 0 km/h
73 17-02-2010 06:06:37 -4.9 C 2.54 g/m*3 -4.9 C 0 km/h
74 17-02-2010 06:31:37 -4.7 C 2.57 g/m*3 -4.7 C 0 km/h
75 17-02-2010 06:56:37 -4.5 C 2.61 g/m*3 -4.5 C 0 km/h
Sensor: Nr:Datum:Temp:Abs-Feuchte:Windchill:Wind:
Aussen-T/F 76 17-02-2010 07:21:37 -4.4 C 2.6 g/m*3 -4.4 C 0 km/h
77 17-02-2010 07:46:37 -4.1 C 2.62 g/m*3 -4.1 C 0 km/h
78 17-02-2010 08:11:37 -3.8 C 2.67 g/m*3 -3.8 C 0 km/h
79 17-02-2010 08:36:37 -3.4 C 2.71 g/m*3 -3.4 C 0 km/h
80 17-02-2010 09:01:37 -3.1 C 2.65 g/m*3 -3.1 C 0 km/h
81 17-02-2010 09:26:37 -2.9 C 2.49 g/m*3 -2.9 C 0 km/h
82 17-02-2010 09:51:37 -2.7 C 2.53 g/m*3 -2.7 C 0 km/h
83 17-02-2010 10:16:37 -2.7 C 2.53 g/m*3 -2.7 C 0 km/h
84 17-02-2010 10:41:37 -2.2 C 2.54 g/m*3 -2.2 C 0 km/h
85 17-02-2010 11:06:37 -1.4 C 2.73 g/m*3 -1.4 C 0 km/h
86 17-02-2010 11:31:37 -0.6 C 2.79 g/m*3 -0.6 C 0 km/h
87 17-02-2010 11:56:37 1 C 2.91 g/m*3 1 C 0 km/h
88 17-02-2010 12:21:37 2.7 C 2.8 g/m*3 2.7 C 0 km/h
89 17-02-2010 12:46:37 3.5 C 2.71 g/m*3 3.5 C 0 km/h
90 17-02-2010 13:11:38 2.9 C 2.72 g/m*3 2.9 C 0 km/h
91 17-02-2010 13:36:38 2.8 C 2.7 g/m*3 2.8 C 0 km/h
92 17-02-2010 14:01:38 2.7 C 2.97 g/m*3 2.7 C 0 km/h
93 17-02-2010 14:26:38 2.1 C 3.3 g/m*3 2.1 C 0 km/h
94 17-02-2010 14:51:38 2.1 C 3.58 g/m*3 2.1 C 0 km/h
95 17-02-2010 15:16:38 1.3 C 3.81 g/m*3 1.3 C 0 km/h
96 17-02-2010 15:41:38 1.2 C 4 g/m*3 1.2 C 0 km/h
97 17-02-2010 16:06:38 1.3 C 4.13 g/m*3 1.3 C 0 km/h
98 17-02-2010 16:31:38 1 C 4.15 g/m*3 1 C 0 km/h
99 17-02-2010 16:56:38 0.9 C 4.23 g/m*3 0.9 C 0 km/h
100 17-02-2010 17:21:38 0.7 C 4.17 g/m*3 0.7 C 0 km/h
Sensor: Nr:Datum:Temp:Abs-Feuchte:Windchill:Wind:
Aussen-T/F 101 17-02-2010 17:46:38 0.6 C 4.19 g/m*3 0.6 C 0 km/h
102 17-02-2010 18:11:38 0.5 C 4.21 g/m*3 0.5 C 0 km/h
103 17-02-2010 18:36:38 0.5 C 4.31 g/m*3 0.5 C 0 km/h
104 17-02-2010 19:01:38 0.5 C 4.36 g/m*3 0.5 C 0 km/h
105 17-02-2010 19:26:38 0.5 C 4.36 g/m*3 0.5 C 0 km/h
106 17-02-2010 19:51:38 0.5 C 4.41 g/m*3 0.5 C 0 km/h
107 17-02-2010 20:16:38 0.7 C 4.53 g/m*3 0.7 C 0 km/h
108 17-02-2010 20:41:38 0.7 C 4.53 g/m*3 0.7 C 0 km/h
109 17-02-2010 21:06:38 0.7 C 4.53 g/m*3 0.7 C 0 km/h
110 17-02-2010 21:31:38 0.8 C 4.51 g/m*3 0.8 C 0 km/h
111 17-02-2010 21:56:39 0.8 C 4.56 g/m*3 0.8 C 0 km/h
112 17-02-2010 22:21:39 0.8 C 4.51 g/m*3 0.8 C 0 km/h
113 17-02-2010 22:46:39 0.8 C 4.51 g/m*3 0.8 C 0 km/h
114 17-02-2010 23:11:39 0.8 C 4.51 g/m*3 0.8 C 0 km/h
115 17-02-2010 23:36:39 0.8 C 4.51 g/m*3 0.8 C 0 km/h
116 18-02-2010 00:01:39 0.8 C 4.51 g/m*3 0.8 C 0 km/h
117 18-02-2010 00:26:39 0.9 C 4.54 g/m*3 0.9 C 0 km/h
118 18-02-2010 00:51:39 0.9 C 4.54 g/m*3 0.9 C 0 km/h
119 18-02-2010 01:16:39 1 C 4.57 g/m*3 1 C 0 km/h
120 18-02-2010 01:41:39 1 C 4.57 g/m*3 1 C 0 km/h
121 18-02-2010 02:06:39 1 C 4.57 g/m*3 1 C 0 km/h
122 18-02-2010 02:31:39 1.2 C 4.63 g/m*3 1.2 C 0 km/h
123 18-02-2010 02:56:39 1 C 4.57 g/m*3 1 C 0 km/h
124 18-02-2010 03:21:39 1.2 C 4.63 g/m*3 1.2 C 0 km/h
125 18-02-2010 03:46:39 1 C 4.57 g/m*3 1 C 0 km/h
Sensor: Nr:Datum:Temp:Abs-Feuchte:Windchill:Wind:
Aussen-T/F 126 18-02-2010 04:11:39 1 C 4.62 g/m*3 1 C 0 km/h
127 18-02-2010 04:36:39 1 C 4.62 g/m*3 1 C 0 km/h
128 18-02-2010 05:01:39 1.2 C 4.68 g/m*3 1.2 C 0 km/h
129 18-02-2010 05:26:39 1 C 4.62 g/m*3 1 C 0 km/h
130 18-02-2010 05:51:39 1.1 C 4.65 g/m*3 1.1 C 0 km/h
131 18-02-2010 06:16:40 1.1 C 4.65 g/m*3 1.1 C 0 km/h
132 18-02-2010 06:41:40 1.2 C 4.74 g/m*3 1.2 C 0 km/h
133 18-02-2010 07:06:40 1.1 C 4.7 g/m*3 1.1 C 0 km/h
134 18-02-2010 07:31:40 1.1 C 4.7 g/m*3 1.1 C 0 km/h
135 18-02-2010 07:56:40 1.1 C 4.7 g/m*3 1.1 C 0 km/h
136 18-02-2010 08:21:40 1.1 C 4.76 g/m*3 1.1 C 0 km/h
137 18-02-2010 08:46:40 1.4 C 4.85 g/m*3 1.4 C 0 km/h
138 18-02-2010 09:11:40 1.7 C 5.01 g/m*3 1.7 C 0 km/h
139 18-02-2010 09:36:40 2 C 5.06 g/m*3 2 C 0 km/h
140 18-02-2010 10:01:40 2.6 C 5.32 g/m*3 2.6 C 0 km/h
141 18-02-2010 10:26:40 3.6 C 5.63 g/m*3 3.6 C 0 km/h
142 18-02-2010 10:51:40 3.8 C 5.58 g/m*3 3.8 C 0 km/h
143 18-02-2010 11:16:40 4.1 C 5.25 g/m*3 4.1 C 0 km/h
144 18-02-2010 11:41:40 4.4 C 5.03 g/m*3 4.4 C 0 km/h
145 18-02-2010 12:06:40 4.7 C 4.86 g/m*3 4.7 C 0 km/h
146 18-02-2010 12:31:40 5.1 C 4.65 g/m*3 5.1 C 0 km/h
147 18-02-2010 12:56:40 5.8 C 4.58 g/m*3 5.8 C 0 km/h
148 18-02-2010 13:21:40 6.8 C 4.36 g/m*3 6.8 C 0 km/h
149 18-02-2010 13:46:40 7.4 C 4.14 g/m*3 7.4 C 0 km/h
150 18-02-2010 14:11:40 8 C 4.13 g/m*3 8 C 0 km/h
Sensor: Nr:Datum:Temp:Abs-Feuchte:Windchill:Wind:
Aussen-T/F 151 18-02-2010 14:36:41 8.5 C 4.1 g/m*3 8.5 C 0 km/h
152 18-02-2010 15:01:41 9.1 C 3.73 g/m*3 9.1 C 0 km/h
153 18-02-2010 15:26:41 9.5 C 3.64 g/m*3 9.5 C 0 km/h
154 18-02-2010 15:51:41 10.1 C 3.59 g/m*3 10.1 C 0 km/h
155 18-02-2010 16:16:41 9.6 C 3.57 g/m*3 9.6 C 0 km/h
156 18-02-2010 16:41:41 9.3 C 3.59 g/m*3 9.3 C 0 km/h
157 18-02-2010 17:06:41 7.5 C 3.36 g/m*3 7.5 C 0 km/h
158 18-02-2010 17:31:41 6.3 C 3.55 g/m*3 6.3 C 0 km/h
159 18-02-2010 17:56:41 5.6 C 3.68 g/m*3 5.6 C 0 km/h
160 18-02-2010 18:21:41 4 C 3.88 g/m*3 4 C 0 km/h
161 18-02-2010 18:46:41 3.2 C 3.98 g/m*3 3.2 C 0 km/h
162 18-02-2010 19:11:41 2.6 C 4.11 g/m*3 2.6 C 0 km/h
163 18-02-2010 19:36:41 2.5 C 4.2 g/m*3 2.5 C 0 km/h
164 18-02-2010 20:01:41 2.1 C 4.08 g/m*3 2.1 C 0 km/h
165 18-02-2010 20:26:41 2 C 4.17 g/m*3 2 C 0 km/h
166 18-02-2010 20:51:41 1.6 C 4.16 g/m*3 1.6 C 0 km/h
167 18-02-2010 21:16:41 1.4 C 4.21 g/m*3 1.4 C 0 km/h
168 18-02-2010 21:41:41 1.4 C 4.21 g/m*3 1.4 C 0 km/h
169 18-02-2010 22:06:41 1.7 C 4.3 g/m*3 1.7 C 0 km/h
170 18-02-2010 22:31:41 2 C 4.33 g/m*3 2 C 0 km/h
171 18-02-2010 22:56:42 1.9 C 4.36 g/m*3 1.9 C 0 km/h
172 18-02-2010 23:21:42 1.7 C 4.3 g/m*3 1.7 C 0 km/h
173 18-02-2010 23:46:42 1.9 C 4.53 g/m*3 1.9 C 0 km/h
174 19-02-2010 00:11:42 2.1 C 4.59 g/m*3 2.1 C 0 km/h
175 19-02-2010 00:36:42 1.8 C 4.55 g/m*3 1.8 C 0 km/h
Sensor: Nr:Datum:Temp:Abs-Feuchte:Windchill:Wind:
Aussen-T/F 176 19-02-2010 01:01:42 2 C 4.67 g/m*3 2 C 0 km/h
177 19-02-2010 01:26:42 2 C 4.67 g/m*3 2 C 0 km/h
178 19-02-2010 01:51:42 2.1 C 4.76 g/m*3 2.1 C 0 km/h
179 19-02-2010 02:16:42 2.1 C 4.7 g/m*3 2.1 C 0 km/h
180 19-02-2010 02:41:42 2 C 4.67 g/m*3 2 C 0 km/h
181 19-02-2010 03:06:42 1.8 C 4.66 g/m*3 1.8 C 0 km/h
182 19-02-2010 03:31:42 1.8 C 4.71 g/m*3 1.8 C 0 km/h
183 19-02-2010 03:56:42 1.6 C 4.7 g/m*3 1.6 C 0 km/h
184 19-02-2010 04:21:42 1.6 C 4.7 g/m*3 1.6 C 0 km/h
185 19-02-2010 04:46:42 1.6 C 4.7 g/m*3 1.6 C 0 km/h
186 19-02-2010 05:11:42 1.7 C 4.79 g/m*3 1.7 C 0 km/h
187 19-02-2010 05:36:42 1.8 C 4.77 g/m*3 1.8 C 0 km/h
188 19-02-2010 06:01:42 1.9 C 4.8 g/m*3 1.9 C 0 km/h
189 19-02-2010 06:26:42 2.1 C 4.76 g/m*3 2.1 C 0 km/h
190 19-02-2010 06:51:42 2 C 4.67 g/m*3 2 C 0 km/h
191 19-02-2010 07:16:42 1.7 C 4.63 g/m*3 1.7 C 0 km/h
192 19-02-2010 07:41:43 1.5 C 4.57 g/m*3 1.5 C 0 km/h
193 19-02-2010 08:06:43 1.5 C 4.62 g/m*3 1.5 C 0 km/h
194 19-02-2010 08:31:43 1.6 C 4.65 g/m*3 1.6 C 0 km/h
195 19-02-2010 08:56:43 2.1 C 4.81 g/m*3 2.1 C 0 km/h
196 19-02-2010 09:21:43 2.5 C 4.83 g/m*3 2.5 C 0 km/h
197 19-02-2010 09:46:43 3.1 C 4.91 g/m*3 3.1 C 0 km/h
198 19-02-2010 10:11:43 3.7 C 5.05 g/m*3 3.7 C 0 km/h
199 19-02-2010 10:36:02 4.6 C 5.1 g/m*3 4.6 C 0 km/h
200 19-02-2010 11:01:02 5.3 C 5.06 g/m*3 5.3 C 0 km/h
Sensor: Nr:Datum:Temp:Abs-Feuchte:Windchill:Wind:
Aussen-T/F 201 19-02-2010 11:26:01 6 C 4.79 g/m*3 6 C 0 km/h
202 19-02-2010 11:51:02 6.5 C 4.72 g/m*3 6.5 C 0 km/h
203 19-02-2010 12:16:02 7 C 4.49 g/m*3 7 C 0 km/h
204 19-02-2010 12:41:02 7.6 C 4.27 g/m*3 7.6 C 0 km/h
205 19-02-2010 13:06:02 7.6 C 4.11 g/m*3 7.6 C 0 km/h
206 19-02-2010 13:31:02 7.7 C 4.05 g/m*3 7.7 C 0 km/h
207 19-02-2010 13:56:02 7.6 C 3.95 g/m*3 7.6 C 0 km/h
208 19-02-2010 14:21:01 7.5 C 4 g/m*3 7.5 C 0 km/h
209 19-02-2010 14:46:02 7.5 C 3.92 g/m*3 7.5 C 0 km/h
210 19-02-2010 15:11:03 7.8 C 3.67 g/m*3 7.8 C 0 km/h
211 19-02-2010 15:36:02 7.2 C 3.53 g/m*3 7.2 C 0 km/h
212 19-02-2010 16:01:02 6.3 C 3.33 g/m*3 6.3 C 0 km/h
213 19-02-2010 16:26:01 6.1 C 3.29 g/m*3 6.1 C 0 km/h
214 19-02-2010 16:51:01 5.5 C 3.23 g/m*3 5.5 C 0 km/h
215 19-02-2010 17:16:02 5 C 3.06 g/m*3 5 C 0 km/h
216 19-02-2010 17:41:02 5.1 C 3.01 g/m*3 5.1 C 0 km/h
217 19-02-2010 18:06:02 4.5 C 3.02 g/m*3 4.5 C 0 km/h
218 19-02-2010 18:31:02 4.1 C 3.07 g/m*3 4.1 C 0 km/h
219 19-02-2010 18:56:01 3.7 C 3.18 g/m*3 3.7 C 0 km/h
220 19-02-2010 19:21:01 3.6 C 3.22 g/m*3 3.6 C 0 km/h
221 19-02-2010 19:46:02 3.6 C 3.28 g/m*3 3.6 C 0 km/h
222 19-02-2010 20:11:02 3.3 C 3.34 g/m*3 3.3 C 0 km/h
223 19-02-2010 20:36:02 3.3 C 3.46 g/m*3 3.3 C 0 km/h
224 19-02-2010 21:14:02 3.3 C 3.52 g/m*3 3.3 C 0 km/h
225 19-02-2010 21:26:02 3.2 C 3.56 g/m*3 3.2 C 0 km/h
Sensor: Nr:Datum:Temp:Abs-Feuchte:Windchill:Wind:
Aussen-T/F 226 19-02-2010 21:38:01 3.2 C 3.5 g/m*3 3.2 C 0 km/h
227 19-02-2010 21:50:01 3.1 C 3.53 g/m*3 3.1 C 0 km/h
228 19-02-2010 22:02:02 2.8 C 3.52 g/m*3 2.8 C 0 km/h
229 19-02-2010 22:14:02 2.6 C 3.53 g/m*3 2.6 C 0 km/h
230 19-02-2010 22:26:01 2.6 C 3.47 g/m*3 2.6 C 0 km/h
231 19-02-2010 22:38:02 2.4 C 3.43 g/m*3 2.4 C 0 km/h
232 19-02-2010 22:50:01 2.2 C 3.38 g/m*3 2.2 C 0 km/h
233 19-02-2010 23:02:02 2.1 C 3.36 g/m*3 2.1 C 0 km/h
234 19-02-2010 23:14:02 2.5 C 3.22 g/m*3 2.5 C 0 km/h
235 19-02-2010 23:26:01 2.5 C 3.16 g/m*3 2.5 C 0 km/h
236 19-02-2010 23:38:02 2.2 C 3.21 g/m*3 2.2 C 0 km/h
237 19-02-2010 23:50:01 1.6 C 3.24 g/m*3 1.6 C 0 km/h
238 20-02-2010 00:02:02 1.5 C 3.33 g/m*3 1.5 C 0 km/h
239 20-02-2010 00:14:02 1.4 C 3.31 g/m*3 1.4 C 0 km/h
240 20-02-2010 00:26:02 1.2 C 3.37 g/m*3 1.2 C 0 km/h
241 20-02-2010 00:38:01 1.1 C 3.4 g/m*3 1.1 C 0 km/h
242 20-02-2010 00:50:02 0.7 C 3.41 g/m*3 0.7 C 0 km/h
243 20-02-2010 01:02:01 0.4 C 3.39 g/m*3 0.4 C 0 km/h
244 20-02-2010 01:14:01 0.1 C 3.42 g/m*3 0.1 C 0 km/h
245 20-02-2010 01:26:01 -0.1 C 3.46 g/m*3 -0.1 C 0 km/h
246 20-02-2010 01:38:02 -0.1 C 3.51 g/m*3 -0.1 C 0 km/h
247 20-02-2010 01:50:02 -0.1 C 3.56 g/m*3 -0.1 C 0 km/h
248 20-02-2010 02:02:02 -0.2 C 3.58 g/m*3 -0.2 C 0 km/h
249 20-02-2010 02:14:02 -0.3 C 3.56 g/m*3 -0.3 C 0 km/h
250 20-02-2010 02:26:02 -0.3 C 3.61 g/m*3 -0.3 C 0 km/h
Sensor: Nr:Datum:Temp:Abs-Feuchte:Windchill:Wind:
Aussen-T/F 251 20-02-2010 02:38:02 -0.4 C 3.58 g/m*3 -0.4 C 0 km/h
252 20-02-2010 02:50:01 -0.4 C 3.58 g/m*3 -0.4 C 0 km/h
253 20-02-2010 03:02:01 -0.4 C 3.58 g/m*3 -0.4 C 0 km/h
254 20-02-2010 03:14:01 -0.7 C 3.46 g/m*3 -0.7 C 0 km/h
255 20-02-2010 03:26:01 -0.7 C 3.51 g/m*3 -0.7 C 0 km/h
256 20-02-2010 03:38:02 -0.8 C 3.48 g/m*3 -0.8 C 0 km/h
257 20-02-2010 03:50:02 -1 C 3.44 g/m*3 -1 C 0 km/h
258 20-02-2010 04:02:01 -0.9 C 3.51 g/m*3 -0.9 C 0 km/h
259 20-02-2010 04:14:01 -0.7 C 3.55 g/m*3 -0.7 C 0 km/h
260 20-02-2010 04:26:01 -0.7 C 3.51 g/m*3 -0.7 C 0 km/h
261 20-02-2010 04:38:02 -0.4 C 3.58 g/m*3 -0.4 C 0 km/h
262 20-02-2010 04:50:01 -0.2 C 3.58 g/m*3 -0.2 C 0 km/h
263 20-02-2010 05:02:01 -0.1 C 3.61 g/m*3 -0.1 C 0 km/h
264 20-02-2010 05:14:01 -0.2 C 3.54 g/m*3 -0.2 C 0 km/h
265 20-02-2010 05:26:01 -0.2 C 3.58 g/m*3 -0.2 C 0 km/h
266 20-02-2010 05:38:02 -0.2 C 3.58 g/m*3 -0.2 C 0 km/h
267 20-02-2010 05:50:01 0 C 3.63 g/m*3 0 C 0 km/h
268 20-02-2010 06:02:02 -0.2 C 3.58 g/m*3 -0.2 C 0 km/h
269 20-02-2010 06:14:02 0.1 C 3.71 g/m*3 0.1 C 0 km/h
270 20-02-2010 06:26:01 0.4 C 3.79 g/m*3 0.4 C 0 km/h
271 20-02-2010 06:38:01 0.3 C 3.76 g/m*3 0.3 C 0 km/h
272 20-02-2010 06:50:01 0 C 3.68 g/m*3 0 C 0 km/h
273 20-02-2010 07:02:01 -0.2 C 3.68 g/m*3 -0.2 C 0 km/h
274 20-02-2010 07:14:02 -0.5 C 3.65 g/m*3 -0.5 C 0 km/h
275 20-02-2010 07:26:01 -0.6 C 3.67 g/m*3 -0.6 C 0 km/h
Sensor: Nr:Datum:Temp:Abs-Feuchte:Windchill:Wind:
Aussen-T/F 276 20-02-2010 07:38:01 -0.6 C 3.72 g/m*3 -0.6 C 0 km/h
277 20-02-2010 07:50:01 -0.6 C 3.76 g/m*3 -0.6 C 0 km/h
278 20-02-2010 08:02:02 -0.2 C 3.92 g/m*3 -0.2 C 0 km/h
279 20-02-2010 08:14:02 0.1 C 3.95 g/m*3 0.1 C 0 km/h
280 20-02-2010 08:26:01 0.4 C 3.98 g/m*3 0.4 C 0 km/h
281 20-02-2010 08:38:01 0.7 C 3.97 g/m*3 0.7 C 0 km/h
282 20-02-2010 08:50:01 1 C 3.94 g/m*3 1 C 0 km/h
283 20-02-2010 09:02:02 1.2 C 3.95 g/m*3 1.2 C 0 km/h
284 20-02-2010 09:14:02 1.4 C 3.89 g/m*3 1.4 C 0 km/h
285 20-02-2010 09:26:01 1.5 C 3.87 g/m*3 1.5 C 0 km/h
286 20-02-2010 09:38:01 1.2 C 3.79 g/m*3 1.2 C 0 km/h
287 20-02-2010 09:50:01 1.2 C 3.74 g/m*3 1.2 C 0 km/h
288 20-02-2010 10:02:01 1.3 C 3.76 g/m*3 1.3 C 0 km/h
289 20-02-2010 10:14:01 1.4 C 3.73 g/m*3 1.4 C 0 km/h
290 20-02-2010 10:26:01 1.5 C 3.71 g/m*3 1.5 C 0 km/h
291 20-02-2010 10:38:01 1.7 C 3.76 g/m*3 1.7 C 0 km/h
292 20-02-2010 10:50:01 1.8 C 3.73 g/m*3 1.8 C 0 km/h
293 20-02-2010 11:02:01 2.1 C 3.75 g/m*3 2.1 C 0 km/h
294 20-02-2010 11:14:01 3 C 3.63 g/m*3 3 C 0 km/h
295 20-02-2010 11:26:01 3.3 C 3.58 g/m*3 3.3 C 0 km/h
296 20-02-2010 11:38:01 3.7 C 3.61 g/m*3 3.7 C 0 km/h
297 20-02-2010 11:50:01 4.1 C 3.46 g/m*3 4.1 C 0 km/h
298 20-02-2010 12:02:01 4.1 C 3.33 g/m*3 4.1 C 0 km/h
299 20-02-2010 12:14:01 3.9 C 3.47 g/m*3 3.9 C 0 km/h
300 20-02-2010 12:26:02 4.1 C 3.39 g/m*3 4.1 C 0 km/h
Sensor: Nr:Datum:Temp:Abs-Feuchte:Windchill:Wind:
Aussen-T/F 301 20-02-2010 12:38:01 3.8 C 3.45 g/m*3 3.8 C 0 km/h
302 20-02-2010 12:50:01 4.2 C 3.41 g/m*3 4.2 C 0 km/h
303 20-02-2010 13:02:01 4.2 C 3.22 g/m*3 4.2 C 0 km/h
304 20-02-2010 13:14:01 4.3 C 3.18 g/m*3 4.3 C 0 km/h
305 20-02-2010 13:26:02 4.5 C 3.22 g/m*3 4.5 C 0 km/h
306 20-02-2010 13:38:01 4.5 C 3.16 g/m*3 4.5 C 0 km/h
307 20-02-2010 13:50:02 4.3 C 3.11 g/m*3 4.3 C 0 km/h
308 20-02-2010 14:02:01 4.2 C 3.22 g/m*3 4.2 C 0 km/h
309 20-02-2010 14:14:01 4.5 C 3.22 g/m*3 4.5 C 0 km/h
310 20-02-2010 14:26:02 4.9 C 3.24 g/m*3 4.9 C 0 km/h
311 20-02-2010 14:38:01 4.7 C 3.2 g/m*3 4.7 C 0 km/h
312 20-02-2010 14:50:01 4.5 C 3.22 g/m*3 4.5 C 0 km/h
313 20-02-2010 15:02:01 4.4 C 3.2 g/m*3 4.4 C 0 km/h
314 20-02-2010 15:14:01 4.8 C 3.22 g/m*3 4.8 C 0 km/h
315 20-02-2010 15:26:02 4.9 C 3.17 g/m*3 4.9 C 0 km/h
316 20-02-2010 15:38:01 5.1 C 3.15 g/m*3 5.1 C 0 km/h
317 20-02-2010 15:50:02 5.1 C 3.08 g/m*3 5.1 C 0 km/h
318 20-02-2010 16:02:01 5 C 3.06 g/m*3 5 C 0 km/h
319 20-02-2010 16:14:01 4.9 C 3.11 g/m*3 4.9 C 0 km/h
320 20-02-2010 16:26:02 5 C 3.06 g/m*3 5 C 0 km/h
321 20-02-2010 16:38:01 5.2 C 3.1 g/m*3 5.2 C 0 km/h
322 20-02-2010 16:50:02 4.9 C 3.04 g/m*3 4.9 C 0 km/h
323 20-02-2010 17:02:01 4.5 C 3.09 g/m*3 4.5 C 0 km/h
324 20-02-2010 17:14:01 4.9 C 3.11 g/m*3 4.9 C 0 km/h
325 20-02-2010 17:26:01 4.8 C 3.08 g/m*3 4.8 C 0 km/h
Sensor: Nr:Datum:Temp:Abs-Feuchte:Windchill:Wind:
Aussen-T/F 326 20-02-2010 17:38:01 4.2 C 3.16 g/m*3 4.2 C 0 km/h
327 20-02-2010 17:50:02 3.6 C 3.47 g/m*3 3.6 C 0 km/h
328 20-02-2010 18:02:01 2.9 C 3.54 g/m*3 2.9 C 0 km/h
329 20-02-2010 18:14:01 2.5 C 3.56 g/m*3 2.5 C 0 km/h
330 20-02-2010 18:26:02 2.5 C 3.56 g/m*3 2.5 C 0 km/h
331 20-02-2010 18:38:01 2.7 C 3.55 g/m*3 2.7 C 0 km/h
332 20-02-2010 18:50:02 2.6 C 3.47 g/m*3 2.6 C 0 km/h
333 20-02-2010 19:02:01 2.2 C 3.44 g/m*3 2.2 C 0 km/h
334 20-02-2010 19:14:01 2 C 3.45 g/m*3 2 C 0 km/h
335 20-02-2010 19:26:01 1.8 C 3.45 g/m*3 1.8 C 0 km/h
336 20-02-2010 19:38:02 2 C 3.45 g/m*3 2 C 0 km/h
337 20-02-2010 19:50:01 1.5 C 3.44 g/m*3 1.5 C 0 km/h
338 20-02-2010 20:02:01 1.3 C 3.44 g/m*3 1.3 C 0 km/h
339 20-02-2010 20:14:01 0.9 C 3.45 g/m*3 0.9 C 0 km/h
340 20-02-2010 20:26:01 0.8 C 3.48 g/m*3 0.8 C 0 km/h
341 20-02-2010 20:38:02 0.6 C 3.43 g/m*3 0.6 C 0 km/h
342 20-02-2010 20:50:01 0.7 C 3.41 g/m*3 0.7 C 0 km/h
343 20-02-2010 21:02:02 0.7 C 3.41 g/m*3 0.7 C 0 km/h
344 20-02-2010 21:14:02 0.8 C 3.33 g/m*3 0.8 C 0 km/h
345 20-02-2010 21:26:01 0.8 C 3.28 g/m*3 0.8 C 0 km/h
346 20-02-2010 21:38:02 0.7 C 3.3 g/m*3 0.7 C 0 km/h
347 20-02-2010 21:50:01 1 C 3.32 g/m*3 1 C 0 km/h
348 20-02-2010 22:02:02 1.1 C 3.34 g/m*3 1.1 C 0 km/h
349 20-02-2010 22:14:02 0.9 C 3.35 g/m*3 0.9 C 0 km/h
350 20-02-2010 22:26:01 0.7 C 3.36 g/m*3 0.7 C 0 km/h
Sensor: Nr:Datum:Temp:Abs-Feuchte:Windchill:Wind:
Aussen-T/F 351 20-02-2010 22:38:02 0.4 C 3.34 g/m*3 0.4 C 0 km/h
352 20-02-2010 22:50:01 0.4 C 3.39 g/m*3 0.4 C 0 km/h
353 20-02-2010 23:02:02 0.5 C 3.41 g/m*3 0.5 C 0 km/h
354 20-02-2010 23:14:02 0.6 C 3.48 g/m*3 0.6 C 0 km/h
355 20-02-2010 23:26:01 0.9 C 3.56 g/m*3 0.9 C 0 km/h
356 20-02-2010 23:38:01 1.4 C 3.63 g/m*3 1.4 C 0 km/h
357 20-02-2010 23:50:01 1.5 C 3.6 g/m*3 1.5 C 0 km/h
358 21-02-2010 00:02:01 1.6 C 3.62 g/m*3 1.6 C 0 km/h
359 21-02-2010 00:14:01 1.8 C 3.67 g/m*3 1.8 C 0 km/h
360 21-02-2010 00:26:01 2.1 C 3.64 g/m*3 2.1 C 0 km/h
361 21-02-2010 00:38:02 2.2 C 3.66 g/m*3 2.2 C 0 km/h
362 21-02-2010 00:50:01 2.1 C 3.64 g/m*3 2.1 C 0 km/h
363 21-02-2010 01:02:02 2.1 C 3.64 g/m*3 2.1 C 0 km/h
364 21-02-2010 01:14:02 2 C 3.61 g/m*3 2 C 0 km/h
365 21-02-2010 01:26:01 1.7 C 3.59 g/m*3 1.7 C 0 km/h
366 21-02-2010 01:38:02 1.7 C 3.59 g/m*3 1.7 C 0 km/h
367 21-02-2010 01:50:01 1.7 C 3.54 g/m*3 1.7 C 0 km/h
368 21-02-2010 02:02:02 1.6 C 3.57 g/m*3 1.6 C 0 km/h
369 21-02-2010 02:14:02 1.6 C 3.57 g/m*3 1.6 C 0 km/h
370 21-02-2010 02:26:01 1.7 C 3.59 g/m*3 1.7 C 0 km/h
371 21-02-2010 02:38:01 1.8 C 3.62 g/m*3 1.8 C 0 km/h
372 21-02-2010 02:50:01 1.7 C 3.7 g/m*3 1.7 C 0 km/h
373 21-02-2010 03:02:01 1.5 C 3.81 g/m*3 1.5 C 0 km/h
374 21-02-2010 03:14:02 1.3 C 3.87 g/m*3 1.3 C 0 km/h
375 21-02-2010 03:26:02 1 C 3.89 g/m*3 1 C 0 km/h
Sensor: Nr:Datum:Temp:Abs-Feuchte:Windchill:Wind:
Aussen-T/F 376 21-02-2010 03:38:01 0.6 C 3.89 g/m*3 0.6 C 0 km/h
377 21-02-2010 03:50:01 0.4 C 3.93 g/m*3 0.4 C 0 km/h
378 21-02-2010 04:02:02 0.4 C 3.98 g/m*3 0.4 C 0 km/h
379 21-02-2010 04:14:02 0.4 C 4.08 g/m*3 0.4 C 0 km/h
380 21-02-2010 04:26:01 0.3 C 4.11 g/m*3 0.3 C 0 km/h
381 21-02-2010 04:38:01 0.4 C 4.18 g/m*3 0.4 C 0 km/h
382 21-02-2010 04:50:01 0.4 C 4.23 g/m*3 0.4 C 0 km/h
383 21-02-2010 05:02:01 0.5 C 4.31 g/m*3 0.5 C 0 km/h
384 21-02-2010 05:14:01 0.4 C 4.33 g/m*3 0.4 C 0 km/h
385 21-02-2010 05:26:01 0.5 C 4.36 g/m*3 0.5 C 0 km/h
386 21-02-2010 05:38:01 0.5 C 4.41 g/m*3 0.5 C 0 km/h
387 21-02-2010 05:50:01 0.6 C 4.44 g/m*3 0.6 C 0 km/h
388 21-02-2010 06:02:01 0.6 C 4.49 g/m*3 0.6 C 0 km/h
389 21-02-2010 06:14:01 0.7 C 4.53 g/m*3 0.7 C 0 km/h
390 21-02-2010 06:26:02 0.7 C 4.53 g/m*3 0.7 C 0 km/h
391 21-02-2010 06:38:01 0.8 C 4.56 g/m*3 0.8 C 0 km/h
392 21-02-2010 06:50:02 0.8 C 4.56 g/m*3 0.8 C 0 km/h
393 21-02-2010 07:02:01 0.9 C 4.54 g/m*3 0.9 C 0 km/h
394 21-02-2010 07:14:01 0.9 C 4.48 g/m*3 0.9 C 0 km/h
395 21-02-2010 07:26:02 0.8 C 4.45 g/m*3 0.8 C 0 km/h
396 21-02-2010 07:38:01 0.8 C 4.4 g/m*3 0.8 C 0 km/h
397 21-02-2010 07:50:01 0.8 C 4.35 g/m*3 0.8 C 0 km/h
398 21-02-2010 08:02:02 1.3 C 4.45 g/m*3 1.3 C 0 km/h
399 21-02-2010 08:14:02 1.2 C 4.42 g/m*3 1.2 C 0 km/h
400 21-02-2010 08:26:01 1.4 C 4.37 g/m*3 1.4 C 0 km/h
Sensor: Nr:Datum:Temp:Abs-Feuchte:Windchill:Wind:
Aussen-T/F 401 21-02-2010 08:38:01 1.6 C 4.38 g/m*3 1.6 C 0 km/h
402 21-02-2010 08:50:01 1.5 C 4.4 g/m*3 1.5 C 0 km/h
403 21-02-2010 09:02:01 1.6 C 4.43 g/m*3 1.6 C 0 km/h
404 21-02-2010 09:14:02 1.7 C 4.46 g/m*3 1.7 C 0 km/h
405 21-02-2010 09:26:01 2 C 4.5 g/m*3 2 C 0 km/h
406 21-02-2010 09:38:01 2.1 C 4.48 g/m*3 2.1 C 0 km/h
407 21-02-2010 09:50:01 2.3 C 4.48 g/m*3 2.3 C 0 km/h
408 21-02-2010 10:02:02 2.5 C 4.48 g/m*3 2.5 C 0 km/h
409 21-02-2010 10:14:02 2.8 C 4.52 g/m*3 2.8 C 0 km/h
410 21-02-2010 10:26:01 2.9 C 4.49 g/m*3 2.9 C 0 km/h
411 21-02-2010 10:38:02 3 C 4.34 g/m*3 3 C 0 km/h
412 21-02-2010 10:50:02 3.1 C 4.37 g/m*3 3.1 C 0 km/h
413 21-02-2010 11:02:01 3.2 C 4.4 g/m*3 3.2 C 0 km/h
414 21-02-2010 11:14:01 3.7 C 4.42 g/m*3 3.7 C 0 km/h
415 21-02-2010 11:26:01 3.8 C 4.33 g/m*3 3.8 C 0 km/h
416 21-02-2010 11:38:02 4 C 4.26 g/m*3 4 C 0 km/h
417 21-02-2010 11:50:01 4.2 C 4.25 g/m*3 4.2 C 0 km/h
418 21-02-2010 12:02:01 4.4 C 4.05 g/m*3 4.4 C 0 km/h
419 21-02-2010 12:14:01 4.5 C 3.81 g/m*3 4.5 C 0 km/h
420 21-02-2010 12:26:02 4.8 C 3.82 g/m*3 4.8 C 0 km/h
421 21-02-2010 12:38:01 5 C 3.94 g/m*3 5 C 0 km/h
422 21-02-2010 12:50:01 5.1 C 3.9 g/m*3 5.1 C 0 km/h
423 21-02-2010 13:02:01 4.9 C 3.78 g/m*3 4.9 C 0 km/h
424 21-02-2010 13:14:01 4.7 C 3.86 g/m*3 4.7 C 0 km/h
425 21-02-2010 13:26:01 4.7 C 3.93 g/m*3 4.7 C 0 km/h
Sensor: Nr:Datum:Temp:Abs-Feuchte:Windchill:Wind:
Aussen-T/F 426 21-02-2010 13:38:01 4.7 C 4.06 g/m*3 4.7 C 0 km/h
427 21-02-2010 13:50:01 5.2 C 4.06 g/m*3 5.2 C 0 km/h
428 21-02-2010 14:02:02 5.7 C 4.06 g/m*3 5.7 C 0 km/h
429 21-02-2010 14:14:02 5.3 C 3.95 g/m*3 5.3 C 0 km/h
430 21-02-2010 14:26:01 5.3 C 3.95 g/m*3 5.3 C 0 km/h
431 21-02-2010 14:38:01 5.2 C 4.06 g/m*3 5.2 C 0 km/h
432 21-02-2010 14:50:01 5.2 C 4.06 g/m*3 5.2 C 0 km/h
433 21-02-2010 15:02:01 5.4 C 4.12 g/m*3 5.4 C 0 km/h
434 21-02-2010 15:14:01 6.1 C 4.09 g/m*3 6.1 C 0 km/h
435 21-02-2010 15:26:01 6.3 C 4.07 g/m*3 6.3 C 0 km/h
436 21-02-2010 15:38:01 6.4 C 4.1 g/m*3 6.4 C 0 km/h
437 21-02-2010 15:50:02 6.3 C 4.15 g/m*3 6.3 C 0 km/h
438 21-02-2010 16:02:01 6.4 C 4.17 g/m*3 6.4 C 0 km/h
439 21-02-2010 16:14:01 6.5 C 4.12 g/m*3 6.5 C 0 km/h
440 21-02-2010 16:26:02 6.5 C 4.2 g/m*3 6.5 C 0 km/h
441 21-02-2010 16:38:01 6.2 C 4.04 g/m*3 6.2 C 0 km/h
442 21-02-2010 16:50:01 7.2 C 4.24 g/m*3 7.2 C 0 km/h
443 21-02-2010 17:02:02 6.5 C 3.97 g/m*3 6.5 C 0 km/h
444 21-02-2010 17:14:02 5.9 C 4.11 g/m*3 5.9 C 0 km/h
445 21-02-2010 17:26:01 5.6 C 4.1 g/m*3 5.6 C 0 km/h
446 21-02-2010 17:38:02 5.3 C 4.16 g/m*3 5.3 C 0 km/h
447 21-02-2010 17:50:01 5.1 C 4.17 g/m*3 5.1 C 0 km/h
448 21-02-2010 18:02:02 4.8 C 4.29 g/m*3 4.8 C 0 km/h
449 21-02-2010 18:14:02 4.6 C 4.3 g/m*3 4.6 C 0 km/h
450 21-02-2010 18:26:01 4.4 C 4.31 g/m*3 4.4 C 0 km/h
Sensor: Nr:Datum:Temp:Abs-Feuchte:Windchill:Wind:
Aussen-T/F 451 21-02-2010 18:38:01 3.8 C 4.27 g/m*3 3.8 C 0 km/h
452 21-02-2010 18:50:01 3.4 C 4.28 g/m*3 3.4 C 0 km/h
453 21-02-2010 19:02:02 3 C 4.22 g/m*3 3 C 0 km/h
454 21-02-2010 19:14:02 2.9 C 4.37 g/m*3 2.9 C 0 km/h
455 21-02-2010 19:26:01 2.8 C 4.4 g/m*3 2.8 C 0 km/h
456 21-02-2010 19:38:01 2.8 C 4.46 g/m*3 2.8 C 0 km/h
457 21-02-2010 19:50:01 2.7 C 4.49 g/m*3 2.7 C 0 km/h
458 21-02-2010 20:02:01 2.5 C 4.43 g/m*3 2.5 C 0 km/h
459 21-02-2010 20:14:01 2.4 C 4.4 g/m*3 2.4 C 0 km/h
460 21-02-2010 20:26:01 2.7 C 4.6 g/m*3 2.7 C 0 km/h
461 21-02-2010 20:38:01 2.8 C 4.63 g/m*3 2.8 C 0 km/h
462 21-02-2010 20:50:01 3 C 4.58 g/m*3 3 C 0 km/h
463 21-02-2010 21:02:01 3 C 4.58 g/m*3 3 C 0 km/h
464 21-02-2010 21:14:01 3 C 4.58 g/m*3 3 C 0 km/h
465 21-02-2010 21:26:02 2.9 C 4.61 g/m*3 2.9 C 0 km/h
466 21-02-2010 21:38:01 2.8 C 4.58 g/m*3 2.8 C 0 km/h
467 21-02-2010 21:50:02 2.7 C 4.6 g/m*3 2.7 C 0 km/h
468 21-02-2010 22:02:01 2.6 C 4.57 g/m*3 2.6 C 0 km/h
469 21-02-2010 22:14:01 2.4 C 4.51 g/m*3 2.4 C 0 km/h
470 21-02-2010 22:26:02 2.3 C 4.54 g/m*3 2.3 C 0 km/h
471 21-02-2010 22:38:01 2.1 C 4.53 g/m*3 2.1 C 0 km/h
472 21-02-2010 22:50:02 2.1 C 4.53 g/m*3 2.1 C 0 km/h
473 21-02-2010 23:02:01 2.2 C 4.62 g/m*3 2.2 C 0 km/h
474 21-02-2010 23:14:01 2.1 C 4.59 g/m*3 2.1 C 0 km/h
475 21-02-2010 23:26:02 2 C 4.56 g/m*3 2 C 0 km/h
Sensor: Nr:Datum:Temp:Abs-Feuchte:Windchill:Wind:
Aussen-T/F 476 21-02-2010 23:38:01 2 C 4.56 g/m*3 2 C 0 km/h
477 21-02-2010 23:50:02 1.9 C 4.58 g/m*3 1.9 C 0 km/h
478 22-02-2010 00:02:01 1.9 C 4.58 g/m*3 1.9 C 0 km/h
479 22-02-2010 00:14:01 1.8 C 4.55 g/m*3 1.8 C 0 km/h
480 22-02-2010 00:26:01 1.7 C 4.57 g/m*3 1.7 C 0 km/h
481 22-02-2010 00:38:02 1.7 C 4.57 g/m*3 1.7 C 0 km/h
482 22-02-2010 00:50:01 1.6 C 4.54 g/m*3 1.6 C 0 km/h
483 22-02-2010 01:02:02 1.6 C 4.54 g/m*3 1.6 C 0 km/h
484 22-02-2010 01:14:02 1.5 C 4.51 g/m*3 1.5 C 0 km/h
485 22-02-2010 01:26:01 1.3 C 4.45 g/m*3 1.3 C 0 km/h
486 22-02-2010 01:38:02 1.3 C 4.45 g/m*3 1.3 C 0 km/h
487 22-02-2010 01:50:01 1.3 C 4.45 g/m*3 1.3 C 0 km/h
488 22-02-2010 02:02:02 1.3 C 4.45 g/m*3 1.3 C 0 km/h
489 22-02-2010 02:14:02 1.3 C 4.45 g/m*3 1.3 C 0 km/h
490 22-02-2010 02:26:01 1 C 4.36 g/m*3 1 C 0 km/h
491 22-02-2010 02:38:01 1 C 4.36 g/m*3 1 C 0 km/h
492 22-02-2010 02:50:01 1 C 4.41 g/m*3 1 C 0 km/h
493 22-02-2010 03:02:01 1.1 C 4.44 g/m*3 1.1 C 0 km/h
494 22-02-2010 03:14:02 1.1 C 4.44 g/m*3 1.1 C 0 km/h
495 22-02-2010 03:26:02 1 C 4.41 g/m*3 1 C 0 km/h
496 22-02-2010 03:38:01 1.1 C 4.44 g/m*3 1.1 C 0 km/h
497 22-02-2010 03:50:01 1.1 C 4.49 g/m*3 1.1 C 0 km/h
498 22-02-2010 04:02:02 1.4 C 4.59 g/m*3 1.4 C 0 km/h
499 22-02-2010 04:14:02 1.1 C 4.44 g/m*3 1.1 C 0 km/h
500 22-02-2010 04:26:01 1 C 4.41 g/m*3 1 C 0 km/h
Sensor: Nr:Datum:Temp:Abs-Feuchte:Windchill:Wind:
Aussen-T/F 501 22-02-2010 04:38:02 1.1 C 4.49 g/m*3 1.1 C 0 km/h
502 22-02-2010 04:50:01 1.1 C 4.49 g/m*3 1.1 C 0 km/h
503 22-02-2010 05:02:02 1.1 C 4.49 g/m*3 1.1 C 0 km/h
504 22-02-2010 05:14:02 1.2 C 4.53 g/m*3 1.2 C 0 km/h
505 22-02-2010 05:26:01 1.4 C 4.59 g/m*3 1.4 C 0 km/h
506 22-02-2010 05:38:01 1.4 C 4.59 g/m*3 1.4 C 0 km/h
507 22-02-2010 05:50:01 1.5 C 4.62 g/m*3 1.5 C 0 km/h
508 22-02-2010 06:02:01 1.5 C 4.62 g/m*3 1.5 C 0 km/h
509 22-02-2010 06:14:02 1.5 C 4.62 g/m*3 1.5 C 0 km/h
510 22-02-2010 06:26:01 1.5 C 4.62 g/m*3 1.5 C 0 km/h
511 22-02-2010 06:38:01 1.6 C 4.65 g/m*3 1.6 C 0 km/h
512 22-02-2010 06:50:01 1.6 C 4.65 g/m*3 1.6 C 0 km/h
513 22-02-2010 07:02:01 1.6 C 4.65 g/m*3 1.6 C 0 km/h
514 22-02-2010 07:14:01 1.8 C 4.77 g/m*3 1.8 C 0 km/h
515 22-02-2010 07:26:02 2.2 C 4.9 g/m*3 2.2 C 0 km/h
516 22-02-2010 07:38:01 2.3 C 4.93 g/m*3 2.3 C 0 km/h
517 22-02-2010 07:50:02 2.5 C 5 g/m*3 2.5 C 0 km/h
518 22-02-2010 08:02:01 2.7 C 5.07 g/m*3 2.7 C 0 km/h
519 22-02-2010 08:14:01 3 C 5.11 g/m*3 3 C 0 km/h
520 22-02-2010 08:26:02 3.2 C 5.12 g/m*3 3.2 C 0 km/h
521 22-02-2010 08:38:01 3.5 C 5.16 g/m*3 3.5 C 0 km/h
522 22-02-2010 08:50:02 3.8 C 5.21 g/m*3 3.8 C 0 km/h
523 22-02-2010 09:02:01 4.2 C 5.22 g/m*3 4.2 C 0 km/h
524 22-02-2010 09:14:01 4.5 C 5.32 g/m*3 4.5 C 0 km/h
525 22-02-2010 09:26:01 4.8 C 5.3 g/m*3 4.8 C 0 km/h
Sensor: Nr:Datum:Temp:Abs-Feuchte:Windchill:Wind:
Aussen-T/F 526 22-02-2010 09:38:01 5.1 C 5.27 g/m*3 5.1 C 0 km/h
527 22-02-2010 09:50:02 5.3 C 5.2 g/m*3 5.3 C 0 km/h
528 22-02-2010 10:02:01 5.7 C 5.19 g/m*3 5.7 C 0 km/h
529 22-02-2010 10:14:01 6.3 C 5.18 g/m*3 6.3 C 0 km/h
530 22-02-2010 10:26:01 6.9 C 5.08 g/m*3 6.9 C 0 km/h
531 22-02-2010 10:38:02 7.2 C 5.02 g/m*3 7.2 C 0 km/h
532 22-02-2010 10:50:01 7.6 C 5.08 g/m*3 7.6 C 0 km/h
533 22-02-2010 11:02:01 7.7 C 5.19 g/m*3 7.7 C 0 km/h
534 22-02-2010 11:14:01 8 C 5.21 g/m*3 8 C 0 km/h
535 22-02-2010 11:26:02 8.5 C 5.21 g/m*3 8.5 C 0 km/h
536 22-02-2010 11:38:01 8.9 C 5.26 g/m*3 8.9 C 0 km/h
537 22-02-2010 11:50:02 8.7 C 5.19 g/m*3 8.7 C 0 km/h
538 22-02-2010 12:02:01 8.6 C 5.33 g/m*3 8.6 C 0 km/h
539 22-02-2010 12:14:01 8.4 C 5.51 g/m*3 8.4 C 0 km/h
540 22-02-2010 12:26:02 8.8 C 5.74 g/m*3 8.8 C 0 km/h
541 22-02-2010 12:38:01 9.7 C 5.81 g/m*3 9.7 C 0 km/h
542 22-02-2010 12:50:02 10.3 C 5.55 g/m*3 10.3 C 0 km/h
543 22-02-2010 13:02:01 10.6 C 5.37 g/m*3 10.6 C 0 km/h
544 22-02-2010 13:14:01 11.2 C 5.27 g/m*3 11.2 C 0 km/h
545 22-02-2010 13:26:01 11.7 C 5.12 g/m*3 11.7 C 0 km/h
546 22-02-2010 13:38:02 11.4 C 5.13 g/m*3 11.4 C 0 km/h
547 22-02-2010 13:50:01 11.8 C 5.26 g/m*3 11.8 C 0 km/h
548 22-02-2010 14:02:02 11.9 C 5.08 g/m*3 11.9 C 0 km/h
549 22-02-2010 14:14:02 12.7 C 5.01 g/m*3 12.7 C 0 km/h
550 22-02-2010 14:26:01 12.2 C 5.07 g/m*3 12.2 C 0 km/h
Sensor: Nr:Datum:Temp:Abs-Feuchte:Windchill:Wind:
Aussen-T/F 551 22-02-2010 14:38:02 12.5 C 5.06 g/m*3 12.5 C 0 km/h
552 22-02-2010 14:50:01 12.2 C 5.07 g/m*3 12.2 C 0 km/h
553 22-02-2010 15:02:02 12.3 C 5.1 g/m*3 12.3 C 0 km/h
554 22-02-2010 15:14:02 12.7 C 5.12 g/m*3 12.7 C 0 km/h
555 22-02-2010 15:26:01 13.3 C 5.2 g/m*3 13.3 C 0 km/h
556 22-02-2010 15:38:02 13.4 C 5 g/m*3 13.4 C 0 km/h
557 22-02-2010 15:50:01 12.7 C 5.23 g/m*3 12.7 C 0 km/h
558 22-02-2010 16:02:02 12.4 C 5.14 g/m*3 12.4 C 0 km/h
559 22-02-2010 16:14:02 11.9 C 5.3 g/m*3 11.9 C 0 km/h
560 22-02-2010 16:26:01 11.5 C 5.37 g/m*3 11.5 C 0 km/h
561 22-02-2010 16:38:01 11.4 C 5.44 g/m*3 11.4 C 0 km/h
562 22-02-2010 16:50:01 11.8 C 5.58 g/m*3 11.8 C 0 km/h
563 22-02-2010 17:02:01 12.1 C 5.47 g/m*3 12.1 C 0 km/h
564 22-02-2010 17:14:01 11.8 C 5.47 g/m*3 11.8 C 0 km/h
565 22-02-2010 17:26:01 11.3 C 5.51 g/m*3 11.3 C 0 km/h
566 22-02-2010 17:38:01 10.7 C 5.6 g/m*3 10.7 C 0 km/h
567 22-02-2010 17:50:01 10.4 C 5.69 g/m*3 10.4 C 0 km/h
568 22-02-2010 18:02:01 10.1 C 5.67 g/m*3 10.1 C 0 km/h
569 22-02-2010 18:14:01 9.9 C 5.79 g/m*3 9.9 C 0 km/h
570 22-02-2010 18:26:02 9.7 C 5.72 g/m*3 9.7 C 0 km/h
571 22-02-2010 18:38:01 9.4 C 5.7 g/m*3 9.4 C 0 km/h
572 22-02-2010 18:50:02 9.2 C 5.8 g/m*3 9.2 C 0 km/h
573 22-02-2010 19:02:01 9 C 5.73 g/m*3 9 C 0 km/h
574 22-02-2010 19:14:01 8.9 C 5.87 g/m*3 8.9 C 0 km/h
575 22-02-2010 19:26:02 8.9 C 5.87 g/m*3 8.9 C 0 km/h
Sensor: Nr:Datum:Temp:Abs-Feuchte:Windchill:Wind:
Aussen-T/F 576 22-02-2010 19:38:01 9 C 5.82 g/m*3 9 C 0 km/h
577 22-02-2010 19:50:02 9.1 C 5.77 g/m*3 9.1 C 0 km/h
578 22-02-2010 20:02:02 9.1 C 5.68 g/m*3 9.1 C 0 km/h
579 22-02-2010 20:14:02 9.2 C 5.63 g/m*3 9.2 C 0 km/h
580 22-02-2010 20:26:01 9.5 C 5.64 g/m*3 9.5 C 0 km/h
581 22-02-2010 20:38:02 9.4 C 5.52 g/m*3 9.4 C 0 km/h
582 22-02-2010 20:50:02 9 C 5.47 g/m*3 9 C 0 km/h
583 22-02-2010 21:02:01 8.7 C 5.53 g/m*3 8.7 C 0 km/h
584 22-02-2010 21:14:01 8.9 C 5.52 g/m*3 8.9 C 0 km/h
585 22-02-2010 21:26:01 8.8 C 5.48 g/m*3 8.8 C 0 km/h
586 22-02-2010 21:38:02 8.9 C 5.52 g/m*3 8.9 C 0 km/h
587 22-02-2010 21:50:01 8.9 C 5.52 g/m*3 8.9 C 0 km/h
588 22-02-2010 22:02:02 9.1 C 5.5 g/m*3 9.1 C 0 km/h
589 22-02-2010 22:14:02 9.5 C 5.55 g/m*3 9.5 C 0 km/h
590 22-02-2010 22:28:08 10.1 C 5.67 g/m*3 10.1 C 0 km/h
591 22-02-2010 22:40:08 11.1 C 5.54 g/m*3 11.1 C 0 km/h
592 22-02-2010 22:52:08 11.5 C 5.47 g/m*3 11.5 C 0 km/h
593 22-02-2010 23:04:08 12 C 5.33 g/m*3 12 C 0 km/h
594 22-02-2010 23:16:08 12.1 C 5.36 g/m*3 12.1 C 0 km/h
595 22-02-2010 23:28:08 12.1 C 5.47 g/m*3 12.1 C 0 km/h
596 22-02-2010 23:40:08 12 C 5.44 g/m*3 12 C 0 km/h
597 22-02-2010 23:52:08 12.2 C 5.5 g/m*3 12.2 C 0 km/h
598 23-02-2010 00:04:08 12.1 C 5.47 g/m*3 12.1 C 0 km/h
599 23-02-2010 00:16:08 12.1 C 5.47 g/m*3 12.1 C 0 km/h
600 23-02-2010 00:28:08 12.2 C 5.5 g/m*3 12.2 C 0 km/h
Sensor: Nr:Datum:Temp:Abs-Feuchte:Windchill:Wind:
Aussen-T/F 601 23-02-2010 00:40:08 12.2 C 5.4 g/m*3 12.2 C 0 km/h
602 23-02-2010 00:52:08 12.1 C 5.36 g/m*3 12.1 C 0 km/h
603 23-02-2010 01:04:08 11.8 C 5.47 g/m*3 11.8 C 0 km/h
604 23-02-2010 01:16:08 11.5 C 5.58 g/m*3 11.5 C 0 km/h
605 23-02-2010 01:28:08 11.4 C 5.75 g/m*3 11.4 C 0 km/h
606 23-02-2010 01:40:08 11.4 C 5.75 g/m*3 11.4 C 0 km/h
607 23-02-2010 01:52:08 11.4 C 5.85 g/m*3 11.4 C 0 km/h
608 23-02-2010 02:04:08 11.2 C 5.78 g/m*3 11.2 C 0 km/h
609 23-02-2010 02:16:08 11.2 C 5.88 g/m*3 11.2 C 0 km/h
610 23-02-2010 02:28:08 10.6 C 6.25 g/m*3 10.6 C 0 km/h
611 23-02-2010 02:40:08 10.4 C 6.46 g/m*3 10.4 C 0 km/h
612 23-02-2010 02:52:08 9.6 C 6.78 g/m*3 9.6 C 0 km/h
613 23-02-2010 03:04:09 9.3 C 6.83 g/m*3 9.3 C 0 km/h
614 23-02-2010 03:16:09 9.2 C 6.97 g/m*3 9.2 C 0 km/h
615 23-02-2010 03:28:09 9.1 C 6.92 g/m*3 9.1 C 0 km/h
616 23-02-2010 03:40:09 9.1 C 7.01 g/m*3 9.1 C 0 km/h
617 23-02-2010 03:52:09 8.9 C 7.1 g/m*3 8.9 C 0 km/h
618 23-02-2010 04:04:09 8.6 C 7.13 g/m*3 8.6 C 0 km/h
619 23-02-2010 04:16:09 8.6 C 7.22 g/m*3 8.6 C 0 km/h
620 23-02-2010 04:28:09 8.5 C 7.17 g/m*3 8.5 C 0 km/h
621 23-02-2010 04:40:09 8.6 C 7.22 g/m*3 8.6 C 0 km/h
622 23-02-2010 04:52:09 8.5 C 7.17 g/m*3 8.5 C 0 km/h
623 23-02-2010 05:04:09 8.4 C 7.04 g/m*3 8.4 C 0 km/h
624 23-02-2010 05:16:09 8.5 C 7.17 g/m*3 8.5 C 0 km/h
625 23-02-2010 05:28:09 8.3 C 7.08 g/m*3 8.3 C 0 km/h
Sensor: Nr:Datum:Temp:Abs-Feuchte:Windchill:Wind:
Aussen-T/F 626 23-02-2010 05:40:09 8.5 C 7.17 g/m*3 8.5 C 0 km/h
627 23-02-2010 05:52:09 8.5 C 7.09 g/m*3 8.5 C 0 km/h
628 23-02-2010 06:04:09 8.5 C 7.09 g/m*3 8.5 C 0 km/h
629 23-02-2010 06:16:09 8.5 C 7.09 g/m*3 8.5 C 0 km/h
630 23-02-2010 06:28:09 8.5 C 7.09 g/m*3 8.5 C 0 km/h
631 23-02-2010 06:40:09 8.5 C 7.09 g/m*3 8.5 C 0 km/h
632 23-02-2010 06:52:09 8.5 C 7.09 g/m*3 8.5 C 0 km/h
633 23-02-2010 07:04:09 8.4 C 7.04 g/m*3 8.4 C 0 km/h
634 23-02-2010 07:16:08 8.2 C 6.95 g/m*3 8.2 C 0 km/h
635 23-02-2010 07:28:08 8.1 C 6.99 g/m*3 8.1 C 0 km/h
636 23-02-2010 07:40:08 8.2 C 7.03 g/m*3 8.2 C 0 km/h
637 23-02-2010 07:52:01 8.2 C 7.03 g/m*3 8.2 C 0 km/h
638 23-02-2010 08:04:02 8.3 C 7.16 g/m*3 8.3 C 0 km/h
639 23-02-2010 08:16:01 8.5 C 7.26 g/m*3 8.5 C 0 km/h
640 23-02-2010 08:28:01 8.6 C 7.22 g/m*3 8.6 C 0 km/h
641 23-02-2010 08:40:02 8.8 C 7.31 g/m*3 8.8 C 0 km/h
642 23-02-2010 08:52:02 8.9 C 7.27 g/m*3 8.9 C 0 km/h
643 23-02-2010 09:04:02 9 C 7.23 g/m*3 9 C 0 km/h
644 23-02-2010 09:16:01 9.1 C 7.28 g/m*3 9.1 C 0 km/h
645 23-02-2010 09:28:01 9.1 C 7.1 g/m*3 9.1 C 0 km/h
646 23-02-2010 09:40:02 9.1 C 7.01 g/m*3 9.1 C 0 km/h
647 23-02-2010 09:52:02 9.3 C 7.19 g/m*3 9.3 C 0 km/h
648 23-02-2010 10:04:02 9.7 C 7.19 g/m*3 9.7 C 0 km/h
649 23-02-2010 10:16:01 10.4 C 7.04 g/m*3 10.4 C 0 km/h
650 23-02-2010 10:28:01 10.7 C 6.88 g/m*3 10.7 C 0 km/h
Sensor: Nr:Datum:Temp:Abs-Feuchte:Windchill:Wind:
Aussen-T/F 651 23-02-2010 10:40:02 10.6 C 6.83 g/m*3 10.6 C 0 km/h
652 23-02-2010 10:52:01 10.6 C 6.73 g/m*3 10.6 C 0 km/h
653 23-02-2010 11:04:02 10.8 C 6.92 g/m*3 10.8 C 0 km/h
654 23-02-2010 11:16:02 11 C 6.81 g/m*3 11 C 0 km/h
655 23-02-2010 11:28:02 11.2 C 6.69 g/m*3 11.2 C 0 km/h
656 23-02-2010 11:40:02 11.4 C 6.57 g/m*3 11.4 C 0 km/h
657 23-02-2010 11:52:01 11.6 C 6.55 g/m*3 11.6 C 0 km/h
658 23-02-2010 12:04:02 11.2 C 6.49 g/m*3 11.2 C 0 km/h
659 23-02-2010 12:16:02 10.9 C 6.66 g/m*3 10.9 C 0 km/h
660 23-02-2010 12:28:02 10.3 C 6.9 g/m*3 10.3 C 0 km/h
661 23-02-2010 12:40:01 10.5 C 7.27 g/m*3 10.5 C 0 km/h
662 23-02-2010 12:52:02 10.4 C 7.13 g/m*3 10.4 C 0 km/h
663 23-02-2010 13:04:01 10.3 C 7.18 g/m*3 10.3 C 0 km/h
664 23-02-2010 13:16:02 10.4 C 7.32 g/m*3 10.4 C 0 km/h
665 23-02-2010 13:28:02 10.5 C 7.37 g/m*3 10.5 C 0 km/h
666 23-02-2010 13:40:01 10.3 C 7.47 g/m*3 10.3 C 0 km/h
667 23-02-2010 13:52:02 10.6 C 7.71 g/m*3 10.6 C 0 km/h
668 23-02-2010 14:04:02 10.9 C 7.76 g/m*3 10.9 C 0 km/h
669 23-02-2010 14:16:02 11 C 7.81 g/m*3 11 C 0 km/h
670 23-02-2010 14:28:02 10.8 C 7.71 g/m*3 10.8 C 0 km/h
671 23-02-2010 14:40:03 10.9 C 7.76 g/m*3 10.9 C 0 km/h
672 23-02-2010 14:52:02 11 C 7.61 g/m*3 11 C 0 km/h
673 23-02-2010 15:04:01 11 C 7.71 g/m*3 11 C 0 km/h
674 23-02-2010 15:16:02 11 C 7.71 g/m*3 11 C 0 km/h
675 23-02-2010 15:28:02 11 C 7.81 g/m*3 11 C 0 km/h
Sensor: Nr:Datum:Temp:Abs-Feuchte:Windchill:Wind:
Aussen-T/F 676 23-02-2010 15:40:02 11.1 C 7.66 g/m*3 11.1 C 0 km/h
677 23-02-2010 15:52:02 11 C 7.51 g/m*3 11 C 0 km/h
678 23-02-2010 16:04:03 10.7 C 7.46 g/m*3 10.7 C 0 km/h
679 23-02-2010 16:16:02 10.5 C 7.47 g/m*3 10.5 C 0 km/h
680 23-02-2010 16:28:02 10.6 C 7.52 g/m*3 10.6 C 0 km/h
681 23-02-2010 16:40:02 10.6 C 7.52 g/m*3 10.6 C 0 km/h
682 23-02-2010 16:52:01 10.4 C 7.32 g/m*3 10.4 C 0 km/h
683 23-02-2010 17:04:02 10.4 C 7.32 g/m*3 10.4 C 0 km/h
684 23-02-2010 17:16:01 10.2 C 7.23 g/m*3 10.2 C 0 km/h
685 23-02-2010 17:28:01 10.1 C 7.09 g/m*3 10.1 C 0 km/h
686 23-02-2010 17:40:02 10.1 C 7.19 g/m*3 10.1 C 0 km/h
687 23-02-2010 17:52:01 10 C 7.14 g/m*3 10 C 0 km/h
688 23-02-2010 18:04:02 9.8 C 7.24 g/m*3 9.8 C 0 km/h
689 23-02-2010 18:16:01 9.6 C 7.33 g/m*3 9.6 C 0 km/h
690 23-02-2010 18:28:01 9.6 C 7.33 g/m*3 9.6 C 0 km/h
691 23-02-2010 18:40:02 9.5 C 7.37 g/m*3 9.5 C 0 km/h
692 23-02-2010 18:52:01 9.5 C 7.46 g/m*3 9.5 C 0 km/h
693 23-02-2010 19:04:02 9.2 C 7.41 g/m*3 9.2 C 0 km/h
694 23-02-2010 19:16:02 9.1 C 7.45 g/m*3 9.1 C 0 km/h
695 23-02-2010 19:28:02 9.2 C 7.59 g/m*3 9.2 C 0 km/h
696 23-02-2010 19:40:02 9.2 C 7.68 g/m*3 9.2 C 0 km/h
697 23-02-2010 19:52:02 9.2 C 7.68 g/m*3 9.2 C 0 km/h
698 23-02-2010 20:04:02 9 C 7.67 g/m*3 9 C 0 km/h
699 23-02-2010 20:16:02 9.1 C 7.81 g/m*3 9.1 C 0 km/h
700 23-02-2010 20:28:02 9 C 7.76 g/m*3 9 C 0 km/h
Sensor: Nr:Datum:Temp:Abs-Feuchte:Windchill:Wind:
Aussen-T/F 701 23-02-2010 20:40:02 9 C 7.76 g/m*3 9 C 0 km/h
702 23-02-2010 20:52:01 9.2 C 7.86 g/m*3 9.2 C 0 km/h
703 23-02-2010 21:04:02 9.3 C 7.91 g/m*3 9.3 C 0 km/h
704 23-02-2010 21:16:01 9.4 C 7.78 g/m*3 9.4 C 0 km/h
705 23-02-2010 21:28:01 9.6 C 7.6 g/m*3 9.6 C 0 km/h
706 23-02-2010 21:40:02 9.6 C 7.33 g/m*3 9.6 C 0 km/h
707 23-02-2010 21:52:02 9.5 C 7.1 g/m*3 9.5 C 0 km/h
708 23-02-2010 22:04:02 9.3 C 6.92 g/m*3 9.3 C 0 km/h
709 23-02-2010 22:16:02 9.3 C 6.92 g/m*3 9.3 C 0 km/h
710 23-02-2010 22:28:02 9.3 C 6.74 g/m*3 9.3 C 0 km/h
711 23-02-2010 22:40:02 8.9 C 6.75 g/m*3 8.9 C 0 km/h
712 23-02-2010 22:52:01 8.7 C 6.75 g/m*3 8.7 C 0 km/h
713 23-02-2010 23:04:02 8.5 C 6.66 g/m*3 8.5 C 0 km/h
714 23-02-2010 23:16:02 8.5 C 6.66 g/m*3 8.5 C 0 km/h
715 23-02-2010 23:28:02 8.2 C 6.62 g/m*3 8.2 C 0 km/h
716 23-02-2010 23:40:01 8.2 C 6.7 g/m*3 8.2 C 0 km/h
717 23-02-2010 23:52:02 8.2 C 6.7 g/m*3 8.2 C 0 km/h
718 24-02-2010 00:04:01 8.1 C 6.66 g/m*3 8.1 C 0 km/h
719 24-02-2010 00:16:02 7.9 C 6.74 g/m*3 7.9 C 0 km/h
720 24-02-2010 00:28:02 7.9 C 6.82 g/m*3 7.9 C 0 km/h
721 24-02-2010 00:40:01 7.8 C 6.77 g/m*3 7.8 C 0 km/h
722 24-02-2010 00:52:02 7.5 C 6.64 g/m*3 7.5 C 0 km/h
723 24-02-2010 01:04:01 7.3 C 6.64 g/m*3 7.3 C 0 km/h
724 24-02-2010 01:16:02 7.5 C 6.8 g/m*3 7.5 C 0 km/h
725 24-02-2010 01:28:02 8.1 C 6.99 g/m*3 8.1 C 0 km/h
Sensor: Nr:Datum:Temp:Abs-Feuchte:Windchill:Wind:
Aussen-T/F 726 24-02-2010 01:40:01 8.7 C 6.92 g/m*3 8.7 C 0 km/h
727 24-02-2010 01:52:02 8.6 C 6.7 g/m*3 8.6 C 0 km/h
728 24-02-2010 02:04:02 8.3 C 6.57 g/m*3 8.3 C 0 km/h
729 24-02-2010 02:16:02 8.1 C 6.57 g/m*3 8.1 C 0 km/h
730 24-02-2010 02:28:02 7.9 C 6.74 g/m*3 7.9 C 0 km/h
731 24-02-2010 02:40:02 7.9 C 6.82 g/m*3 7.9 C 0 km/h
732 24-02-2010 02:52:01 7.8 C 6.77 g/m*3 7.8 C 0 km/h
733 24-02-2010 03:04:01 7.7 C 6.73 g/m*3 7.7 C 0 km/h
734 24-02-2010 03:16:01 7.9 C 6.9 g/m*3 7.9 C 0 km/h
735 24-02-2010 03:28:01 8 C 6.86 g/m*3 8 C 0 km/h
736 24-02-2010 03:40:02 8 C 6.78 g/m*3 8 C 0 km/h
737 24-02-2010 03:52:02 8 C 6.78 g/m*3 8 C 0 km/h
738 24-02-2010 04:04:01 8 C 6.78 g/m*3 8 C 0 km/h
739 24-02-2010 04:16:02 8 C 6.86 g/m*3 8 C 0 km/h
740 24-02-2010 04:28:02 8 C 6.86 g/m*3 8 C 0 km/h
741 24-02-2010 04:40:01 8 C 6.86 g/m*3 8 C 0 km/h
742 24-02-2010 04:52:02 8.1 C 6.91 g/m*3 8.1 C 0 km/h
743 24-02-2010 05:04:01 8.3 C 7 g/m*3 8.3 C 0 km/h
744 24-02-2010 05:16:01 8.4 C 6.96 g/m*3 8.4 C 0 km/h
745 24-02-2010 05:28:01 8.2 C 6.78 g/m*3 8.2 C 0 km/h
746 24-02-2010 05:40:01 8.3 C 6.83 g/m*3 8.3 C 0 km/h
747 24-02-2010 05:52:02 8.4 C 6.79 g/m*3 8.4 C 0 km/h
748 24-02-2010 06:04:01 8.2 C 6.62 g/m*3 8.2 C 0 km/h
749 24-02-2010 06:16:01 7.9 C 6.65 g/m*3 7.9 C 0 km/h
750 24-02-2010 06:28:01 7.8 C 6.61 g/m*3 7.8 C 0 km/h
Sensor: Nr:Datum:Temp:Abs-Feuchte:Windchill:Wind:
Aussen-T/F 751 24-02-2010 06:40:02 7.6 C 6.53 g/m*3 7.6 C 0 km/h
752 24-02-2010 06:52:01 7.3 C 6.4 g/m*3 7.3 C 0 km/h
753 24-02-2010 07:04:01 7.3 C 6.56 g/m*3 7.3 C 0 km/h
754 24-02-2010 07:16:01 7.4 C 6.6 g/m*3 7.4 C 0 km/h
755 24-02-2010 07:28:01 7.5 C 6.64 g/m*3 7.5 C 0 km/h
756 24-02-2010 07:40:02 7.5 C 6.56 g/m*3 7.5 C 0 km/h
757 24-02-2010 07:52:01 7.4 C 6.6 g/m*3 7.4 C 0 km/h
758 24-02-2010 08:04:02 7.5 C 6.64 g/m*3 7.5 C 0 km/h
759 24-02-2010 08:16:01 7.5 C 6.56 g/m*3 7.5 C 0 km/h
760 24-02-2010 08:28:01 7.9 C 6.82 g/m*3 7.9 C 0 km/h
761 24-02-2010 08:40:02 8.1 C 6.74 g/m*3 8.1 C 0 km/h
762 24-02-2010 08:52:01 8.5 C 6.92 g/m*3 8.5 C 0 km/h
763 24-02-2010 09:04:02 8.6 C 6.79 g/m*3 8.6 C 0 km/h
764 24-02-2010 09:16:01 8.9 C 6.83 g/m*3 8.9 C 0 km/h
765 24-02-2010 09:28:01 9.1 C 6.65 g/m*3 9.1 C 0 km/h
766 24-02-2010 09:40:01 9.2 C 6.52 g/m*3 9.2 C 0 km/h
767 24-02-2010 09:52:01 9.4 C 6.51 g/m*3 9.4 C 0 km/h
768 24-02-2010 10:04:02 9.7 C 6.55 g/m*3 9.7 C 0 km/h
769 24-02-2010 10:16:01 10 C 6.39 g/m*3 10 C 0 km/h
770 24-02-2010 10:28:01 10.2 C 6.28 g/m*3 10.2 C 0 km/h
771 24-02-2010 10:40:01 10.4 C 6.26 g/m*3 10.4 C 0 km/h
772 24-02-2010 10:52:01 10.9 C 6.17 g/m*3 10.9 C 0 km/h
773 24-02-2010 11:04:01 10.9 C 5.97 g/m*3 10.9 C 0 km/h
774 24-02-2010 11:16:02 11.1 C 5.74 g/m*3 11.1 C 0 km/h
775 24-02-2010 11:28:02 11.2 C 5.68 g/m*3 11.2 C 0 km/h
Sensor: Nr:Datum:Temp:Abs-Feuchte:Windchill:Wind:
Aussen-T/F 776 24-02-2010 11:40:01 11.2 C 5.57 g/m*3 11.2 C 0 km/h
777 24-02-2010 11:52:01 11.3 C 5.61 g/m*3 11.3 C 0 km/h
778 24-02-2010 12:04:01 11.1 C 5.64 g/m*3 11.1 C 0 km/h
779 24-02-2010 12:16:02 11.2 C 5.57 g/m*3 11.2 C 0 km/h
780 24-02-2010 12:28:02 11.6 C 5.72 g/m*3 11.6 C 0 km/h
781 24-02-2010 12:40:01 11.8 C 5.58 g/m*3 11.8 C 0 km/h
782 24-02-2010 12:52:02 12 C 5.54 g/m*3 12 C 0 km/h
783 24-02-2010 13:04:01 12 C 5.54 g/m*3 12 C 0 km/h
784 24-02-2010 13:16:02 11.8 C 5.58 g/m*3 11.8 C 0 km/h
785 24-02-2010 13:28:02 12 C 5.44 g/m*3 12 C 0 km/h
786 24-02-2010 13:40:01 12.2 C 5.61 g/m*3 12.2 C 0 km/h
787 24-02-2010 13:52:02 12.4 C 5.35 g/m*3 12.4 C 0 km/h
788 24-02-2010 14:04:01 12.3 C 5.32 g/m*3 12.3 C 0 km/h
789 24-02-2010 14:16:01 12.6 C 5.53 g/m*3 12.6 C 0 km/h
790 24-02-2010 14:28:01 12.7 C 5.45 g/m*3 12.7 C 0 km/h
791 24-02-2010 14:40:01 12.8 C 5.38 g/m*3 12.8 C 0 km/h
792 24-02-2010 14:52:02 13.1 C 5.36 g/m*3 13.1 C 0 km/h
793 24-02-2010 15:04:01 13.2 C 5.4 g/m*3 13.2 C 0 km/h
794 24-02-2010 15:16:01 13.1 C 5.36 g/m*3 13.1 C 0 km/h
795 24-02-2010 15:28:01 13.2 C 5.4 g/m*3 13.2 C 0 km/h
796 24-02-2010 15:40:02 13.7 C 5.45 g/m*3 13.7 C 0 km/h
797 24-02-2010 15:52:01 14.1 C 5.46 g/m*3 14.1 C 0 km/h
798 24-02-2010 16:04:01 15.2 C 5.58 g/m*3 15.2 C 0 km/h
799 24-02-2010 16:16:01 14.4 C 5.19 g/m*3 14.4 C 0 km/h
800 24-02-2010 16:28:01 14 C 5.43 g/m*3 14 C 0 km/h
Sensor: Nr:Datum:Temp:Abs-Feuchte:Windchill:Wind:
Aussen-T/F 801 24-02-2010 16:40:02 14.4 C 5.32 g/m*3 14.4 C 0 km/h
802 24-02-2010 16:52:01 14.2 C 5.13 g/m*3 14.2 C 0 km/h
803 24-02-2010 17:04:02 13.6 C 5.3 g/m*3 13.6 C 0 km/h
804 24-02-2010 17:16:01 12.8 C 5.38 g/m*3 12.8 C 0 km/h
805 24-02-2010 17:28:01 11.8 C 5.68 g/m*3 11.8 C 0 km/h
806 24-02-2010 17:40:02 11.2 C 5.68 g/m*3 11.2 C 0 km/h
807 24-02-2010 17:52:01 10.7 C 5.8 g/m*3 10.7 C 0 km/h
808 24-02-2010 18:04:02 10.2 C 5.8 g/m*3 10.2 C 0 km/h
809 24-02-2010 18:16:01 9.8 C 5.85 g/m*3 9.8 C 0 km/h
810 24-02-2010 18:28:02 9.7 C 5.9 g/m*3 9.7 C 0 km/h
811 24-02-2010 18:40:01 9.6 C 5.95 g/m*3 9.6 C 0 km/h
812 24-02-2010 18:52:01 9.6 C 6.05 g/m*3 9.6 C 0 km/h
813 24-02-2010 19:04:01 9.7 C 6.18 g/m*3 9.7 C 0 km/h
814 24-02-2010 19:16:01 9.5 C 6.55 g/m*3 9.5 C 0 km/h
815 24-02-2010 19:28:01 8.8 C 6.7 g/m*3 8.8 C 0 km/h
816 24-02-2010 19:40:01 8.5 C 6.92 g/m*3 8.5 C 0 km/h
817 24-02-2010 19:52:01 8.5 C 7.09 g/m*3 8.5 C 0 km/h
818 24-02-2010 20:04:01 8.4 C 7.13 g/m*3 8.4 C 0 km/h
819 24-02-2010 20:16:02 8.3 C 7.16 g/m*3 8.3 C 0 km/h
820 24-02-2010 20:28:02 8.4 C 7.3 g/m*3 8.4 C 0 km/h
821 24-02-2010 20:40:01 8.3 C 7.33 g/m*3 8.3 C 0 km/h
822 24-02-2010 20:52:01 8.5 C 7.43 g/m*3 8.5 C 0 km/h
823 24-02-2010 21:04:01 8.5 C 7.51 g/m*3 8.5 C 0 km/h
824 24-02-2010 21:16:02 8.4 C 7.38 g/m*3 8.4 C 0 km/h
825 24-02-2010 21:28:02 7.9 C 7.23 g/m*3 7.9 C 0 km/h
Sensor: Nr:Datum:Temp:Abs-Feuchte:Windchill:Wind:
Aussen-T/F 826 24-02-2010 21:40:01 7.8 C 7.18 g/m*3 7.8 C 0 km/h
827 24-02-2010 21:52:02 7.6 C 7.09 g/m*3 7.6 C 0 km/h
828 24-02-2010 22:04:01 7.5 C 6.96 g/m*3 7.5 C 0 km/h
829 24-02-2010 22:16:02 7.6 C 7.01 g/m*3 7.6 C 0 km/h
830 24-02-2010 22:28:02 7.7 C 7.05 g/m*3 7.7 C 0 km/h
831 24-02-2010 22:40:01 8 C 7.03 g/m*3 8 C 0 km/h
832 24-02-2010 22:52:02 8.1 C 6.82 g/m*3 8.1 C 0 km/h
833 24-02-2010 23:04:01 8.2 C 6.7 g/m*3 8.2 C 0 km/h
834 24-02-2010 23:16:01 8.3 C 6.74 g/m*3 8.3 C 0 km/h
835 24-02-2010 23:28:01 8.4 C 6.62 g/m*3 8.4 C 0 km/h
836 24-02-2010 23:40:01 8.4 C 6.53 g/m*3 8.4 C 0 km/h
837 24-02-2010 23:52:02 8.4 C 6.45 g/m*3 8.4 C 0 km/h
838 25-02-2010 00:04:01 8.7 C 6.49 g/m*3 8.7 C 0 km/h
839 25-02-2010 00:16:02 8.7 C 6.4 g/m*3 8.7 C 0 km/h
840 25-02-2010 00:28:02 8.6 C 6.36 g/m*3 8.6 C 0 km/h
841 25-02-2010 00:40:01 8.4 C 6.28 g/m*3 8.4 C 0 km/h
842 25-02-2010 00:52:02 8.1 C 6.24 g/m*3 8.1 C 0 km/h
843 25-02-2010 01:04:01 8.1 C 6.41 g/m*3 8.1 C 0 km/h
844 25-02-2010 01:16:01 8.4 C 6.36 g/m*3 8.4 C 0 km/h
845 25-02-2010 01:28:01 8.5 C 6.23 g/m*3 8.5 C 0 km/h
846 25-02-2010 01:40:02 8.6 C 6.19 g/m*3 8.6 C 0 km/h
847 25-02-2010 01:52:01 8.6 C 6.19 g/m*3 8.6 C 0 km/h
848 25-02-2010 02:04:01 8.4 C 6.11 g/m*3 8.4 C 0 km/h
849 25-02-2010 02:16:01 8 C 6.12 g/m*3 8 C 0 km/h
850 25-02-2010 02:28:01 7.9 C 6.32 g/m*3 7.9 C 0 km/h
Sensor: Nr:Datum:Temp:Abs-Feuchte:Windchill:Wind:
Aussen-T/F 851 25-02-2010 02:40:02 7.9 C 6.41 g/m*3 7.9 C 0 km/h
852 25-02-2010 02:52:01 7.8 C 6.28 g/m*3 7.8 C 0 km/h
853 25-02-2010 03:04:01 7.7 C 6.32 g/m*3 7.7 C 0 km/h
854 25-02-2010 03:16:02 7.5 C 6.48 g/m*3 7.5 C 0 km/h
855 25-02-2010 03:28:02 7.4 C 6.6 g/m*3 7.4 C 0 km/h
856 25-02-2010 03:40:02 7.3 C 6.56 g/m*3 7.3 C 0 km/h
857 25-02-2010 03:52:02 7.3 C 6.56 g/m*3 7.3 C 0 km/h
858 25-02-2010 04:04:01 7.2 C 6.52 g/m*3 7.2 C 0 km/h
859 25-02-2010 04:16:01 7.2 C 6.52 g/m*3 7.2 C 0 km/h
860 25-02-2010 04:28:01 7.2 C 6.52 g/m*3 7.2 C 0 km/h
861 25-02-2010 04:40:02 7.1 C 6.47 g/m*3 7.1 C 0 km/h
862 25-02-2010 04:52:01 7.1 C 6.55 g/m*3 7.1 C 0 km/h
863 25-02-2010 05:04:02 7.3 C 6.56 g/m*3 7.3 C 0 km/h
864 25-02-2010 05:16:01 7.2 C 6.52 g/m*3 7.2 C 0 km/h
865 25-02-2010 05:28:01 7.4 C 6.6 g/m*3 7.4 C 0 km/h
866 25-02-2010 05:40:02 7.6 C 6.53 g/m*3 7.6 C 0 km/h
867 25-02-2010 05:52:01 7.9 C 6.32 g/m*3 7.9 C 0 km/h
868 25-02-2010 06:04:02 8.1 C 6.07 g/m*3 8.1 C 0 km/h
869 25-02-2010 06:16:01 8.3 C 5.98 g/m*3 8.3 C 0 km/h
870 25-02-2010 06:28:01 8.5 C 5.89 g/m*3 8.5 C 0 km/h
871 25-02-2010 06:40:02 8.6 C 5.84 g/m*3 8.6 C 0 km/h
872 25-02-2010 06:52:02 8.7 C 5.79 g/m*3 8.7 C 0 km/h
873 25-02-2010 07:04:01 8.7 C 5.79 g/m*3 8.7 C 0 km/h
874 25-02-2010 07:16:01 8.8 C 5.74 g/m*3 8.8 C 0 km/h
875 25-02-2010 07:28:01 8.8 C 5.83 g/m*3 8.8 C 0 km/h
Sensor: Nr:Datum:Temp:Abs-Feuchte:Windchill:Wind:
Aussen-T/F 876 25-02-2010 07:40:01 8.7 C 5.88 g/m*3 8.7 C 0 km/h
877 25-02-2010 07:52:02 8.6 C 5.93 g/m*3 8.6 C 0 km/h
878 25-02-2010 08:04:01 8.4 C 6.02 g/m*3 8.4 C 0 km/h
879 25-02-2010 08:16:01 8.6 C 5.93 g/m*3 8.6 C 0 km/h
880 25-02-2010 08:28:01 8.9 C 5.78 g/m*3 8.9 C 0 km/h
881 25-02-2010 08:40:02 9 C 5.64 g/m*3 9 C 0 km/h
882 25-02-2010 08:52:01 9.1 C 5.68 g/m*3 9.1 C 0 km/h
883 25-02-2010 09:04:02 9.3 C 5.66 g/m*3 9.3 C 0 km/h
884 25-02-2010 09:16:01 9.5 C 5.64 g/m*3 9.5 C 0 km/h
885 25-02-2010 09:28:01 9.6 C 5.5 g/m*3 9.6 C 0 km/h
886 25-02-2010 09:40:02 9.6 C 5.59 g/m*3 9.6 C 0 km/h
887 25-02-2010 09:52:01 9.9 C 5.6 g/m*3 9.9 C 0 km/h
888 25-02-2010 10:04:02 9.9 C 5.51 g/m*3 9.9 C 0 km/h
889 25-02-2010 10:16:01 9.9 C 5.6 g/m*3 9.9 C 0 km/h
890 25-02-2010 10:28:01 10.2 C 5.42 g/m*3 10.2 C 0 km/h
891 25-02-2010 10:40:02 10.6 C 5.37 g/m*3 10.6 C 0 km/h
892 25-02-2010 10:52:01 10.7 C 5.21 g/m*3 10.7 C 0 km/h
893 25-02-2010 11:04:01 10.6 C 5.17 g/m*3 10.6 C 0 km/h
894 25-02-2010 11:16:01 11.2 C 5.17 g/m*3 11.2 C 0 km/h
895 25-02-2010 11:28:01 10.9 C 5.17 g/m*3 10.9 C 0 km/h
896 25-02-2010 11:40:02 11.2 C 5.07 g/m*3 11.2 C 0 km/h
897 25-02-2010 11:52:01 11.3 C 5.1 g/m*3 11.3 C 0 km/h
898 25-02-2010 12:04:02 11.4 C 4.82 g/m*3 11.4 C 0 km/h
899 25-02-2010 12:16:01 11.4 C 4.82 g/m*3 11.4 C 0 km/h
900 25-02-2010 12:28:01 11.4 C 4.82 g/m*3 11.4 C 0 km/h
Sensor: Nr:Datum:Temp:Abs-Feuchte:Windchill:Wind:
Aussen-T/F 901 25-02-2010 12:40:02 11.1 C 4.73 g/m*3 11.1 C 0 km/h
902 25-02-2010 12:52:01 11.4 C 4.82 g/m*3 11.4 C 0 km/h
903 25-02-2010 13:04:02 11.7 C 4.81 g/m*3 11.7 C 0 km/h
904 25-02-2010 13:16:01 12.9 C 4.85 g/m*3 12.9 C 0 km/h
905 25-02-2010 13:28:01 13 C 4.54 g/m*3 13 C 0 km/h
906 25-02-2010 13:40:02 12.7 C 4.68 g/m*3 12.7 C 0 km/h
907 25-02-2010 13:52:01 11.9 C 4.77 g/m*3 11.9 C 0 km/h
908 25-02-2010 14:04:02 12.2 C 4.96 g/m*3 12.2 C 0 km/h
909 25-02-2010 14:16:01 13 C 4.88 g/m*3 13 C 0 km/h
910 25-02-2010 14:28:01 12.8 C 4.82 g/m*3 12.8 C 0 km/h
911 25-02-2010 14:40:01 12.4 C 4.7 g/m*3 12.4 C 0 km/h
912 25-02-2010 14:52:01 12.6 C 4.87 g/m*3 12.6 C 0 km/h
913 25-02-2010 15:04:02 12.7 C 4.68 g/m*3 12.7 C 0 km/h
914 25-02-2010 15:16:01 12.8 C 4.59 g/m*3 12.8 C 0 km/h
915 25-02-2010 15:28:01 12.5 C 4.4 g/m*3 12.5 C 0 km/h
916 25-02-2010 15:40:01 12.5 C 4.4 g/m*3 12.5 C 0 km/h
917 25-02-2010 15:52:01 12.3 C 4.34 g/m*3 12.3 C 0 km/h
918 25-02-2010 16:04:01 12.2 C 4.32 g/m*3 12.2 C 0 km/h
919 25-02-2010 16:16:02 12 C 4.26 g/m*3 12 C 0 km/h
920 25-02-2010 16:28:02 11.8 C 4.53 g/m*3 11.8 C 0 km/h
921 25-02-2010 16:40:01 11.6 C 4.68 g/m*3 11.6 C 0 km/h
922 25-02-2010 16:52:01 11.5 C 4.75 g/m*3 11.5 C 0 km/h
923 25-02-2010 17:04:01 11.2 C 5.07 g/m*3 11.2 C 0 km/h
924 25-02-2010 17:16:01 11.2 C 4.97 g/m*3 11.2 C 0 km/h
925 25-02-2010 17:28:01 11 C 4.8 g/m*3 11 C 0 km/h
Sensor: Nr:Datum:Temp:Abs-Feuchte:Windchill:Wind:
Aussen-T/F 926 25-02-2010 17:40:01 11 C 4.8 g/m*3 11 C 0 km/h
927 25-02-2010 17:52:01 10.9 C 4.87 g/m*3 10.9 C 0 km/h
928 25-02-2010 18:04:02 10.5 C 5.14 g/m*3 10.5 C 0 km/h
929 25-02-2010 18:16:01 9.7 C 5.35 g/m*3 9.7 C 0 km/h
930 25-02-2010 18:28:01 9.3 C 5.93 g/m*3 9.3 C 0 km/h
931 25-02-2010 18:40:02 8.9 C 6.22 g/m*3 8.9 C 0 km/h
932 25-02-2010 18:52:02 8.8 C 6.53 g/m*3 8.8 C 0 km/h
933 25-02-2010 19:04:01 8.5 C 6.57 g/m*3 8.5 C 0 km/h
934 25-02-2010 19:16:01 8.6 C 6.79 g/m*3 8.6 C 0 km/h
935 25-02-2010 19:28:01 8.5 C 6.83 g/m*3 8.5 C 0 km/h
936 25-02-2010 19:40:02 8.4 C 6.87 g/m*3 8.4 C 0 km/h
937 25-02-2010 19:52:01 8.5 C 6.83 g/m*3 8.5 C 0 km/h
938 25-02-2010 20:04:02 8.6 C 6.79 g/m*3 8.6 C 0 km/h
939 25-02-2010 20:16:01 8.6 C 6.7 g/m*3 8.6 C 0 km/h
940 25-02-2010 20:28:01 8.6 C 6.7 g/m*3 8.6 C 0 km/h
941 25-02-2010 20:40:02 8.7 C 6.66 g/m*3 8.7 C 0 km/h
942 25-02-2010 20:52:01 8.8 C 6.61 g/m*3 8.8 C 0 km/h
943 25-02-2010 21:04:02 8.9 C 6.66 g/m*3 8.9 C 0 km/h
944 25-02-2010 21:16:01 9 C 6.52 g/m*3 9 C 0 km/h
945 25-02-2010 21:28:01 9.2 C 6.61 g/m*3 9.2 C 0 km/h
946 25-02-2010 21:40:02 9.2 C 6.52 g/m*3 9.2 C 0 km/h
947 25-02-2010 21:52:01 9.2 C 6.52 g/m*3 9.2 C 0 km/h
948 25-02-2010 22:04:01 9.1 C 6.57 g/m*3 9.1 C 0 km/h
949 25-02-2010 22:16:01 9.1 C 6.65 g/m*3 9.1 C 0 km/h
950 25-02-2010 22:28:01 9.2 C 6.61 g/m*3 9.2 C 0 km/h
Sensor: Nr:Datum:Temp:Abs-Feuchte:Windchill:Wind:
Aussen-T/F 951 25-02-2010 22:40:01 9.3 C 6.65 g/m*3 9.3 C 0 km/h
952 25-02-2010 22:52:02 9.2 C 6.61 g/m*3 9.2 C 0 km/h
953 25-02-2010 23:04:01 9.2 C 6.7 g/m*3 9.2 C 0 km/h
954 25-02-2010 23:16:01 9.5 C 6.83 g/m*3 9.5 C 0 km/h
955 25-02-2010 23:28:01 9.4 C 6.78 g/m*3 9.4 C 0 km/h
956 25-02-2010 23:40:02 9.3 C 6.74 g/m*3 9.3 C 0 km/h
957 25-02-2010 23:52:01 9.4 C 6.78 g/m*3 9.4 C 0 km/h
958 26-02-2010 00:04:02 9.3 C 6.83 g/m*3 9.3 C 0 km/h
959 26-02-2010 00:16:01 9.4 C 6.87 g/m*3 9.4 C 0 km/h
960 26-02-2010 00:28:01 9.4 C 6.87 g/m*3 9.4 C 0 km/h
961 26-02-2010 00:40:02 9.3 C 6.83 g/m*3 9.3 C 0 km/h
962 26-02-2010 00:52:01 9.3 C 6.92 g/m*3 9.3 C 0 km/h
963 26-02-2010 01:04:02 9.4 C 6.96 g/m*3 9.4 C 0 km/h
964 26-02-2010 01:16:01 9.5 C 7.01 g/m*3 9.5 C 0 km/h
965 26-02-2010 01:28:01 9.4 C 6.96 g/m*3 9.4 C 0 km/h
966 26-02-2010 01:40:01 9.6 C 7.05 g/m*3 9.6 C 0 km/h
967 26-02-2010 01:52:01 9.6 C 6.96 g/m*3 9.6 C 0 km/h
968 26-02-2010 02:04:01 9.8 C 7.05 g/m*3 9.8 C 0 km/h
969 26-02-2010 02:16:01 9.8 C 7.05 g/m*3 9.8 C 0 km/h
970 26-02-2010 02:28:01 9.7 C 7.01 g/m*3 9.7 C 0 km/h
971 26-02-2010 02:40:01 9.8 C 7.05 g/m*3 9.8 C 0 km/h
972 26-02-2010 02:53:06 9.8 C 7.05 g/m*3 9.8 C 0 km/h
973 26-02-2010 03:05:06 9.8 C 7.05 g/m*3 9.8 C 0 km/h
974 26-02-2010 03:17:06 10 C 6.95 g/m*3 10 C 0 km/h
975 26-02-2010 03:29:06 9.9 C 7 g/m*3 9.9 C 0 km/h
Sensor: Nr:Datum:Temp:Abs-Feuchte:Windchill:Wind:
Aussen-T/F 976 26-02-2010 03:41:02 9.9 C 6.91 g/m*3 9.9 C 0 km/h
977 26-02-2010 03:53:02 9.7 C 6.82 g/m*3 9.7 C 0 km/h
978 26-02-2010 04:05:03 9.5 C 6.83 g/m*3 9.5 C 0 km/h
979 26-02-2010 04:17:02 9.5 C 6.83 g/m*3 9.5 C 0 km/h
980 26-02-2010 04:29:02 9.5 C 6.83 g/m*3 9.5 C 0 km/h
981 26-02-2010 04:41:02 9.7 C 6.73 g/m*3 9.7 C 0 km/h
982 26-02-2010 04:53:01 9.5 C 6.64 g/m*3 9.5 C 0 km/h
983 26-02-2010 05:05:02 9.4 C 6.51 g/m*3 9.4 C 0 km/h
984 26-02-2010 05:17:01 9.4 C 6.42 g/m*3 9.4 C 0 km/h
985 26-02-2010 05:29:01 9.6 C 6.32 g/m*3 9.6 C 0 km/h
986 26-02-2010 05:41:02 9.2 C 6.34 g/m*3 9.2 C 0 km/h
987 26-02-2010 05:53:01 9.1 C 6.3 g/m*3 9.1 C 0 km/h
988 26-02-2010 06:05:02 8.8 C 6.27 g/m*3 8.8 C 0 km/h
989 26-02-2010 06:17:01 9 C 6.26 g/m*3 9 C 0 km/h
990 26-02-2010 06:29:01 9.1 C 6.21 g/m*3 9.1 C 0 km/h
991 26-02-2010 06:41:02 9.2 C 6.07 g/m*3 9.2 C 0 km/h
992 26-02-2010 06:53:01 9.4 C 6.15 g/m*3 9.4 C 0 km/h
993 26-02-2010 07:05:02 9.1 C 6.03 g/m*3 9.1 C 0 km/h
994 26-02-2010 07:17:02 8.9 C 6.31 g/m*3 8.9 C 0 km/h
995 26-02-2010 07:29:02 9 C 6.26 g/m*3 9 C 0 km/h
996 26-02-2010 07:41:02 9.2 C 6.07 g/m*3 9.2 C 0 km/h
997 26-02-2010 07:53:02 9.5 C 5.92 g/m*3 9.5 C 0 km/h
998 26-02-2010 08:05:02 9.6 C 5.77 g/m*3 9.6 C 0 km/h
999 26-02-2010 08:17:02 9.6 C 5.68 g/m*3 9.6 C 0 km/h
1000 26-02-2010 08:29:02 9.8 C 5.57 g/m*3 9.8 C 0 km/h
Sensor: Nr:Datum:Temp:Abs-Feuchte:Windchill:Wind:
Aussen-T/F 1001 26-02-2010 08:41:02 9.7 C 5.72 g/m*3 9.7 C 0 km/h
1002 26-02-2010 08:53:02 9.8 C 5.66 g/m*3 9.8 C 0 km/h
1003 26-02-2010 09:05:02 10.2 C 5.52 g/m*3 10.2 C 0 km/h
1004 26-02-2010 09:17:02 10.2 C 5.42 g/m*3 10.2 C 0 km/h
1005 26-02-2010 09:29:02 10.1 C 5.58 g/m*3 10.1 C 0 km/h
1006 26-02-2010 09:41:02 10.1 C 5.39 g/m*3 10.1 C 0 km/h
1007 26-02-2010 09:53:02 10.5 C 5.33 g/m*3 10.5 C 0 km/h
1008 26-02-2010 10:05:02 9.8 C 5.66 g/m*3 9.8 C 0 km/h
1009 26-02-2010 10:17:02 9.5 C 5.92 g/m*3 9.5 C 0 km/h
1010 26-02-2010 10:29:02 9.9 C 5.88 g/m*3 9.9 C 0 km/h
1011 26-02-2010 10:41:02 10.1 C 5.48 g/m*3 10.1 C 0 km/h
1012 26-02-2010 10:53:02 10.3 C 5.36 g/m*3 10.3 C 0 km/h
1013 26-02-2010 11:05:02 10.6 C 5.47 g/m*3 10.6 C 0 km/h
1014 26-02-2010 11:17:03 10.8 C 5.34 g/m*3 10.8 C 0 km/h
1015 26-02-2010 11:29:03 11 C 5.2 g/m*3 11 C 0 km/h
1016 26-02-2010 11:41:02 11.2 C 5.17 g/m*3 11.2 C 0 km/h
1017 26-02-2010 11:53:02 10.2 C 5.52 g/m*3 10.2 C 0 km/h
1018 26-02-2010 12:05:02 9.7 C 5.72 g/m*3 9.7 C 0 km/h
1019 26-02-2010 12:17:02 10 C 5.64 g/m*3 10 C 0 km/h
1020 26-02-2010 12:29:02 10.8 C 5.73 g/m*3 10.8 C 0 km/h
1021 26-02-2010 12:41:02 10.8 C 5.44 g/m*3 10.8 C 0 km/h
1022 26-02-2010 12:53:02 10.3 C 5.84 g/m*3 10.3 C 0 km/h
1023 26-02-2010 13:05:02 10.4 C 5.78 g/m*3 10.4 C 0 km/h
1024 26-02-2010 13:17:03 10.7 C 5.6 g/m*3 10.7 C 0 km/h
1025 26-02-2010 13:29:03 11.4 C 5.44 g/m*3 11.4 C 0 km/h
Sensor: Nr:Datum:Temp:Abs-Feuchte:Windchill:Wind:
Aussen-T/F 1026 26-02-2010 13:41:02 11.1 C 5.24 g/m*3 11.1 C 0 km/h
1027 26-02-2010 13:53:01 10.9 C 5.07 g/m*3 10.9 C 0 km/h
1028 26-02-2010 14:05:01 11.1 C 5.34 g/m*3 11.1 C 0 km/h
1029 26-02-2010 14:17:02 10.8 C 5.14 g/m*3 10.8 C 0 km/h
1030 26-02-2010 14:29:02 10.6 C 5.17 g/m*3 10.6 C 0 km/h
1031 26-02-2010 14:41:02 10.1 C 5.01 g/m*3 10.1 C 0 km/h
1032 26-02-2010 14:53:03 9.4 C 5.25 g/m*3 9.4 C 0 km/h
1033 26-02-2010 15:05:03 9.2 C 5.36 g/m*3 9.2 C 0 km/h
1034 26-02-2010 15:17:02 8.9 C 5.26 g/m*3 8.9 C 0 km/h
1035 26-02-2010 15:29:03 8.7 C 5.28 g/m*3 8.7 C 0 km/h
1036 26-02-2010 15:41:02 8.4 C 5.34 g/m*3 8.4 C 0 km/h
1037 26-02-2010 15:53:02 8.3 C 4.89 g/m*3 8.3 C 0 km/h
1038 26-02-2010 16:05:02 8.2 C 4.69 g/m*3 8.2 C 0 km/h
1039 26-02-2010 16:17:02 8 C 4.3 g/m*3 8 C 0 km/h
1040 26-02-2010 16:29:02 7.9 C 4.19 g/m*3 7.9 C 0 km/h
1041 26-02-2010 16:41:04 7.9 C 4.02 g/m*3 7.9 C 0 km/h
1042 26-02-2010 16:53:02 7.9 C 4.11 g/m*3 7.9 C 0 km/h
1043 26-02-2010 17:05:01 8.1 C 4.08 g/m*3 8.1 C 0 km/h
1044 26-02-2010 17:17:02 8 C 4.05 g/m*3 8 C 0 km/h
1045 26-02-2010 17:29:02 7.9 C 4.11 g/m*3 7.9 C 0 km/h
1046 26-02-2010 17:41:02 7.8 C 4.16 g/m*3 7.8 C 0 km/h
1047 26-02-2010 17:53:02 7.7 C 4.22 g/m*3 7.7 C 0 km/h
1048 26-02-2010 18:05:02 7.6 C 4.27 g/m*3 7.6 C 0 km/h
1049 26-02-2010 18:17:01 7.3 C 4.42 g/m*3 7.3 C 0 km/h
1050 26-02-2010 18:29:01 6.6 C 4.76 g/m*3 6.6 C 0 km/h
Sensor: Nr:Datum:Temp:Abs-Feuchte:Windchill:Wind:
Aussen-T/F 1051 26-02-2010 18:41:02 6.3 C 4.44 g/m*3 6.3 C 0 km/h
1052 26-02-2010 18:53:02 6.3 C 4.22 g/m*3 6.3 C 0 km/h
1053 26-02-2010 19:05:02 6.5 C 4.2 g/m*3 6.5 C 0 km/h
1054 26-02-2010 19:17:02 6.3 C 4.29 g/m*3 6.3 C 0 km/h
1055 26-02-2010 19:29:02 5.8 C 4.3 g/m*3 5.8 C 0 km/h
1056 26-02-2010 19:41:04 5.8 C 4.01 g/m*3 5.8 C 0 km/h
1057 26-02-2010 19:53:04 5.8 C 3.94 g/m*3 5.8 C 0 km/h
1058 26-02-2010 20:05:02 5.9 C 4.04 g/m*3 5.9 C 0 km/h
1059 26-02-2010 20:17:02 6 C 4.14 g/m*3 6 C 0 km/h
1060 26-02-2010 20:29:02 5.9 C 4.18 g/m*3 5.9 C 0 km/h
1061 26-02-2010 20:41:03 6 C 3.92 g/m*3 6 C 0 km/h
1062 26-02-2010 20:53:02 5.9 C 3.89 g/m*3 5.9 C 0 km/h
1063 26-02-2010 21:05:02 5.8 C 3.94 g/m*3 5.8 C 0 km/h
1064 26-02-2010 21:17:03 5.6 C 4.03 g/m*3 5.6 C 0 km/h
1065 26-02-2010 21:29:03 5.5 C 4 g/m*3 5.5 C 0 km/h
1066 26-02-2010 21:41:02 5.6 C 3.89 g/m*3 5.6 C 0 km/h
1067 26-02-2010 21:53:03 5.7 C 3.91 g/m*3 5.7 C 0 km/h
1068 26-02-2010 22:05:02 5.5 C 3.86 g/m*3 5.5 C 0 km/h
1069 26-02-2010 22:17:03 5.4 C 3.84 g/m*3 5.4 C 0 km/h
1070 26-02-2010 22:29:03 5.3 C 3.81 g/m*3 5.3 C 0 km/h
1071 26-02-2010 22:42:04 5.2 C 3.65 g/m*3 5.2 C 0 km/h
1072 26-02-2010 22:54:04 5.1 C 3.69 g/m*3 5.1 C 0 km/h
1073 26-02-2010 23:06:04 5.1 C 3.63 g/m*3 5.1 C 0 km/h
1074 26-02-2010 23:18:04 5.1 C 3.63 g/m*3 5.1 C 0 km/h
1075 26-02-2010 23:30:04 4.9 C 3.71 g/m*3 4.9 C 0 km/h
Sensor: Nr:Datum:Temp:Abs-Feuchte:Windchill:Wind:
Aussen-T/F 1076 26-02-2010 23:42:04 4.7 C 3.66 g/m*3 4.7 C 0 km/h
1077 26-02-2010 23:54:05 4.7 C 3.6 g/m*3 4.7 C 0 km/h
1078 27-02-2010 00:06:05 4.5 C 3.62 g/m*3 4.5 C 0 km/h
1079 27-02-2010 00:18:05 4.4 C 3.59 g/m*3 4.4 C 0 km/h
1080 27-02-2010 00:30:05 4.4 C 3.59 g/m*3 4.4 C 0 km/h
1081 27-02-2010 00:42:05 4.3 C 3.57 g/m*3 4.3 C 0 km/h
1082 27-02-2010 00:54:05 4.1 C 3.58 g/m*3 4.1 C 0 km/h
1083 27-02-2010 01:06:05 3.8 C 3.64 g/m*3 3.8 C 0 km/h
1084 27-02-2010 01:18:05 3.9 C 3.73 g/m*3 3.9 C 0 km/h
1085 27-02-2010 01:30:05 4 C 3.62 g/m*3 4 C 0 km/h
1086 27-02-2010 01:42:05 4.1 C 3.58 g/m*3 4.1 C 0 km/h
1087 27-02-2010 01:54:05 3.7 C 3.68 g/m*3 3.7 C 0 km/h
1088 27-02-2010 02:06:05 3.2 C 3.74 g/m*3 3.2 C 0 km/h
1089 27-02-2010 02:18:05 2.8 C 3.75 g/m*3 2.8 C 0 km/h
1090 27-02-2010 02:30:05 3.1 C 3.77 g/m*3 3.1 C 0 km/h
1091 27-02-2010 02:42:05 3.1 C 3.77 g/m*3 3.1 C 0 km/h
1092 27-02-2010 02:54:05 3.2 C 3.74 g/m*3 3.2 C 0 km/h
1093 27-02-2010 03:06:05 3.3 C 3.76 g/m*3 3.3 C 0 km/h
1094 27-02-2010 03:18:05 3.5 C 3.69 g/m*3 3.5 C 0 km/h
1095 27-02-2010 03:30:05 3.7 C 3.74 g/m*3 3.7 C 0 km/h
1096 27-02-2010 03:42:05 3.6 C 3.78 g/m*3 3.6 C 0 km/h
1097 27-02-2010 03:54:05 3.5 C 3.81 g/m*3 3.5 C 0 km/h
1098 27-02-2010 04:06:06 3.4 C 3.79 g/m*3 3.4 C 0 km/h
1099 27-02-2010 04:18:06 3.3 C 3.88 g/m*3 3.3 C 0 km/h
1100 27-02-2010 04:30:06 3.4 C 3.97 g/m*3 3.4 C 0 km/h
Sensor: Nr:Datum:Temp:Abs-Feuchte:Windchill:Wind:
Aussen-T/F 1101 27-02-2010 04:42:06 3.6 C 4.09 g/m*3 3.6 C 0 km/h
1102 27-02-2010 04:54:06 4.1 C 4.16 g/m*3 4.1 C 0 km/h
1103 27-02-2010 05:06:06 4 C 4.07 g/m*3 4 C 0 km/h
1104 27-02-2010 05:18:06 3.9 C 4.17 g/m*3 3.9 C 0 km/h
1105 27-02-2010 05:30:06 3.9 C 4.23 g/m*3 3.9 C 0 km/h
1106 27-02-2010 05:42:06 3.8 C 4.2 g/m*3 3.8 C 0 km/h
1107 27-02-2010 05:54:06 3.6 C 4.21 g/m*3 3.6 C 0 km/h
1108 27-02-2010 06:06:06 4 C 4.26 g/m*3 4 C 0 km/h
1109 27-02-2010 06:18:06 4.3 C 4.28 g/m*3 4.3 C 0 km/h
1110 27-02-2010 06:30:06 4.3 C 4.22 g/m*3 4.3 C 0 km/h
1111 27-02-2010 06:42:06 4.4 C 4.31 g/m*3 4.4 C 0 km/h
1112 27-02-2010 06:54:06 4.6 C 4.37 g/m*3 4.6 C 0 km/h
1113 27-02-2010 07:06:06 4.4 C 4.31 g/m*3 4.4 C 0 km/h
1114 27-02-2010 07:18:06 4.7 C 4.46 g/m*3 4.7 C 0 km/h
1115 27-02-2010 07:30:06 4.8 C 4.49 g/m*3 4.8 C 0 km/h
1116 27-02-2010 07:42:06 5.2 C 4.54 g/m*3 5.2 C 0 km/h
1117 27-02-2010 07:54:06 5.3 C 4.57 g/m*3 5.3 C 0 km/h
1118 27-02-2010 08:06:07 5.4 C 4.6 g/m*3 5.4 C 0 km/h
1119 27-02-2010 08:18:07 5.6 C 4.67 g/m*3 5.6 C 0 km/h
1120 27-02-2010 08:30:07 5.8 C 4.66 g/m*3 5.8 C 0 km/h
1121 27-02-2010 08:42:03 6.4 C 4.62 g/m*3 6.4 C 0 km/h
1122 27-02-2010 08:54:01 6.5 C 4.57 g/m*3 6.5 C 0 km/h
1123 27-02-2010 09:06:02 6.6 C 4.6 g/m*3 6.6 C 0 km/h
1124 27-02-2010 09:18:02 6.8 C 4.59 g/m*3 6.8 C 0 km/h
1125 27-02-2010 09:30:02 7 C 4.49 g/m*3 7 C 0 km/h
Sensor: Nr:Datum:Temp:Abs-Feuchte:Windchill:Wind:
Aussen-T/F 1126 27-02-2010 09:42:01 7.1 C 4.45 g/m*3 7.1 C 0 km/h
1127 27-02-2010 09:54:02 7.3 C 4.5 g/m*3 7.3 C 0 km/h
1128 27-02-2010 10:06:01 7.5 C 4.48 g/m*3 7.5 C 0 km/h
1129 27-02-2010 10:18:02 7.6 C 4.43 g/m*3 7.6 C 0 km/h
1130 27-02-2010 10:30:02 8.1 C 4.49 g/m*3 8.1 C 0 km/h
1131 27-02-2010 10:42:01 8.7 C 4.58 g/m*3 8.7 C 0 km/h
1132 27-02-2010 10:54:03 8.6 C 4.55 g/m*3 8.6 C 0 km/h
1133 27-02-2010 11:06:02 8.7 C 4.5 g/m*3 8.7 C 0 km/h
1134 27-02-2010 11:18:02 9.1 C 4.53 g/m*3 9.1 C 0 km/h
1135 27-02-2010 11:30:03 9.3 C 4.49 g/m*3 9.3 C 0 km/h
1136 27-02-2010 11:42:02 9.3 C 4.31 g/m*3 9.3 C 0 km/h
1137 27-02-2010 11:54:02 9.3 C 4.31 g/m*3 9.3 C 0 km/h
1138 27-02-2010 12:06:02 9.4 C 4.34 g/m*3 9.4 C 0 km/h
1139 27-02-2010 12:18:02 9.8 C 4.36 g/m*3 9.8 C 0 km/h
1140 27-02-2010 12:30:02 10.1 C 4.35 g/m*3 10.1 C 0 km/h
1141 27-02-2010 12:42:02 10.8 C 4.35 g/m*3 10.8 C 0 km/h
1142 27-02-2010 12:54:02 11.2 C 4.16 g/m*3 11.2 C 0 km/h
1143 27-02-2010 13:06:01 11.8 C 4.1 g/m*3 11.8 C 0 km/h
1144 27-02-2010 13:18:01 11.8 C 3.68 g/m*3 11.8 C 0 km/h
1145 27-02-2010 13:30:01 12.3 C 3.58 g/m*3 12.3 C 0 km/h
1146 27-02-2010 13:42:02 12.9 C 3.49 g/m*3 12.9 C 0 km/h
1147 27-02-2010 13:54:02 12.9 C 3.38 g/m*3 12.9 C 0 km/h
1148 27-02-2010 14:06:02 13.4 C 3.49 g/m*3 13.4 C 0 km/h
1149 27-02-2010 14:18:02 14.2 C 3.42 g/m*3 14.2 C 0 km/h
1150 27-02-2010 14:30:02 14.5 C 3.23 g/m*3 14.5 C 0 km/h
Sensor: Nr:Datum:Temp:Abs-Feuchte:Windchill:Wind:
Aussen-T/F 1151 27-02-2010 14:42:02 14.8 C 3.17 g/m*3 14.8 C 0 km/h
1152 27-02-2010 14:54:01 14.9 C 2.8 g/m*3 14.9 C 0 km/h
1153 27-02-2010 15:06:02 14.8 C 2.79 g/m*3 14.8 C 0 km/h
1154 27-02-2010 15:18:01 15.5 C 2.78 g/m*3 15.5 C 0 km/h
1155 27-02-2010 15:30:01 15.9 C 2.84 g/m*3 15.9 C 0 km/h
1156 27-02-2010 15:42:02 15.6 C 2.93 g/m*3 15.6 C 0 km/h
1157 27-02-2010 15:54:02 15.7 C 3.08 g/m*3 15.7 C 0 km/h
1158 27-02-2010 16:06:02 15.7 C 2.81 g/m*3 15.7 C 0 km/h
1159 27-02-2010 16:18:01 14.8 C 2.66 g/m*3 14.8 C 0 km/h
1160 27-02-2010 16:30:01 15 C 2.56 g/m*3 15 C 0 km/h
1161 27-02-2010 16:42:02 14.3 C 2.46 g/m*3 14.3 C 0 km/h
1162 27-02-2010 16:54:02 14.6 C 2.5 g/m*3 14.6 C 0 km/h
1163 27-02-2010 17:06:02 15.7 C 2.68 g/m*3 15.7 C 0 km/h
1164 27-02-2010 17:18:02 14.4 C 2.47 g/m*3 14.4 C 0 km/h
1165 27-02-2010 17:30:02 13.5 C 2.57 g/m*3 13.5 C 0 km/h
1166 27-02-2010 17:42:02 12.9 C 3.38 g/m*3 12.9 C 0 km/h
1167 27-02-2010 17:54:02 11.7 C 3.66 g/m*3 11.7 C 0 km/h
1168 27-02-2010 18:06:02 11 C 3.7 g/m*3 11 C 0 km/h
1169 27-02-2010 18:18:03 10.5 C 3.88 g/m*3 10.5 C 0 km/h
1170 27-02-2010 18:30:03 10.2 C 3.81 g/m*3 10.2 C 0 km/h
1171 27-02-2010 18:42:02 10 C 3.95 g/m*3 10 C 0 km/h
1172 27-02-2010 18:54:02 9.9 C 4.2 g/m*3 9.9 C 0 km/h
1173 27-02-2010 19:06:02 9.8 C 4.27 g/m*3 9.8 C 0 km/h
1174 27-02-2010 19:18:02 10 C 4.23 g/m*3 10 C 0 km/h
1175 27-02-2010 19:30:02 10 C 4.23 g/m*3 10 C 0 km/h
Sensor: Nr:Datum:Temp:Abs-Feuchte:Windchill:Wind:
Aussen-T/F 1176 27-02-2010 19:42:02 9.8 C 4.18 g/m*3 9.8 C 0 km/h
1177 27-02-2010 19:54:02 9.8 C 4.18 g/m*3 9.8 C 0 km/h
1178 27-02-2010 20:06:02 10 C 4.13 g/m*3 10 C 0 km/h
1179 27-02-2010 20:18:02 9.9 C 4.2 g/m*3 9.9 C 0 km/h
1180 27-02-2010 20:30:02 9.7 C 4.15 g/m*3 9.7 C 0 km/h
1181 27-02-2010 20:42:02 9.9 C 4.01 g/m*3 9.9 C 0 km/h
1182 27-02-2010 20:54:02 9.8 C 4.18 g/m*3 9.8 C 0 km/h
1183 27-02-2010 21:06:01 9.6 C 3.94 g/m*3 9.6 C 0 km/h
1184 27-02-2010 21:18:02 9.6 C 3.94 g/m*3 9.6 C 0 km/h
1185 27-02-2010 21:30:02 9.6 C 3.94 g/m*3 9.6 C 0 km/h
1186 27-02-2010 21:42:01 9.7 C 3.69 g/m*3 9.7 C 0 km/h
1187 27-02-2010 21:54:03 9.6 C 3.66 g/m*3 9.6 C 0 km/h
1188 27-02-2010 22:06:03 9.7 C 3.78 g/m*3 9.7 C 0 km/h
1189 27-02-2010 22:18:02 9.8 C 3.71 g/m*3 9.8 C 0 km/h
1190 27-02-2010 22:30:02 9.8 C 3.71 g/m*3 9.8 C 0 km/h
1191 27-02-2010 22:43:02 9.9 C 3.64 g/m*3 9.9 C 0 km/h
1192 27-02-2010 22:55:02 9.8 C 3.71 g/m*3 9.8 C 0 km/h
1193 27-02-2010 23:07:02 9.8 C 3.71 g/m*3 9.8 C 0 km/h
1194 27-02-2010 23:19:02 9.7 C 3.69 g/m*3 9.7 C 0 km/h
1195 27-02-2010 23:31:02 9.6 C 3.66 g/m*3 9.6 C 0 km/h
1196 27-02-2010 23:43:03 9.6 C 3.76 g/m*3 9.6 C 0 km/h
1197 27-02-2010 23:55:03 9.4 C 3.8 g/m*3 9.4 C 0 km/h
1198 28-02-2010 00:07:03 9.3 C 3.77 g/m*3 9.3 C 0 km/h
1199 28-02-2010 00:19:03 8.9 C 4.2 g/m*3 8.9 C 0 km/h
1200 28-02-2010 00:31:03 8.6 C 4.04 g/m*3 8.6 C 0 km/h
Sensor: Nr:Datum:Temp:Abs-Feuchte:Windchill:Wind:
Aussen-T/F 1201 28-02-2010 00:43:03 8.5 C 4.44 g/m*3 8.5 C 0 km/h
1202 28-02-2010 00:55:03 7.3 C 4.98 g/m*3 7.3 C 0 km/h
1203 28-02-2010 01:07:03 6.9 C 5.54 g/m*3 6.9 C 0 km/h
1204 28-02-2010 01:19:03 6.6 C 5.59 g/m*3 6.6 C 0 km/h
1205 28-02-2010 01:31:03 6.4 C 5.74 g/m*3 6.4 C 0 km/h
1206 28-02-2010 01:43:03 6.4 C 5.89 g/m*3 6.4 C 0 km/h
1207 28-02-2010 01:55:03 6.2 C 5.88 g/m*3 6.2 C 0 km/h
1208 28-02-2010 02:07:03 6.2 C 6.03 g/m*3 6.2 C 0 km/h
1209 28-02-2010 02:19:03 6.2 C 6.1 g/m*3 6.2 C 0 km/h
1210 28-02-2010 02:31:03 5.9 C 6.06 g/m*3 5.9 C 0 km/h
1211 28-02-2010 02:43:03 5.9 C 6.13 g/m*3 5.9 C 0 km/h
1212 28-02-2010 02:55:03 5.8 C 6.09 g/m*3 5.8 C 0 km/h
1213 28-02-2010 03:07:03 5.8 C 6.16 g/m*3 5.8 C 0 km/h
1214 28-02-2010 03:19:03 5.7 C 6.12 g/m*3 5.7 C 0 km/h
1215 28-02-2010 03:31:03 5.7 C 6.12 g/m*3 5.7 C 0 km/h
1216 28-02-2010 03:43:03 5.7 C 6.12 g/m*3 5.7 C 0 km/h
1217 28-02-2010 03:55:04 5.8 C 6.09 g/m*3 5.8 C 0 km/h
1218 28-02-2010 04:07:04 5.9 C 6.13 g/m*3 5.9 C 0 km/h
1219 28-02-2010 04:19:04 6 C 6.17 g/m*3 6 C 0 km/h
1220 28-02-2010 04:31:04 6.3 C 6.29 g/m*3 6.3 C 0 km/h
1221 28-02-2010 04:43:04 6.3 C 6.37 g/m*3 6.3 C 0 km/h
1222 28-02-2010 04:55:04 6.1 C 6.28 g/m*3 6.1 C 0 km/h
1223 28-02-2010 05:07:04 6.1 C 6.36 g/m*3 6.1 C 0 km/h
1224 28-02-2010 05:19:04 6.3 C 6.44 g/m*3 6.3 C 0 km/h
1225 28-02-2010 05:31:04 6.3 C 6.44 g/m*3 6.3 C 0 km/h
Sensor: Nr:Datum:Temp:Abs-Feuchte:Windchill:Wind:
Aussen-T/F 1226 28-02-2010 05:43:04 6.3 C 6.44 g/m*3 6.3 C 0 km/h
1227 28-02-2010 05:55:04 6.3 C 6.44 g/m*3 6.3 C 0 km/h
1228 28-02-2010 06:07:04 6.1 C 6.43 g/m*3 6.1 C 0 km/h
1229 28-02-2010 06:19:04 6.3 C 6.51 g/m*3 6.3 C 0 km/h
1230 28-02-2010 06:31:04 6.2 C 6.47 g/m*3 6.2 C 0 km/h
1231 28-02-2010 06:43:04 6.1 C 6.5 g/m*3 6.1 C 0 km/h
1232 28-02-2010 06:55:04 6.1 C 6.5 g/m*3 6.1 C 0 km/h
1233 28-02-2010 07:07:04 6.3 C 6.66 g/m*3 6.3 C 0 km/h
1234 28-02-2010 07:19:04 6.3 C 6.66 g/m*3 6.3 C 0 km/h
1235 28-02-2010 07:31:04 6.2 C 6.69 g/m*3 6.2 C 0 km/h
1236 28-02-2010 07:43:04 6.3 C 6.74 g/m*3 6.3 C 0 km/h
1237 28-02-2010 07:55:04 6.4 C 6.85 g/m*3 6.4 C 0 km/h
1238 28-02-2010 08:07:01 6.5 C 6.9 g/m*3 6.5 C 0 km/h
1239 28-02-2010 08:19:02 6.7 C 7.07 g/m*3 6.7 C 0 km/h
1240 28-02-2010 08:31:02 6.9 C 7.16 g/m*3 6.9 C 0 km/h
1241 28-02-2010 08:43:02 7 C 7.13 g/m*3 7 C 0 km/h
1242 28-02-2010 08:55:01 7.3 C 7.35 g/m*3 7.3 C 0 km/h
1243 28-02-2010 09:07:02 7.9 C 7.47 g/m*3 7.9 C 0 km/h
1244 28-02-2010 09:19:02 8.2 C 7.2 g/m*3 8.2 C 0 km/h
1245 28-02-2010 09:31:01 8.5 C 7.09 g/m*3 8.5 C 0 km/h
1246 28-02-2010 09:43:01 8.8 C 6.96 g/m*3 8.8 C 0 km/h
1247 28-02-2010 09:55:01 8.8 C 6.88 g/m*3 8.8 C 0 km/h
1248 28-02-2010 10:07:02 8.9 C 6.75 g/m*3 8.9 C 0 km/h
1249 28-02-2010 10:19:02 9.3 C 6.65 g/m*3 9.3 C 0 km/h
1250 28-02-2010 10:31:01 9.6 C 6.69 g/m*3 9.6 C 0 km/h
Sensor: Nr:Datum:Temp:Abs-Feuchte:Windchill:Wind:
Aussen-T/F 1251 28-02-2010 10:43:01 9.8 C 6.87 g/m*3 9.8 C 0 km/h
1252 28-02-2010 10:55:01 10.2 C 6.66 g/m*3 10.2 C 0 km/h
1253 28-02-2010 11:07:02 10.7 C 6.78 g/m*3 10.7 C 0 km/h
1254 28-02-2010 11:19:02 12.3 C 5.97 g/m*3 12.3 C 0 km/h
1255 28-02-2010 11:31:01 13.2 C 5.28 g/m*3 13.2 C 0 km/h
1256 28-02-2010 11:43:01 13 C 5.22 g/m*3 13 C 0 km/h
1257 28-02-2010 11:55:01 13 C 4.65 g/m*3 13 C 0 km/h
1258 28-02-2010 12:07:01 13 C 4.65 g/m*3 13 C 0 km/h
1259 28-02-2010 12:19:02 12.7 C 4.56 g/m*3 12.7 C 0 km/h
1260 28-02-2010 12:31:01 13 C 4.31 g/m*3 13 C 0 km/h
1261 28-02-2010 12:43:01 12.6 C 4.54 g/m*3 12.6 C 0 km/h
1262 28-02-2010 12:55:02 12.5 C 4.29 g/m*3 12.5 C 0 km/h
1263 28-02-2010 13:07:01 12.5 C 4.18 g/m*3 12.5 C 0 km/h
1264 28-02-2010 13:19:02 12.2 C 4.1 g/m*3 12.2 C 0 km/h
1265 28-02-2010 13:31:01 11.9 C 3.92 g/m*3 11.9 C 0 km/h
1266 28-02-2010 13:43:01 11.8 C 3.89 g/m*3 11.8 C 0 km/h
1267 28-02-2010 13:55:02 11.8 C 3.79 g/m*3 11.8 C 0 km/h
1268 28-02-2010 14:07:42 11.6 C 3.64 g/m*3 11.6 C 0 km/h
1269 28-02-2010 14:19:02 11.4 C 3.59 g/m*3 11.4 C 0 km/h
1270 28-02-2010 14:31:02 11.1 C 3.63 g/m*3 11.1 C 0 km/h
1271 28-02-2010 14:43:02 10.7 C 3.83 g/m*3 10.7 C 0 km/h
1272 28-02-2010 14:55:02 10.5 C 3.88 g/m*3 10.5 C 0 km/h
1273 28-02-2010 15:07:01 10.6 C 3.9 g/m*3 10.6 C 0 km/h
1274 28-02-2010 15:19:02 10.5 C 3.88 g/m*3 10.5 C 0 km/h
1275 28-02-2010 15:31:01 9.7 C 4.52 g/m*3 9.7 C 0 km/h
Sensor: Nr:Datum:Temp:Abs-Feuchte:Windchill:Wind:
Aussen-T/F 1276 28-02-2010 15:43:01 10 C 4.51 g/m*3 10 C 0 km/h
1277 28-02-2010 15:55:03 10 C 4.32 g/m*3 10 C 0 km/h
1278 28-02-2010 16:07:02 10 C 4.42 g/m*3 10 C 0 km/h
1279 28-02-2010 16:19:02 9.8 C 4.45 g/m*3 9.8 C 0 km/h
1280 28-02-2010 16:31:02 9.6 C 4.49 g/m*3 9.6 C 0 km/h
1281 28-02-2010 16:43:02 9.5 C 4.64 g/m*3 9.5 C 0 km/h
1282 28-02-2010 16:55:02 9.2 C 4.64 g/m*3 9.2 C 0 km/h
1283 28-02-2010 17:07:02 9.2 C 4.64 g/m*3 9.2 C 0 km/h
1284 28-02-2010 17:19:02 9.2 C 4.64 g/m*3 9.2 C 0 km/h
1285 28-02-2010 17:31:02 9.1 C 4.53 g/m*3 9.1 C 0 km/h
1286 28-02-2010 17:43:02 8.9 C 4.56 g/m*3 8.9 C 0 km/h
1287 28-02-2010 17:55:02 8.7 C 4.76 g/m*3 8.7 C 0 km/h
1288 28-02-2010 18:07:01 8.2 C 5.02 g/m*3 8.2 C 0 km/h
1289 28-02-2010 18:19:02 8.1 C 4.99 g/m*3 8.1 C 0 km/h
1290 28-02-2010 18:31:01 8.2 C 5.02 g/m*3 8.2 C 0 km/h
1291 28-02-2010 18:43:01 8.2 C 4.94 g/m*3 8.2 C 0 km/h
1292 28-02-2010 18:55:03 8 C 5.13 g/m*3 8 C 0 km/h
1293 28-02-2010 19:07:02 7.9 C 5.09 g/m*3 7.9 C 0 km/h
1294 28-02-2010 19:19:03 8 C 4.88 g/m*3 8 C 0 km/h
1295 28-02-2010 19:31:03 8.1 C 4.74 g/m*3 8.1 C 0 km/h
1296 28-02-2010 19:43:03 8 C 4.71 g/m*3 8 C 0 km/h
1297 28-02-2010 19:55:02 8.1 C 4.74 g/m*3 8.1 C 0 km/h
1298 28-02-2010 20:07:03 8 C 4.71 g/m*3 8 C 0 km/h
1299 28-02-2010 20:19:02 7.8 C 4.9 g/m*3 7.8 C 0 km/h
1300 28-02-2010 20:31:01 7.8 C 4.98 g/m*3 7.8 C 0 km/h
Sensor: Nr:Datum:Temp:Abs-Feuchte:Windchill:Wind:
Aussen-T/F 1301 28-02-2010 20:43:01 7.7 C 4.95 g/m*3 7.7 C 0 km/h
1302 28-02-2010 20:55:01 7.8 C 4.73 g/m*3 7.8 C 0 km/h
1303 28-02-2010 21:07:02 7.8 C 4.57 g/m*3 7.8 C 0 km/h
1304 28-02-2010 21:19:02 7.6 C 4.51 g/m*3 7.6 C 0 km/h
1305 28-02-2010 21:31:02 7.5 C 4.56 g/m*3 7.5 C 0 km/h
1306 28-02-2010 21:43:02 7.6 C 4.51 g/m*3 7.6 C 0 km/h
1307 28-02-2010 21:55:02 7.7 C 4.54 g/m*3 7.7 C 0 km/h
1308 28-02-2010 22:08:03 7.6 C 4.51 g/m*3 7.6 C 0 km/h
1309 28-02-2010 22:20:03 7.5 C 4.48 g/m*3 7.5 C 0 km/h
1310 28-02-2010 22:32:03 7.4 C 4.53 g/m*3 7.4 C 0 km/h
1311 28-02-2010 22:44:03 7.1 C 4.68 g/m*3 7.1 C 0 km/h
1312 28-02-2010 22:56:03 7 C 4.65 g/m*3 7 C 0 km/h
1313 28-02-2010 23:08:03 7 C 4.8 g/m*3 7 C 0 km/h
1314 28-02-2010 23:20:03 7 C 4.8 g/m*3 7 C 0 km/h
1315 28-02-2010 23:32:03 6.9 C 4.93 g/m*3 6.9 C 0 km/h
1316 28-02-2010 23:44:03 6.7 C 4.94 g/m*3 6.7 C 0 km/h
1317 28-02-2010 23:56:03 6.6 C 4.98 g/m*3 6.6 C 0 km/h
1318 01-03-2010 00:08:03 6.3 C 4.89 g/m*3 6.3 C 0 km/h
1319 01-03-2010 00:20:04 6.1 C 4.89 g/m*3 6.1 C 0 km/h
1320 01-03-2010 00:32:04 6.2 C 4.85 g/m*3 6.2 C 0 km/h
1321 01-03-2010 00:44:04 6.1 C 4.75 g/m*3 6.1 C 0 km/h
1322 01-03-2010 00:56:04 6.1 C 4.6 g/m*3 6.1 C 0 km/h
1323 01-03-2010 01:08:04 5.9 C 4.76 g/m*3 5.9 C 0 km/h
1324 01-03-2010 01:20:04 5.7 C 4.7 g/m*3 5.7 C 0 km/h
1325 01-03-2010 01:32:04 5.8 C 4.37 g/m*3 5.8 C 0 km/h
Sensor: Nr:Datum:Temp:Abs-Feuchte:Windchill:Wind:
Aussen-T/F 1326 01-03-2010 01:44:04 5.7 C 4.34 g/m*3 5.7 C 0 km/h
1327 01-03-2010 01:56:04 5.8 C 4.23 g/m*3 5.8 C 0 km/h
1328 01-03-2010 02:08:04 5.8 C 4.23 g/m*3 5.8 C 0 km/h
1329 01-03-2010 02:20:04 5.7 C 3.99 g/m*3 5.7 C 0 km/h
1330 01-03-2010 02:32:04 5.6 C 3.96 g/m*3 5.6 C 0 km/h
1331 01-03-2010 02:44:05 5.5 C 3.93 g/m*3 5.5 C 0 km/h
1332 01-03-2010 02:56:05 5.4 C 4.05 g/m*3 5.4 C 0 km/h
1333 01-03-2010 03:08:05 5.3 C 4.09 g/m*3 5.3 C 0 km/h
1334 01-03-2010 03:20:05 5 C 4.14 g/m*3 5 C 0 km/h
1335 01-03-2010 03:32:05 5 C 4.14 g/m*3 5 C 0 km/h
1336 01-03-2010 03:44:05 4.9 C 4.12 g/m*3 4.9 C 0 km/h
1337 01-03-2010 03:56:05 4.8 C 4.09 g/m*3 4.8 C 0 km/h
1338 01-03-2010 04:08:05 4.7 C 4.13 g/m*3 4.7 C 0 km/h
1339 01-03-2010 04:20:05 4.6 C 4.17 g/m*3 4.6 C 0 km/h
1340 01-03-2010 04:32:05 4.6 C 4.23 g/m*3 4.6 C 0 km/h
1341 01-03-2010 04:44:05 4.7 C 4.33 g/m*3 4.7 C 0 km/h
1342 01-03-2010 04:56:05 4.8 C 4.36 g/m*3 4.8 C 0 km/h
1343 01-03-2010 05:08:05 4.4 C 4.7 g/m*3 4.4 C 0 km/h
1344 01-03-2010 05:20:05 4.1 C 4.99 g/m*3 4.1 C 0 km/h
1345 01-03-2010 05:32:05 3.8 C 5.08 g/m*3 3.8 C 0 km/h
1346 01-03-2010 05:44:05 3.5 C 5.04 g/m*3 3.5 C 0 km/h
1347 01-03-2010 05:56:05 3.5 C 5.04 g/m*3 3.5 C 0 km/h
1348 01-03-2010 06:08:05 3.4 C 5.01 g/m*3 3.4 C 0 km/h
1349 01-03-2010 06:20:05 3.4 C 5.01 g/m*3 3.4 C 0 km/h
1350 01-03-2010 06:32:05 3.6 C 4.89 g/m*3 3.6 C 0 km/h
Sensor: Nr:Datum:Temp:Abs-Feuchte:Windchill:Wind:
Aussen-T/F 1351 01-03-2010 06:44:05 3.8 C 4.77 g/m*3 3.8 C 0 km/h
1352 01-03-2010 06:56:05 4 C 4.64 g/m*3 4 C 0 km/h
1353 01-03-2010 07:08:05 4.1 C 4.48 g/m*3 4.1 C 0 km/h
1354 01-03-2010 07:20:03 4.2 C 4.38 g/m*3 4.2 C 0 km/h
1355 01-03-2010 07:32:03 4.2 C 4.12 g/m*3 4.2 C 0 km/h
1356 01-03-2010 07:44:03 4.4 C 3.92 g/m*3 4.4 C 0 km/h
1357 01-03-2010 07:56:02 4.6 C 3.77 g/m*3 4.6 C 0 km/h
1358 01-03-2010 08:08:02 4.6 C 3.71 g/m*3 4.6 C 0 km/h
1359 01-03-2010 08:20:02 4.8 C 3.69 g/m*3 4.8 C 0 km/h
1360 01-03-2010 08:32:02 4.9 C 3.71 g/m*3 4.9 C 0 km/h
1361 01-03-2010 08:44:02 5 C 3.67 g/m*3 5 C 0 km/h
1362 01-03-2010 08:56:01 5.1 C 3.69 g/m*3 5.1 C 0 km/h
1363 01-03-2010 09:08:02 5.2 C 3.86 g/m*3 5.2 C 0 km/h
1364 01-03-2010 09:20:01 5.3 C 4.02 g/m*3 5.3 C 0 km/h
1365 01-03-2010 09:32:02 5.4 C 3.91 g/m*3 5.4 C 0 km/h
1366 01-03-2010 09:44:02 5.6 C 3.96 g/m*3 5.6 C 0 km/h
1367 01-03-2010 09:56:01 5.8 C 4.01 g/m*3 5.8 C 0 km/h
1368 01-03-2010 10:08:02 6 C 3.7 g/m*3 6 C 0 km/h
1369 01-03-2010 10:20:01 6.2 C 3.6 g/m*3 6.2 C 0 km/h
1370 01-03-2010 10:32:02 6.4 C 3.65 g/m*3 6.4 C 0 km/h
1371 01-03-2010 10:44:02 6.3 C 3.48 g/m*3 6.3 C 0 km/h
1372 01-03-2010 10:56:01 6.4 C 3.5 g/m*3 6.4 C 0 km/h
1373 01-03-2010 11:08:02 6.7 C 3.5 g/m*3 6.7 C 0 km/h
1374 01-03-2010 11:20:02 6.6 C 3.47 g/m*3 6.6 C 0 km/h
1375 01-03-2010 11:32:02 6.3 C 3.41 g/m*3 6.3 C 0 km/h
Sensor: Nr:Datum:Temp:Abs-Feuchte:Windchill:Wind:
Aussen-T/F 1376 01-03-2010 11:44:02 6.6 C 3.47 g/m*3 6.6 C 0 km/h
1377 01-03-2010 11:56:01 7 C 3.33 g/m*3 7 C 0 km/h
1378 01-03-2010 12:08:02 7 C 3.33 g/m*3 7 C 0 km/h
1379 01-03-2010 12:20:02 7.2 C 3.3 g/m*3 7.2 C 0 km/h
1380 01-03-2010 12:32:01 7.5 C 3.2 g/m*3 7.5 C 0 km/h
1381 01-03-2010 12:44:01 7.9 C 3.2 g/m*3 7.9 C 0 km/h
1382 01-03-2010 12:56:02 7.8 C 3.18 g/m*3 7.8 C 0 km/h
1383 01-03-2010 13:08:01 7.7 C 3.16 g/m*3 7.7 C 0 km/h
1384 01-03-2010 13:20:02 8 C 3.14 g/m*3 8 C 0 km/h
1385 01-03-2010 13:32:01 8 C 3.06 g/m*3 8 C 0 km/h
1386 01-03-2010 13:44:01 7.8 C 3.02 g/m*3 7.8 C 0 km/h
1387 01-03-2010 13:56:01 7.7 C 3 g/m*3 7.7 C 0 km/h
1388 01-03-2010 14:08:01 7.3 C 3.16 g/m*3 7.3 C 0 km/h
1389 01-03-2010 14:20:01 7.1 C 3.2 g/m*3 7.1 C 0 km/h
1390 01-03-2010 14:32:02 7.6 C 3.22 g/m*3 7.6 C 0 km/h
1391 01-03-2010 14:44:02 7.5 C 3.2 g/m*3 7.5 C 0 km/h
1392 01-03-2010 14:56:02 7.4 C 3.18 g/m*3 7.4 C 0 km/h
1393 01-03-2010 15:08:02 7.3 C 3.24 g/m*3 7.3 C 0 km/h
1394 01-03-2010 15:20:02 7.6 C 3.3 g/m*3 7.6 C 0 km/h
1395 01-03-2010 15:32:02 7.5 C 3.28 g/m*3 7.5 C 0 km/h
1396 01-03-2010 15:44:02 7.4 C 3.1 g/m*3 7.4 C 0 km/h
1397 01-03-2010 15:56:02 7.3 C 3 g/m*3 7.3 C 0 km/h
1398 01-03-2010 16:08:01 7.3 C 3.08 g/m*3 7.3 C 0 km/h
1399 01-03-2010 16:20:02 7.3 C 3.08 g/m*3 7.3 C 0 km/h
1400 01-03-2010 16:32:02 7.3 C 3.08 g/m*3 7.3 C 0 km/h
Sensor: Nr:Datum:Temp:Abs-Feuchte:Windchill:Wind:
Aussen-T/F 1401 01-03-2010 16:44:02 7.3 C 3.08 g/m*3 7.3 C 0 km/h
1402 01-03-2010 16:56:02 7.2 C 3.06 g/m*3 7.2 C 0 km/h
1403 01-03-2010 17:08:03 7.1 C 3.12 g/m*3 7.1 C 0 km/h
1404 01-03-2010 17:20:02 6.9 C 3.08 g/m*3 6.9 C 0 km/h
1405 01-03-2010 17:32:02 6.8 C 3.06 g/m*3 6.8 C 0 km/h
1406 01-03-2010 17:44:02 6.8 C 3.14 g/m*3 6.8 C 0 km/h
1407 01-03-2010 17:56:01 6.7 C 3.12 g/m*3 6.7 C 0 km/h
1408 01-03-2010 18:08:02 6.5 C 3.22 g/m*3 6.5 C 0 km/h
1409 01-03-2010 18:20:01 6.4 C 3.5 g/m*3 6.4 C 0 km/h
1410 01-03-2010 18:32:01 6 C 3.56 g/m*3 6 C 0 km/h
1411 01-03-2010 18:44:01 5.8 C 3.72 g/m*3 5.8 C 0 km/h
1412 01-03-2010 18:56:01 5.7 C 3.77 g/m*3 5.7 C 0 km/h
1413 01-03-2010 19:08:02 5.6 C 3.68 g/m*3 5.6 C 0 km/h
1414 01-03-2010 19:20:01 5.6 C 3.53 g/m*3 5.6 C 0 km/h
1415 01-03-2010 19:32:02 5.4 C 3.56 g/m*3 5.4 C 0 km/h
1416 01-03-2010 19:44:02 5.3 C 3.53 g/m*3 5.3 C 0 km/h
1417 01-03-2010 19:56:02 5.1 C 3.42 g/m*3 5.1 C 0 km/h
1418 01-03-2010 20:08:03 5 C 3.4 g/m*3 5 C 0 km/h
1419 01-03-2010 20:20:02 5.1 C 3.42 g/m*3 5.1 C 0 km/h
1420 01-03-2010 20:32:02 4.6 C 3.44 g/m*3 4.6 C 0 km/h
1421 01-03-2010 20:44:02 4.4 C 3.46 g/m*3 4.4 C 0 km/h
1422 01-03-2010 20:56:02 4.4 C 3.4 g/m*3 4.4 C 0 km/h
1423 01-03-2010 21:08:02 3.8 C 3.51 g/m*3 3.8 C 0 km/h
1424 01-03-2010 21:20:02 3.4 C 3.54 g/m*3 3.4 C 0 km/h
1425 01-03-2010 21:32:01 3.4 C 3.6 g/m*3 3.4 C 0 km/h
Sensor: Nr:Datum:Temp:Abs-Feuchte:Windchill:Wind:
Aussen-T/F 1426 01-03-2010 21:44:01 3.3 C 3.64 g/m*3 3.3 C 0 km/h
1427 01-03-2010 21:56:02 3.1 C 3.71 g/m*3 3.1 C 0 km/h
1428 01-03-2010 22:08:02 2.8 C 3.64 g/m*3 2.8 C 0 km/h
1429 01-03-2010 22:21:03 2.6 C 3.82 g/m*3 2.6 C 0 km/h
1430 01-03-2010 22:33:03 2.4 C 3.83 g/m*3 2.4 C 0 km/h
1431 01-03-2010 22:45:03 2.1 C 3.86 g/m*3 2.1 C 0 km/h
1432 01-03-2010 22:57:03 2 C 3.89 g/m*3 2 C 0 km/h
1433 01-03-2010 23:09:03 1.8 C 3.95 g/m*3 1.8 C 0 km/h
1434 01-03-2010 23:21:03 1.5 C 3.92 g/m*3 1.5 C 0 km/h
1435 01-03-2010 23:33:03 1.2 C 3.89 g/m*3 1.2 C 0 km/h
1436 01-03-2010 23:45:03 1.1 C 3.92 g/m*3 1.1 C 0 km/h
1437 01-03-2010 23:57:03 1.1 C 3.97 g/m*3 1.1 C 0 km/h
1438 02-03-2010 00:09:03 0.9 C 3.97 g/m*3 0.9 C 0 km/h
1439 02-03-2010 00:21:03 0.7 C 3.97 g/m*3 0.7 C 0 km/h
1440 02-03-2010 00:33:03 0.5 C 3.96 g/m*3 0.5 C 0 km/h
1441 02-03-2010 00:45:03 0.2 C 3.88 g/m*3 0.2 C 0 km/h
1442 02-03-2010 00:57:03 0.2 C 3.88 g/m*3 0.2 C 0 km/h
1443 02-03-2010 01:09:03 0.1 C 3.9 g/m*3 0.1 C 0 km/h
1444 02-03-2010 01:21:03 0.2 C 3.98 g/m*3 0.2 C 0 km/h
1445 02-03-2010 01:33:03 0.3 C 4.01 g/m*3 0.3 C 0 km/h
1446 02-03-2010 01:45:03 0 C 3.92 g/m*3 0 C 0 km/h
1447 02-03-2010 01:57:03 0 C 3.97 g/m*3 0 C 0 km/h
1448 02-03-2010 02:09:03 0 C 3.97 g/m*3 0 C 0 km/h
1449 02-03-2010 02:21:04 -0.2 C 3.92 g/m*3 -0.2 C 0 km/h
1450 02-03-2010 02:33:04 -0.2 C 3.97 g/m*3 -0.2 C 0 km/h
Sensor: Nr:Datum:Temp:Abs-Feuchte:Windchill:Wind:
Aussen-T/F 1451 02-03-2010 02:45:04 -0.4 C 3.91 g/m*3 -0.4 C 0 km/h
1452 02-03-2010 02:57:04 -0.6 C 3.86 g/m*3 -0.6 C 0 km/h
1453 02-03-2010 03:09:04 -0.7 C 3.83 g/m*3 -0.7 C 0 km/h
1454 02-03-2010 03:21:04 -0.6 C 3.86 g/m*3 -0.6 C 0 km/h
1455 02-03-2010 03:33:04 -0.7 C 3.83 g/m*3 -0.7 C 0 km/h
1456 02-03-2010 03:45:04 -0.9 C 3.82 g/m*3 -0.9 C 0 km/h
1457 02-03-2010 03:57:04 -1 C 3.8 g/m*3 -1 C 0 km/h
1458 02-03-2010 04:09:04 -1.3 C 3.72 g/m*3 -1.3 C 0 km/h
1459 02-03-2010 04:21:04 -1.3 C 3.72 g/m*3 -1.3 C 0 km/h
1460 02-03-2010 04:33:04 -1.4 C 3.69 g/m*3 -1.4 C 0 km/h
1461 02-03-2010 04:45:04 -1.2 C 3.79 g/m*3 -1.2 C 0 km/h
1462 02-03-2010 04:57:04 -1.2 C 3.79 g/m*3 -1.2 C 0 km/h
1463 02-03-2010 05:09:04 -1.1 C 3.86 g/m*3 -1.1 C 0 km/h
1464 02-03-2010 05:21:04 -1.1 C 3.86 g/m*3 -1.1 C 0 km/h
1465 02-03-2010 05:33:04 -1.1 C 3.86 g/m*3 -1.1 C 0 km/h
1466 02-03-2010 05:45:04 -1.1 C 3.86 g/m*3 -1.1 C 0 km/h
1467 02-03-2010 05:57:04 -1.4 C 3.74 g/m*3 -1.4 C 0 km/h
1468 02-03-2010 06:09:04 -1.6 C 3.68 g/m*3 -1.6 C 0 km/h
1469 02-03-2010 06:21:04 -1.7 C 3.66 g/m*3 -1.7 C 0 km/h
1470 02-03-2010 06:33:05 -1.8 C 3.63 g/m*3 -1.8 C 0 km/h
1471 02-03-2010 06:45:05 -1.9 C 3.65 g/m*3 -1.9 C 0 km/h
1472 02-03-2010 06:57:05 -1.9 C 3.65 g/m*3 -1.9 C 0 km/h
1473 02-03-2010 07:09:02 -2 C 3.63 g/m*3 -2 C 0 km/h
1474 02-03-2010 07:21:03 -1.8 C 3.72 g/m*3 -1.8 C 0 km/h
1475 02-03-2010 07:33:02 -1.8 C 3.72 g/m*3 -1.8 C 0 km/h
Sensor: Nr:Datum:Temp:Abs-Feuchte:Windchill:Wind:
Aussen-T/F 1476 02-03-2010 07:45:02 -1.6 C 3.77 g/m*3 -1.6 C 0 km/h
1477 02-03-2010 07:57:02 -1.2 C 3.92 g/m*3 -1.2 C 0 km/h
1478 02-03-2010 08:09:02 -0.9 C 4.01 g/m*3 -0.9 C 0 km/h
1479 02-03-2010 08:21:02 -0.7 C 4.06 g/m*3 -0.7 C 0 km/h
1480 02-03-2010 08:33:03 -0.7 C 4.06 g/m*3 -0.7 C 0 km/h
1481 02-03-2010 08:45:02 -0.6 C 4.09 g/m*3 -0.6 C 0 km/h
1482 02-03-2010 08:57:03 -0.6 C 4.09 g/m*3 -0.6 C 0 km/h
1483 02-03-2010 09:09:01 -0.5 C 4.07 g/m*3 -0.5 C 0 km/h
1484 02-03-2010 09:21:02 0 C 4.26 g/m*3 0 C 0 km/h
1485 02-03-2010 09:33:02 0.1 C 4.24 g/m*3 0.1 C 0 km/h
1486 02-03-2010 09:45:02 -0.1 C 4.14 g/m*3 -0.1 C 0 km/h
1487 02-03-2010 09:57:02 -0.1 C 4.14 g/m*3 -0.1 C 0 km/h
1488 02-03-2010 10:09:03 0.3 C 4.25 g/m*3 0.3 C 0 km/h
1489 02-03-2010 10:21:02 0.7 C 4.32 g/m*3 0.7 C 0 km/h
1490 02-03-2010 10:33:02 1.2 C 4.42 g/m*3 1.2 C 0 km/h
1491 02-03-2010 10:45:01 1.6 C 4.49 g/m*3 1.6 C 0 km/h
1492 02-03-2010 10:57:01 2.1 C 4.48 g/m*3 2.1 C 0 km/h
1493 02-03-2010 11:09:02 2.6 C 4.57 g/m*3 2.6 C 0 km/h
1494 02-03-2010 11:21:01 3.1 C 4.61 g/m*3 3.1 C 0 km/h
1495 02-03-2010 11:33:02 4 C 4.7 g/m*3 4 C 0 km/h
1496 02-03-2010 11:45:02 4 C 4.51 g/m*3 4 C 0 km/h
1497 02-03-2010 11:57:02 4.2 C 4.25 g/m*3 4.2 C 0 km/h
1498 02-03-2010 12:09:02 5.1 C 3.63 g/m*3 5.1 C 0 km/h
1499 02-03-2010 12:21:01 6.1 C 3.29 g/m*3 6.1 C 0 km/h
1500 02-03-2010 12:33:02 6.3 C 3.26 g/m*3 6.3 C 0 km/h
Sensor: Nr:Datum:Temp:Abs-Feuchte:Windchill:Wind:
Aussen-T/F 1501 02-03-2010 12:45:02 7 C 3.02 g/m*3 7 C 0 km/h
1502 02-03-2010 12:57:02 7.4 C 2.86 g/m*3 7.4 C 0 km/h
1503 02-03-2010 13:09:02 8.1 C 2.91 g/m*3 8.1 C 0 km/h
1504 02-03-2010 13:21:01 9.1 C 2.75 g/m*3 9.1 C 0 km/h
1505 02-03-2010 13:33:02 8.5 C 2.65 g/m*3 8.5 C 0 km/h
1506 02-03-2010 13:45:01 9.5 C 2.73 g/m*3 9.5 C 0 km/h
1507 02-03-2010 13:57:01 10.3 C 2.49 g/m*3 10.3 C 0 km/h
1508 02-03-2010 14:09:02 10.2 C 2.38 g/m*3 10.2 C 0 km/h
1509 02-03-2010 14:21:02 10.1 C 2.65 g/m*3 10.1 C 0 km/h
1510 02-03-2010 14:33:02 9.5 C 2.28 g/m*3 9.5 C 0 km/h
1511 02-03-2010 14:45:02 9.5 C 2.46 g/m*3 9.5 C 0 km/h
1512 02-03-2010 14:57:02 9 C 2.29 g/m*3 9 C 0 km/h
1513 02-03-2010 15:09:02 8.7 C 2.42 g/m*3 8.7 C 0 km/h
1514 02-03-2010 15:21:02 9.5 C 2.55 g/m*3 9.5 C 0 km/h
1515 02-03-2010 15:33:01 10.3 C 2.49 g/m*3 10.3 C 0 km/h
1516 02-03-2010 15:45:02 11 C 2.4 g/m*3 11 C 0 km/h
1517 02-03-2010 15:57:02 10.7 C 1.96 g/m*3 10.7 C 0 km/h
1518 02-03-2010 16:09:01 9.7 C 1.84 g/m*3 9.7 C 0 km/h
1519 02-03-2010 16:21:02 9.5 C 1.82 g/m*3 9.5 C 0 km/h
1520 02-03-2010 16:33:01 8.7 C 2.51 g/m*3 8.7 C 0 km/h
1521 02-03-2010 16:45:02 8.4 C 2.63 g/m*3 8.4 C 0 km/h
1522 02-03-2010 16:57:03 8.7 C 2.77 g/m*3 8.7 C 0 km/h
1523 02-03-2010 17:09:02 8.7 C 2.77 g/m*3 8.7 C 0 km/h
1524 02-03-2010 17:21:02 9 C 2.73 g/m*3 9 C 0 km/h
1525 02-03-2010 17:33:02 8.4 C 2.71 g/m*3 8.4 C 0 km/h
Sensor: Nr:Datum:Temp:Abs-Feuchte:Windchill:Wind:
Aussen-T/F 1526 02-03-2010 17:45:02 8.2 C 2.93 g/m*3 8.2 C 0 km/h
1527 02-03-2010 17:57:03 7.9 C 2.96 g/m*3 7.9 C 0 km/h
1528 02-03-2010 18:09:01 7.5 C 3.04 g/m*3 7.5 C 0 km/h
1529 02-03-2010 18:21:02 7 C 3.1 g/m*3 7 C 0 km/h
1530 02-03-2010 18:33:02 6.5 C 3.3 g/m*3 6.5 C 0 km/h
1531 02-03-2010 18:45:02 6.2 C 3.38 g/m*3 6.2 C 0 km/h
1532 02-03-2010 18:57:02 5.9 C 3.53 g/m*3 5.9 C 0 km/h
1533 02-03-2010 19:09:01 5.9 C 3.53 g/m*3 5.9 C 0 km/h
1534 02-03-2010 19:21:02 5.9 C 3.39 g/m*3 5.9 C 0 km/h
1535 02-03-2010 19:33:02 5.8 C 3.3 g/m*3 5.8 C 0 km/h
1536 02-03-2010 19:45:01 5.8 C 3.3 g/m*3 5.8 C 0 km/h
1537 02-03-2010 19:57:01 5.8 C 3.3 g/m*3 5.8 C 0 km/h
1538 02-03-2010 20:09:02 6 C 3.19 g/m*3 6 C 0 km/h
1539 02-03-2010 20:21:01 5.8 C 3.22 g/m*3 5.8 C 0 km/h
1540 02-03-2010 20:33:01 5.5 C 3.3 g/m*3 5.5 C 0 km/h
1541 02-03-2010 20:45:01 5 C 3.47 g/m*3 5 C 0 km/h
1542 02-03-2010 20:57:02 4.4 C 3.66 g/m*3 4.4 C 0 km/h
1543 02-03-2010 21:09:01 4.3 C 3.83 g/m*3 4.3 C 0 km/h
1544 02-03-2010 21:21:02 3.8 C 4.02 g/m*3 3.8 C 0 km/h
1545 02-03-2010 21:33:02 3.2 C 4.34 g/m*3 3.2 C 0 km/h
1546 02-03-2010 21:45:02 2.9 C 4.43 g/m*3 2.9 C 0 km/h
1547 02-03-2010 21:57:02 2.7 C 4.43 g/m*3 2.7 C 0 km/h
1548 02-03-2010 22:10:02 2.5 C 4.37 g/m*3 2.5 C 0 km/h
1549 02-03-2010 22:22:02 2.5 C 4.43 g/m*3 2.5 C 0 km/h
1550 02-03-2010 22:34:02 2.4 C 4.34 g/m*3 2.4 C 0 km/h
Sensor: Nr:Datum:Temp:Abs-Feuchte:Windchill:Wind:
Aussen-T/F 1551 02-03-2010 22:46:02 2.2 C 4.34 g/m*3 2.2 C 0 km/h
1552 02-03-2010 22:58:02 2 C 4.28 g/m*3 2 C 0 km/h
1553 02-03-2010 23:10:02 1.8 C 4.28 g/m*3 1.8 C 0 km/h
1554 02-03-2010 23:22:02 1.7 C 4.3 g/m*3 1.7 C 0 km/h
1555 02-03-2010 23:34:02 1.5 C 4.24 g/m*3 1.5 C 0 km/h
1556 02-03-2010 23:46:02 1.3 C 4.19 g/m*3 1.3 C 0 km/h
1557 02-03-2010 23:58:02 1.3 C 4.13 g/m*3 1.3 C 0 km/h
1558 03-03-2010 00:10:03 1.1 C 4.08 g/m*3 1.1 C 0 km/h
1559 03-03-2010 00:22:03 1.2 C 4.05 g/m*3 1.2 C 0 km/h
1560 03-03-2010 00:34:03 1.1 C 3.92 g/m*3 1.1 C 0 km/h
1561 03-03-2010 00:46:03 0.9 C 3.87 g/m*3 0.9 C 0 km/h
1562 03-03-2010 00:58:03 0.9 C 3.81 g/m*3 0.9 C 0 km/h
1563 03-03-2010 01:10:03 0.8 C 3.79 g/m*3 0.8 C 0 km/h
1564 03-03-2010 01:22:03 0.5 C 3.71 g/m*3 0.5 C 0 km/h
1565 03-03-2010 01:34:03 0.3 C 3.66 g/m*3 0.3 C 0 km/h
1566 03-03-2010 01:46:03 0.1 C 3.66 g/m*3 0.1 C 0 km/h
1567 03-03-2010 01:58:03 -0.1 C 3.66 g/m*3 -0.1 C 0 km/h
1568 03-03-2010 02:10:03 0 C 3.78 g/m*3 0 C 0 km/h
1569 03-03-2010 02:22:03 -0.1 C 3.8 g/m*3 -0.1 C 0 km/h
1570 03-03-2010 02:34:03 -0.4 C 3.72 g/m*3 -0.4 C 0 km/h
1571 03-03-2010 02:46:03 -0.5 C 3.74 g/m*3 -0.5 C 0 km/h
1572 03-03-2010 02:58:03 -0.6 C 3.76 g/m*3 -0.6 C 0 km/h
1573 03-03-2010 03:10:03 -0.7 C 3.74 g/m*3 -0.7 C 0 km/h
1574 03-03-2010 03:22:03 -0.9 C 3.69 g/m*3 -0.9 C 0 km/h
1575 03-03-2010 03:34:03 -0.9 C 3.73 g/m*3 -0.9 C 0 km/h
Sensor: Nr:Datum:Temp:Abs-Feuchte:Windchill:Wind:
Aussen-T/F 1576 03-03-2010 03:46:03 -1 C 3.71 g/m*3 -1 C 0 km/h
1577 03-03-2010 03:58:04 -1.1 C 3.68 g/m*3 -1.1 C 0 km/h
1578 03-03-2010 04:10:04 -1.2 C 3.7 g/m*3 -1.2 C 0 km/h
1579 03-03-2010 04:22:04 -1.3 C 3.67 g/m*3 -1.3 C 0 km/h
1580 03-03-2010 04:34:04 -1.5 C 3.62 g/m*3 -1.5 C 0 km/h
1581 03-03-2010 04:46:04 -1.4 C 3.69 g/m*3 -1.4 C 0 km/h
1582 03-03-2010 04:58:04 -1.6 C 3.64 g/m*3 -1.6 C 0 km/h
1583 03-03-2010 05:10:04 -1.7 C 3.62 g/m*3 -1.7 C 0 km/h
1584 03-03-2010 05:22:04 -2 C 3.54 g/m*3 -2 C 0 km/h
1585 03-03-2010 05:34:04 -2 C 3.54 g/m*3 -2 C 0 km/h
1586 03-03-2010 05:46:04 -2.1 C 3.52 g/m*3 -2.1 C 0 km/h
1587 03-03-2010 05:58:04 -2.1 C 3.56 g/m*3 -2.1 C 0 km/h
1588 03-03-2010 06:10:04 -2.2 C 3.53 g/m*3 -2.2 C 0 km/h
1589 03-03-2010 06:22:04 -1.8 C 3.68 g/m*3 -1.8 C 0 km/h
1590 03-03-2010 06:34:04 -1.4 C 3.82 g/m*3 -1.4 C 0 km/h
1591 03-03-2010 06:46:04 -1.1 C 3.91 g/m*3 -1.1 C 0 km/h
1592 03-03-2010 06:58:04 -1.1 C 3.91 g/m*3 -1.1 C 0 km/h
1593 03-03-2010 07:10:02 -1.1 C 3.86 g/m*3 -1.1 C 0 km/h
1594 03-03-2010 07:22:02 -1.1 C 3.86 g/m*3 -1.1 C 0 km/h
1595 03-03-2010 07:34:02 -1.1 C 3.82 g/m*3 -1.1 C 0 km/h
1596 03-03-2010 07:46:02 -1.3 C 3.72 g/m*3 -1.3 C 0 km/h
1597 03-03-2010 07:58:02 -1.5 C 3.67 g/m*3 -1.5 C 0 km/h
1598 03-03-2010 08:10:02 -1.4 C 3.69 g/m*3 -1.4 C 0 km/h
1599 03-03-2010 08:22:02 -1.3 C 3.72 g/m*3 -1.3 C 0 km/h
1600 03-03-2010 08:34:02 -1.2 C 3.79 g/m*3 -1.2 C 0 km/h
Sensor: Nr:Datum:Temp:Abs-Feuchte:Windchill:Wind:
Aussen-T/F 1601 03-03-2010 08:46:02 -0.7 C 3.92 g/m*3 -0.7 C 0 km/h
1602 03-03-2010 08:58:02 0.1 C 4.2 g/m*3 0.1 C 0 km/h
1603 03-03-2010 09:10:01 0.6 C 4.29 g/m*3 0.6 C 0 km/h
1604 03-03-2010 09:22:02 0.8 C 4.15 g/m*3 0.8 C 0 km/h
1605 03-03-2010 09:34:02 1 C 3.84 g/m*3 1 C 0 km/h
1606 03-03-2010 09:46:02 1.2 C 3.68 g/m*3 1.2 C 0 km/h
1607 03-03-2010 09:58:02 1.5 C 3.54 g/m*3 1.5 C 0 km/h
1608 03-03-2010 10:10:03 1.4 C 3.41 g/m*3 1.4 C 0 km/h
1609 03-03-2010 10:22:02 1.1 C 3.4 g/m*3 1.1 C 0 km/h
1610 03-03-2010 10:34:02 1.2 C 3.47 g/m*3 1.2 C 0 km/h
1611 03-03-2010 10:46:01 1.3 C 3.5 g/m*3 1.3 C 0 km/h
1612 03-03-2010 10:58:01 1.7 C 3.54 g/m*3 1.7 C 0 km/h
1613 03-03-2010 11:10:02 2.2 C 3.49 g/m*3 2.2 C 0 km/h
1614 03-03-2010 11:22:01 2.5 C 3.45 g/m*3 2.5 C 0 km/h
1615 03-03-2010 11:34:01 2.8 C 3.46 g/m*3 2.8 C 0 km/h
1616 03-03-2010 11:46:01 3.1 C 3.35 g/m*3 3.1 C 0 km/h
1617 03-03-2010 11:58:01 3.7 C 3.24 g/m*3 3.7 C 0 km/h
1618 03-03-2010 12:10:02 4.3 C 3.24 g/m*3 4.3 C 0 km/h
1619 03-03-2010 12:22:01 4.8 C 3.22 g/m*3 4.8 C 0 km/h
1620 03-03-2010 12:34:02 5.1 C 3.15 g/m*3 5.1 C 0 km/h
1621 03-03-2010 12:46:01 5.8 C 3.15 g/m*3 5.8 C 0 km/h
1622 03-03-2010 12:58:01 6.5 C 3 g/m*3 6.5 C 0 km/h
1623 03-03-2010 13:10:02 7 C 2.94 g/m*3 7 C 0 km/h
1624 03-03-2010 13:22:01 7.8 C 2.86 g/m*3 7.8 C 0 km/h
1625 03-03-2010 13:34:02 8.5 C 2.48 g/m*3 8.5 C 0 km/h
Sensor: Nr:Datum:Temp:Abs-Feuchte:Windchill:Wind:
Aussen-T/F 1626 03-03-2010 13:46:01 8.9 C 2.19 g/m*3 8.9 C 0 km/h
1627 03-03-2010 13:58:01 9.1 C 1.77 g/m*3 9.1 C 0 km/h
1628 03-03-2010 14:10:02 9.4 C 1.81 g/m*3 9.4 C 0 km/h
1629 03-03-2010 14:22:02 9.8 C 1.86 g/m*3 9.8 C 0 km/h
1630 03-03-2010 14:34:01 10.3 C 1.92 g/m*3 10.3 C 0 km/h
1631 03-03-2010 14:46:02 10.5 C 1.94 g/m*3 10.5 C 0 km/h
1632 03-03-2010 14:58:02 10.2 C 1.9 g/m*3 10.2 C 0 km/h
1633 03-03-2010 15:10:01 10.7 C 1.96 g/m*3 10.7 C 0 km/h
1634 03-03-2010 15:22:02 11 C 2 g/m*3 11 C 0 km/h
1635 03-03-2010 15:34:01 11 C 2 g/m*3 11 C 0 km/h
1636 03-03-2010 15:46:03 10.5 C 1.94 g/m*3 10.5 C 0 km/h
1637 03-03-2010 15:58:03 11 C 2 g/m*3 11 C 0 km/h
1638 03-03-2010 16:10:02 11.2 C 2.03 g/m*3 11.2 C 0 km/h
1639 03-03-2010 16:22:02 11.5 C 2.07 g/m*3 11.5 C 0 km/h
1640 03-03-2010 16:34:02 11.1 C 2.01 g/m*3 11.1 C 0 km/h
1641 03-03-2010 16:46:02 10.3 C 1.92 g/m*3 10.3 C 0 km/h
1642 03-03-2010 16:58:02 10.3 C 1.92 g/m*3 10.3 C 0 km/h
1643 03-03-2010 17:10:01 9.3 C 1.8 g/m*3 9.3 C 0 km/h
1644 03-03-2010 17:22:02 8.5 C 1.71 g/m*3 8.5 C 0 km/h
1645 03-03-2010 17:34:02 7.8 C 1.63 g/m*3 7.8 C 0 km/h
1646 03-03-2010 17:46:02 7.2 C 1.96 g/m*3 7.2 C 0 km/h
1647 03-03-2010 17:58:03 6.6 C 1.89 g/m*3 6.6 C 0 km/h
1648 03-03-2010 18:10:02 6.2 C 2.21 g/m*3 6.2 C 0 km/h
1649 03-03-2010 18:22:02 5.7 C 2.13 g/m*3 5.7 C 0 km/h
1650 03-03-2010 18:34:03 5.4 C 2.02 g/m*3 5.4 C 0 km/h
Sensor: Nr:Datum:Temp:Abs-Feuchte:Windchill:Wind:
Aussen-T/F 1651 03-03-2010 18:46:02 5.1 C 2.05 g/m*3 5.1 C 0 km/h
1652 03-03-2010 18:58:02 4.8 C 2.15 g/m*3 4.8 C 0 km/h
1653 03-03-2010 19:10:02 4.6 C 2.12 g/m*3 4.6 C 0 km/h
1654 03-03-2010 19:22:02 4.4 C 2.15 g/m*3 4.4 C 0 km/h
1655 03-03-2010 19:34:02 4.2 C 2.19 g/m*3 4.2 C 0 km/h
1656 03-03-2010 19:46:02 4.1 C 2.24 g/m*3 4.1 C 0 km/h
1657 03-03-2010 19:58:02 3.9 C 2.46 g/m*3 3.9 C 0 km/h
1658 03-03-2010 20:10:02 3.7 C 2.49 g/m*3 3.7 C 0 km/h
1659 03-03-2010 20:22:02 3.7 C 2.49 g/m*3 3.7 C 0 km/h
1660 03-03-2010 20:34:02 3.6 C 2.54 g/m*3 3.6 C 0 km/h
1661 03-03-2010 20:46:01 3.4 C 2.57 g/m*3 3.4 C 0 km/h
1662 03-03-2010 20:58:01 3.3 C 2.55 g/m*3 3.3 C 0 km/h
1663 03-03-2010 21:10:02 3.2 C 2.59 g/m*3 3.2 C 0 km/h
1664 03-03-2010 21:22:01 3 C 2.62 g/m*3 3 C 0 km/h
1665 03-03-2010 21:34:02 3 C 2.68 g/m*3 3 C 0 km/h
1666 03-03-2010 21:46:02 2.9 C 2.72 g/m*3 2.9 C 0 km/h
1667 03-03-2010 21:58:02 2.8 C 2.76 g/m*3 2.8 C 0 km/h
1668 03-03-2010 22:11:02 2.7 C 2.8 g/m*3 2.7 C 0 km/h
1669 03-03-2010 22:23:02 2.6 C 2.84 g/m*3 2.6 C 0 km/h
1670 03-03-2010 22:35:02 2.5 C 2.82 g/m*3 2.5 C 0 km/h
1671 03-03-2010 22:47:03 2.4 C 2.8 g/m*3 2.4 C 0 km/h
1672 03-03-2010 22:59:03 2.2 C 2.82 g/m*3 2.2 C 0 km/h
1673 03-03-2010 23:11:03 1.9 C 2.87 g/m*3 1.9 C 0 km/h
1674 03-03-2010 23:23:03 1.7 C 2.89 g/m*3 1.7 C 0 km/h
1675 03-03-2010 23:35:03 1.6 C 2.92 g/m*3 1.6 C 0 km/h
Sensor: Nr:Datum:Temp:Abs-Feuchte:Windchill:Wind:
Aussen-T/F 1676 03-03-2010 23:47:03 1.5 C 2.95 g/m*3 1.5 C 0 km/h
1677 03-03-2010 23:59:03 1.4 C 2.93 g/m*3 1.4 C 0 km/h
1678 04-03-2010 00:11:03 1.3 C 2.97 g/m*3 1.3 C 0 km/h
1679 04-03-2010 00:23:03 1.2 C 2.89 g/m*3 1.2 C 0 km/h
1680 04-03-2010 00:35:03 1.2 C 2.89 g/m*3 1.2 C 0 km/h
1681 04-03-2010 00:47:03 1.2 C 2.89 g/m*3 1.2 C 0 km/h
1682 04-03-2010 00:59:03 1.3 C 2.91 g/m*3 1.3 C 0 km/h
1683 04-03-2010 01:11:03 1.3 C 2.91 g/m*3 1.3 C 0 km/h
1684 04-03-2010 01:23:03 1.2 C 2.89 g/m*3 1.2 C 0 km/h
1685 04-03-2010 01:35:03 1.1 C 2.87 g/m*3 1.1 C 0 km/h
1686 04-03-2010 01:47:03 1.2 C 2.89 g/m*3 1.2 C 0 km/h
1687 04-03-2010 01:59:03 1 C 2.85 g/m*3 1 C 0 km/h
1688 04-03-2010 02:11:03 0.8 C 2.92 g/m*3 0.8 C 0 km/h
1689 04-03-2010 02:23:03 0.5 C 2.96 g/m*3 0.5 C 0 km/h
1690 04-03-2010 02:35:03 0.2 C 2.95 g/m*3 0.2 C 0 km/h
1691 04-03-2010 02:47:03 0.1 C 2.98 g/m*3 0.1 C 0 km/h
1692 04-03-2010 02:59:04 0 C 2.96 g/m*3 0 C 0 km/h
1693 04-03-2010 03:11:04 -0.2 C 2.96 g/m*3 -0.2 C 0 km/h
1694 04-03-2010 03:23:04 -0.4 C 2.87 g/m*3 -0.4 C 0 km/h
1695 04-03-2010 03:35:04 -0.6 C 2.88 g/m*3 -0.6 C 0 km/h
1696 04-03-2010 03:47:04 -0.7 C 2.86 g/m*3 -0.7 C 0 km/h
1697 04-03-2010 03:59:04 -0.8 C 2.89 g/m*3 -0.8 C 0 km/h
1698 04-03-2010 04:11:04 -0.9 C 2.87 g/m*3 -0.9 C 0 km/h
1699 04-03-2010 04:23:04 -0.7 C 2.95 g/m*3 -0.7 C 0 km/h
1700 04-03-2010 04:35:04 -0.7 C 2.91 g/m*3 -0.7 C 0 km/h
Sensor: Nr:Datum:Temp:Abs-Feuchte:Windchill:Wind:
Aussen-T/F 1701 04-03-2010 04:47:04 -0.7 C 2.95 g/m*3 -0.7 C 0 km/h
1702 04-03-2010 04:59:04 -0.8 C 2.89 g/m*3 -0.8 C 0 km/h
1703 04-03-2010 05:11:04 -0.7 C 2.95 g/m*3 -0.7 C 0 km/h
1704 04-03-2010 05:23:04 -0.8 C 2.93 g/m*3 -0.8 C 0 km/h
1705 04-03-2010 05:35:04 -0.9 C 2.96 g/m*3 -0.9 C 0 km/h
1706 04-03-2010 05:47:04 -0.7 C 3 g/m*3 -0.7 C 0 km/h
1707 04-03-2010 05:59:04 -1 C 2.94 g/m*3 -1 C 0 km/h
1708 04-03-2010 06:11:04 -1 C 2.98 g/m*3 -1 C 0 km/h
1709 04-03-2010 06:23:04 -1.1 C 2.96 g/m*3 -1.1 C 0 km/h
1710 04-03-2010 06:35:04 -1.3 C 2.92 g/m*3 -1.3 C 0 km/h
1711 04-03-2010 06:47:04 -1.4 C 2.95 g/m*3 -1.4 C 0 km/h
1712 04-03-2010 06:59:04 -1.4 C 2.99 g/m*3 -1.4 C 0 km/h
1713 04-03-2010 07:11:01 -1.4 C 3.03 g/m*3 -1.4 C 0 km/h
1714 04-03-2010 07:23:02 -1.3 C 3.05 g/m*3 -1.3 C 0 km/h
1715 04-03-2010 07:35:02 -1.3 C 3.01 g/m*3 -1.3 C 0 km/h
1716 04-03-2010 07:47:01 -1.2 C 3.08 g/m*3 -1.2 C 0 km/h
1717 04-03-2010 07:59:01 -1.1 C 3.1 g/m*3 -1.1 C 0 km/h
1718 04-03-2010 08:11:02 -1.1 C 3.1 g/m*3 -1.1 C 0 km/h
1719 04-03-2010 08:23:01 -1 C 3.12 g/m*3 -1 C 0 km/h
1720 04-03-2010 08:35:01 -1.1 C 3.1 g/m*3 -1.1 C 0 km/h
1721 04-03-2010 08:47:02 -1.1 C 3.1 g/m*3 -1.1 C 0 km/h
1722 04-03-2010 08:59:02 -1 C 3.16 g/m*3 -1 C 0 km/h
1723 04-03-2010 09:11:02 -0.5 C 3.23 g/m*3 -0.5 C 0 km/h
1724 04-03-2010 09:23:02 0 C 3.29 g/m*3 0 C 0 km/h
1725 04-03-2010 09:35:01 0.2 C 3.24 g/m*3 0.2 C 0 km/h
Sensor: Nr:Datum:Temp:Abs-Feuchte:Windchill:Wind:
Aussen-T/F 1726 04-03-2010 09:47:02 0.5 C 3.26 g/m*3 0.5 C 0 km/h
1727 04-03-2010 09:59:02 1.3 C 3.34 g/m*3 1.3 C 0 km/h
1728 04-03-2010 10:11:01 2 C 3.28 g/m*3 2 C 0 km/h
1729 04-03-2010 10:23:02 3 C 3.21 g/m*3 3 C 0 km/h
1730 04-03-2010 10:35:02 3.6 C 2.85 g/m*3 3.6 C 0 km/h
1731 04-03-2010 10:47:02 3.4 C 2.63 g/m*3 3.4 C 0 km/h
1732 04-03-2010 10:59:03 3.9 C 2.59 g/m*3 3.9 C 0 km/h
1733 04-03-2010 11:11:01 3.8 C 2.45 g/m*3 3.8 C 0 km/h
1734 04-03-2010 11:23:02 4.1 C 2.24 g/m*3 4.1 C 0 km/h
1735 04-03-2010 11:35:02 4.4 C 2.35 g/m*3 4.4 C 0 km/h
1736 04-03-2010 11:47:01 4.6 C 2.32 g/m*3 4.6 C 0 km/h
1737 04-03-2010 11:59:01 4.3 C 2.08 g/m*3 4.3 C 0 km/h
1738 04-03-2010 12:11:02 4.2 C 2.19 g/m*3 4.2 C 0 km/h
1739 04-03-2010 12:23:01 4.5 C 2.3 g/m*3 4.5 C 0 km/h
1740 04-03-2010 12:35:01 4.8 C 2.28 g/m*3 4.8 C 0 km/h
1741 04-03-2010 12:47:02 4.8 C 2.08 g/m*3 4.8 C 0 km/h
1742 04-03-2010 12:59:02 5.8 C 2.08 g/m*3 5.8 C 0 km/h
1743 04-03-2010 13:11:02 6.3 C 1.92 g/m*3 6.3 C 0 km/h
1744 04-03-2010 13:23:01 6.8 C 1.53 g/m*3 6.8 C 0 km/h
1745 04-03-2010 13:35:02 7.1 C 1.56 g/m*3 7.1 C 0 km/h
1746 04-03-2010 13:47:02 6.9 C 1.54 g/m*3 6.9 C 0 km/h
1747 04-03-2010 13:59:02 7.1 C 1.56 g/m*3 7.1 C 0 km/h
1748 04-03-2010 14:11:02 7.9 C 1.64 g/m*3 7.9 C 0 km/h
1749 04-03-2010 14:23:01 8.2 C 1.67 g/m*3 8.2 C 0 km/h
1750 04-03-2010 14:35:02 9 C 1.76 g/m*3 9 C 0 km/h
Sensor: Nr:Datum:Temp:Abs-Feuchte:Windchill:Wind:
Aussen-T/F 1751 04-03-2010 14:47:02 8.9 C 1.75 g/m*3 8.9 C 0 km/h
1752 04-03-2010 14:59:02 9.2 C 1.79 g/m*3 9.2 C 0 km/h
1753 04-03-2010 15:11:02 9.2 C 1.79 g/m*3 9.2 C 0 km/h
1754 04-03-2010 15:23:01 9.3 C 1.8 g/m*3 9.3 C 0 km/h
1755 04-03-2010 15:35:02 8.2 C 1.67 g/m*3 8.2 C 0 km/h
1756 04-03-2010 15:47:02 8.9 C 1.75 g/m*3 8.9 C 0 km/h
1757 04-03-2010 15:59:02 9.2 C 1.79 g/m*3 9.2 C 0 km/h
1758 04-03-2010 16:11:02 9.4 C 1.81 g/m*3 9.4 C 0 km/h
1759 04-03-2010 16:23:01 9.3 C 1.8 g/m*3 9.3 C 0 km/h
1760 04-03-2010 16:35:02 9.1 C 1.77 g/m*3 9.1 C 0 km/h
1761 04-03-2010 16:47:01 9 C 1.76 g/m*3 9 C 0 km/h
1762 04-03-2010 16:59:01 8.5 C 1.71 g/m*3 8.5 C 0 km/h
1763 04-03-2010 17:11:02 8.3 C 1.69 g/m*3 8.3 C 0 km/h
1764 04-03-2010 17:23:02 7.7 C 1.62 g/m*3 7.7 C 0 km/h
1765 04-03-2010 17:35:01 7.3 C 1.58 g/m*3 7.3 C 0 km/h
1766 04-03-2010 17:47:02 6.9 C 1.54 g/m*3 6.9 C 0 km/h
1767 04-03-2010 17:59:02 5.7 C 1.42 g/m*3 5.7 C 0 km/h
1768 04-03-2010 18:11:01 4.9 C 1.42 g/m*3 4.9 C 0 km/h
1769 04-03-2010 18:23:02 4.3 C 1.62 g/m*3 4.3 C 0 km/h
1770 04-03-2010 18:35:01 4 C 1.78 g/m*3 4 C 0 km/h
1771 04-03-2010 18:47:02 3.5 C 1.91 g/m*3 3.5 C 0 km/h
1772 04-03-2010 18:59:02 3.2 C 1.93 g/m*3 3.2 C 0 km/h
1773 04-03-2010 19:11:02 3 C 2.08 g/m*3 3 C 0 km/h
1774 04-03-2010 19:23:02 2.6 C 2.14 g/m*3 2.6 C 0 km/h
1775 04-03-2010 19:35:02 2.2 C 2.25 g/m*3 2.2 C 0 km/h
Sensor: Nr:Datum:Temp:Abs-Feuchte:Windchill:Wind:
Aussen-T/F 1776 04-03-2010 19:47:01 1.9 C 2.32 g/m*3 1.9 C 0 km/h
1777 04-03-2010 19:59:01 1.6 C 2.33 g/m*3 1.6 C 0 km/h
1778 04-03-2010 20:11:02 1.5 C 2.36 g/m*3 1.5 C 0 km/h
1779 04-03-2010 20:23:02 1.4 C 2.35 g/m*3 1.4 C 0 km/h
1780 04-03-2010 20:35:01 1.3 C 2.38 g/m*3 1.3 C 0 km/h
1781 04-03-2010 20:47:02 1.1 C 2.35 g/m*3 1.1 C 0 km/h
1782 04-03-2010 20:59:02 1.1 C 2.51 g/m*3 1.1 C 0 km/h
1783 04-03-2010 21:11:02 1.1 C 2.51 g/m*3 1.1 C 0 km/h
1784 04-03-2010 21:23:01 1.1 C 2.51 g/m*3 1.1 C 0 km/h
1785 04-03-2010 21:35:02 0.8 C 2.56 g/m*3 0.8 C 0 km/h
1786 04-03-2010 21:47:02 0.6 C 2.58 g/m*3 0.6 C 0 km/h
1787 04-03-2010 21:59:02 0.7 C 2.59 g/m*3 0.7 C 0 km/h
1788 04-03-2010 22:11:02 0.9 C 2.68 g/m*3 0.9 C 0 km/h
1789 04-03-2010 22:24:03 0.7 C 2.64 g/m*3 0.7 C 0 km/h
1790 04-03-2010 22:36:03 0.3 C 2.57 g/m*3 0.3 C 0 km/h
1791 04-03-2010 22:48:03 0.1 C 2.63 g/m*3 0.1 C 0 km/h
1792 04-03-2010 23:00:03 0 C 2.62 g/m*3 0 C 0 km/h
1793 04-03-2010 23:12:03 -0.1 C 2.6 g/m*3 -0.1 C 0 km/h
1794 04-03-2010 23:24:03 -0.2 C 2.53 g/m*3 -0.2 C 0 km/h
1795 04-03-2010 23:36:03 -0.2 C 2.53 g/m*3 -0.2 C 0 km/h
1796 04-03-2010 23:48:03 -0.3 C 2.56 g/m*3 -0.3 C 0 km/h
1797 05-03-2010 00:00:03 -0.4 C 2.5 g/m*3 -0.4 C 0 km/h
1798 05-03-2010 00:12:03 -0.5 C 2.53 g/m*3 -0.5 C 0 km/h
1799 05-03-2010 00:24:03 -0.7 C 2.49 g/m*3 -0.7 C 0 km/h
1800 05-03-2010 00:36:03 -1 C 2.49 g/m*3 -1 C 0 km/h
Sensor: Nr:Datum:Temp:Abs-Feuchte:Windchill:Wind:
Aussen-T/F 1801 05-03-2010 00:48:03 -1.1 C 2.47 g/m*3 -1.1 C 0 km/h
1802 05-03-2010 01:00:03 -1.3 C 2.43 g/m*3 -1.3 C 0 km/h
1803 05-03-2010 01:12:03 -1.4 C 2.46 g/m*3 -1.4 C 0 km/h
1804 05-03-2010 01:24:03 -1.6 C 2.43 g/m*3 -1.6 C 0 km/h
1805 05-03-2010 01:36:04 -1.5 C 2.44 g/m*3 -1.5 C 0 km/h
1806 05-03-2010 01:48:04 -1.5 C 2.4 g/m*3 -1.5 C 0 km/h
1807 05-03-2010 02:00:04 -1.6 C 2.38 g/m*3 -1.6 C 0 km/h
1808 05-03-2010 02:12:04 -1.4 C 2.37 g/m*3 -1.4 C 0 km/h
1809 05-03-2010 02:24:04 -1.3 C 2.26 g/m*3 -1.3 C 0 km/h
1810 05-03-2010 02:36:04 -1.5 C 2.18 g/m*3 -1.5 C 0 km/h
1811 05-03-2010 02:48:04 -1.7 C 2.15 g/m*3 -1.7 C 0 km/h
1812 05-03-2010 03:00:04 -1.7 C 2.11 g/m*3 -1.7 C 0 km/h
1813 05-03-2010 03:12:04 -1.9 C 2.04 g/m*3 -1.9 C 0 km/h
1814 05-03-2010 03:24:04 -2 C 2.11 g/m*3 -2 C 0 km/h
1815 05-03-2010 03:36:04 -1.9 C 2.16 g/m*3 -1.9 C 0 km/h
1816 05-03-2010 03:48:04 -1.9 C 2.16 g/m*3 -1.9 C 0 km/h
1817 05-03-2010 04:00:04 -1.9 C 2.21 g/m*3 -1.9 C 0 km/h
1818 05-03-2010 04:12:04 -2.1 C 2.18 g/m*3 -2.1 C 0 km/h
1819 05-03-2010 04:24:04 -2.3 C 2.19 g/m*3 -2.3 C 0 km/h
1820 05-03-2010 04:36:04 -2.4 C 2.21 g/m*3 -2.4 C 0 km/h
1821 05-03-2010 04:48:04 -2.4 C 2.25 g/m*3 -2.4 C 0 km/h
1822 05-03-2010 05:00:04 -2.5 C 2.28 g/m*3 -2.5 C 0 km/h
1823 05-03-2010 05:12:04 -2.6 C 2.3 g/m*3 -2.6 C 0 km/h
1824 05-03-2010 05:24:04 -2.6 C 2.38 g/m*3 -2.6 C 0 km/h
1825 05-03-2010 05:36:04 -2.8 C 2.43 g/m*3 -2.8 C 0 km/h
Sensor: Nr:Datum:Temp:Abs-Feuchte:Windchill:Wind:
Aussen-T/F 1826 05-03-2010 05:48:05 -2.3 C 2.64 g/m*3 -2.3 C 0 km/h
1827 05-03-2010 06:00:05 -1.9 C 2.67 g/m*3 -1.9 C 0 km/h
1828 05-03-2010 06:12:05 -2 C 2.7 g/m*3 -2 C 0 km/h
1829 05-03-2010 06:24:05 -2.4 C 2.62 g/m*3 -2.4 C 0 km/h
1830 05-03-2010 06:36:05 -2.6 C 2.63 g/m*3 -2.6 C 0 km/h
1831 05-03-2010 06:48:05 -2.8 C 2.63 g/m*3 -2.8 C 0 km/h
1832 05-03-2010 07:00:05 -2.9 C 2.65 g/m*3 -2.9 C 0 km/h
1833 05-03-2010 07:12:02 -2.9 C 2.69 g/m*3 -2.9 C 0 km/h
1834 05-03-2010 07:24:03 -2.8 C 2.71 g/m*3 -2.8 C 0 km/h
1835 05-03-2010 07:36:02 -2.7 C 2.77 g/m*3 -2.7 C 0 km/h
1836 05-03-2010 07:48:02 -2.9 C 2.69 g/m*3 -2.9 C 0 km/h
1837 05-03-2010 08:00:02 -2.9 C 2.73 g/m*3 -2.9 C 0 km/h
1838 05-03-2010 08:12:02 -2.8 C 2.75 g/m*3 -2.8 C 0 km/h
1839 05-03-2010 08:24:03 -2.8 C 2.75 g/m*3 -2.8 C 0 km/h
1840 05-03-2010 08:36:02 -2.6 C 2.83 g/m*3 -2.6 C 0 km/h
1841 05-03-2010 08:48:01 -2.6 C 2.79 g/m*3 -2.6 C 0 km/h
1842 05-03-2010 09:00:01 -2.5 C 2.77 g/m*3 -2.5 C 0 km/h
1843 05-03-2010 09:12:02 -2.3 C 2.72 g/m*3 -2.3 C 0 km/h
1844 05-03-2010 09:24:01 -2 C 2.66 g/m*3 -2 C 0 km/h
1845 05-03-2010 09:36:02 -1.8 C 2.48 g/m*3 -1.8 C 0 km/h
1846 05-03-2010 09:48:02 -1.4 C 2.46 g/m*3 -1.4 C 0 km/h
1847 05-03-2010 10:00:02 -1 C 2.49 g/m*3 -1 C 0 km/h
1848 05-03-2010 10:12:02 -0.5 C 2.53 g/m*3 -0.5 C 0 km/h
1849 05-03-2010 10:24:02 0.4 C 2.54 g/m*3 0.4 C 0 km/h
1850 05-03-2010 10:36:02 0.9 C 2.06 g/m*3 0.9 C 0 km/h
Sensor: Nr:Datum:Temp:Abs-Feuchte:Windchill:Wind:
Aussen-T/F 1851 05-03-2010 10:48:02 1.4 C 1.92 g/m*3 1.4 C 0 km/h
1852 05-03-2010 11:00:02 1.8 C 1.97 g/m*3 1.8 C 0 km/h
1853 05-03-2010 11:12:02 2.1 C 2.01 g/m*3 2.1 C 0 km/h
1854 05-03-2010 11:24:02 2.1 C 1.96 g/m*3 2.1 C 0 km/h
1855 05-03-2010 11:36:02 2.2 C 1.52 g/m*3 2.2 C 0 km/h
1856 05-03-2010 11:48:01 2.5 C 1.21 g/m*3 2.5 C 0 km/h
1857 05-03-2010 12:00:01 3.5 C 1.54 g/m*3 3.5 C 0 km/h
1858 05-03-2010 12:12:02 2.5 C 1.21 g/m*3 2.5 C 0 km/h
1859 05-03-2010 12:24:01 2.7 C 1.34 g/m*3 2.7 C 0 km/h
1860 05-03-2010 12:36:01 3 C 1.19 g/m*3 3 C 0 km/h
1861 05-03-2010 12:48:01 3.6 C 1.24 g/m*3 3.6 C 0 km/h
1862 05-03-2010 13:00:01 3.5 C 1.23 g/m*3 3.5 C 0 km/h
1863 05-03-2010 13:12:02 3.3 C 1.21 g/m*3 3.3 C 0 km/h
1864 05-03-2010 13:24:01 3.5 C 1.23 g/m*3 3.5 C 0 km/h
1865 05-03-2010 13:36:01 3.2 C 1.21 g/m*3 3.2 C 0 km/h
1866 05-03-2010 13:48:01 3.2 C 1.51 g/m*3 3.2 C 0 km/h
1867 05-03-2010 14:00:01 3.1 C 1.26 g/m*3 3.1 C 0 km/h
1868 05-03-2010 14:12:02 3.6 C 1.3 g/m*3 3.6 C 0 km/h
1869 05-03-2010 14:24:02 4 C 1.27 g/m*3 4 C 0 km/h
1870 05-03-2010 14:36:01 3.7 C 1.25 g/m*3 3.7 C 0 km/h
1871 05-03-2010 14:48:01 4 C 1.34 g/m*3 4 C 0 km/h
1872 05-03-2010 15:00:01 4.5 C 1.38 g/m*3 4.5 C 0 km/h
1873 05-03-2010 15:12:02 5.2 C 1.58 g/m*3 5.2 C 0 km/h
1874 05-03-2010 15:24:02 4.8 C 1.41 g/m*3 4.8 C 0 km/h
1875 05-03-2010 15:36:01 5.5 C 1.47 g/m*3 5.5 C 0 km/h
Sensor: Nr:Datum:Temp:Abs-Feuchte:Windchill:Wind:
Aussen-T/F 1876 05-03-2010 15:48:01 6 C 1.45 g/m*3 6 C 0 km/h
1877 05-03-2010 16:00:01 5.4 C 1.4 g/m*3 5.4 C 0 km/h
1878 05-03-2010 16:12:01 4.9 C 1.35 g/m*3 4.9 C 0 km/h
1879 05-03-2010 16:24:02 4.8 C 1.34 g/m*3 4.8 C 0 km/h
1880 05-03-2010 16:36:01 4.5 C 1.38 g/m*3 4.5 C 0 km/h
1881 05-03-2010 16:48:02 4.4 C 1.63 g/m*3 4.4 C 0 km/h
1882 05-03-2010 17:00:02 4.4 C 1.7 g/m*3 4.4 C 0 km/h
1883 05-03-2010 17:12:01 4.3 C 1.49 g/m*3 4.3 C 0 km/h
1884 05-03-2010 17:24:02 4.2 C 1.48 g/m*3 4.2 C 0 km/h
1885 05-03-2010 17:36:01 4 C 1.46 g/m*3 4 C 0 km/h
1886 05-03-2010 17:48:03 3.8 C 1.44 g/m*3 3.8 C 0 km/h
1887 05-03-2010 18:00:03 3.8 C 1.57 g/m*3 3.8 C 0 km/h
1888 05-03-2010 18:12:02 3.5 C 1.66 g/m*3 3.5 C 0 km/h
1889 05-03-2010 18:24:02 3.3 C 1.82 g/m*3 3.3 C 0 km/h
1890 05-03-2010 18:36:02 3.2 C 1.99 g/m*3 3.2 C 0 km/h
1891 05-03-2010 18:48:02 3.1 C 2.21 g/m*3 3.1 C 0 km/h
1892 05-03-2010 19:00:02 3 C 2.32 g/m*3 3 C 0 km/h
1893 05-03-2010 19:12:02 2.9 C 2.42 g/m*3 2.9 C 0 km/h
1894 05-03-2010 19:24:02 2.8 C 2.46 g/m*3 2.8 C 0 km/h
1895 05-03-2010 19:36:02 2.7 C 2.56 g/m*3 2.7 C 0 km/h
1896 05-03-2010 19:48:02 2.6 C 2.66 g/m*3 2.6 C 0 km/h
1897 05-03-2010 20:00:02 2.5 C 2.7 g/m*3 2.5 C 0 km/h
1898 05-03-2010 20:12:01 2.5 C 2.76 g/m*3 2.5 C 0 km/h
1899 05-03-2010 20:24:02 2.4 C 2.8 g/m*3 2.4 C 0 km/h
1900 05-03-2010 20:36:01 2.5 C 2.82 g/m*3 2.5 C 0 km/h
Sensor: Nr:Datum:Temp:Abs-Feuchte:Windchill:Wind:
Aussen-T/F 1901 05-03-2010 20:48:02 2.5 C 2.82 g/m*3 2.5 C 0 km/h
1902 05-03-2010 21:00:02 2.5 C 2.82 g/m*3 2.5 C 0 km/h
1903 05-03-2010 21:12:01 2.4 C 2.91 g/m*3 2.4 C 0 km/h
1904 05-03-2010 21:24:01 2.1 C 3.13 g/m*3 2.1 C 0 km/h
1905 05-03-2010 21:36:02 1.8 C 3.4 g/m*3 1.8 C 0 km/h
1906 05-03-2010 21:48:02 1.5 C 3.54 g/m*3 1.5 C 0 km/h
1907 05-03-2010 22:00:03 1.3 C 3.71 g/m*3 1.3 C 0 km/h
1908 05-03-2010 22:12:02 1 C 3.84 g/m*3 1 C 0 km/h
1909 05-03-2010 22:24:02 0.9 C 3.97 g/m*3 0.9 C 0 km/h
1910 05-03-2010 22:36:02 0.8 C 4.04 g/m*3 0.8 C 0 km/h
1911 05-03-2010 22:48:02 0.8 C 4.1 g/m*3 0.8 C 0 km/h
1912 05-03-2010 23:00:02 0.7 C 4.12 g/m*3 0.7 C 0 km/h
1913 05-03-2010 23:12:01 0.5 C 4.16 g/m*3 0.5 C 0 km/h
1914 05-03-2010 23:24:02 0.6 C 4.24 g/m*3 0.6 C 0 km/h
1915 05-03-2010 23:36:02 0.7 C 4.27 g/m*3 0.7 C 0 km/h
1916 05-03-2010 23:48:02 0.7 C 4.27 g/m*3 0.7 C 0 km/h
1917 06-03-2010 00:00:03 0.9 C 4.28 g/m*3 0.9 C 0 km/h
1918 06-03-2010 00:12:02 0.7 C 4.17 g/m*3 0.7 C 0 km/h
1919 06-03-2010 00:25:05 0.6 C 4.24 g/m*3 0.6 C 0 km/h
1920 06-03-2010 00:37:05 0.7 C 4.27 g/m*3 0.7 C 0 km/h
1921 06-03-2010 00:49:05 0.6 C 4.29 g/m*3 0.6 C 0 km/h
1922 06-03-2010 01:01:05 0.6 C 4.34 g/m*3 0.6 C 0 km/h
1923 06-03-2010 01:13:05 0.5 C 4.36 g/m*3 0.5 C 0 km/h
1924 06-03-2010 01:25:05 0.5 C 4.41 g/m*3 0.5 C 0 km/h
1925 06-03-2010 01:37:06 0.4 C 4.43 g/m*3 0.4 C 0 km/h
Sensor: Nr:Datum:Temp:Abs-Feuchte:Windchill:Wind:
Aussen-T/F 1926 06-03-2010 01:49:06 0.5 C 4.46 g/m*3 0.5 C 0 km/h
1927 06-03-2010 02:01:06 0.6 C 4.54 g/m*3 0.6 C 0 km/h
1928 06-03-2010 02:13:06 0.6 C 4.6 g/m*3 0.6 C 0 km/h
1929 06-03-2010 02:25:06 0.6 C 4.6 g/m*3 0.6 C 0 km/h
1930 06-03-2010 02:37:06 0.6 C 4.6 g/m*3 0.6 C 0 km/h
1931 06-03-2010 02:49:06 0.5 C 4.61 g/m*3 0.5 C 0 km/h
1932 06-03-2010 03:01:06 0.4 C 4.58 g/m*3 0.4 C 0 km/h
1933 06-03-2010 03:13:06 0.3 C 4.55 g/m*3 0.3 C 0 km/h
1934 06-03-2010 03:25:06 0.2 C 4.57 g/m*3 0.2 C 0 km/h
1935 06-03-2010 03:37:06 0.1 C 4.54 g/m*3 0.1 C 0 km/h
1936 06-03-2010 03:49:06 0 C 4.51 g/m*3 0 C 0 km/h
1937 06-03-2010 04:01:06 0 C 4.51 g/m*3 0 C 0 km/h
1938 06-03-2010 04:13:06 0 C 4.51 g/m*3 0 C 0 km/h
1939 06-03-2010 04:25:06 0 C 4.51 g/m*3 0 C 0 km/h
1940 06-03-2010 04:37:06 0 C 4.55 g/m*3 0 C 0 km/h
1941 06-03-2010 04:49:06 0 C 4.55 g/m*3 0 C 0 km/h
1942 06-03-2010 05:01:06 0 C 4.55 g/m*3 0 C 0 km/h
1943 06-03-2010 05:13:06 -0.1 C 4.47 g/m*3 -0.1 C 0 km/h
1944 06-03-2010 05:25:06 0 C 4.51 g/m*3 0 C 0 km/h
1945 06-03-2010 05:37:06 0 C 4.51 g/m*3 0 C 0 km/h
1946 06-03-2010 05:49:07 0 C 4.51 g/m*3 0 C 0 km/h
1947 06-03-2010 06:01:07 -0.1 C 4.43 g/m*3 -0.1 C 0 km/h
1948 06-03-2010 06:13:07 -0.2 C 4.4 g/m*3 -0.2 C 0 km/h
1949 06-03-2010 06:25:07 -0.2 C 4.3 g/m*3 -0.2 C 0 km/h
1950 06-03-2010 06:37:07 -0.2 C 4.21 g/m*3 -0.2 C 0 km/h
Sensor: Nr:Datum:Temp:Abs-Feuchte:Windchill:Wind:
Aussen-T/F 1951 06-03-2010 06:49:07 -0.1 C 4.14 g/m*3 -0.1 C 0 km/h
1952 06-03-2010 07:01:07 -0.1 C 4.09 g/m*3 -0.1 C 0 km/h
1953 06-03-2010 07:13:07 0 C 4.12 g/m*3 0 C 0 km/h
1954 06-03-2010 07:25:07 0 C 4.17 g/m*3 0 C 0 km/h
1955 06-03-2010 07:37:07 0 C 4.17 g/m*3 0 C 0 km/h
1956 06-03-2010 07:49:01 0 C 4.12 g/m*3 0 C 0 km/h
1957 06-03-2010 08:01:02 0.1 C 4.2 g/m*3 0.1 C 0 km/h
1958 06-03-2010 08:13:02 0.1 C 4.2 g/m*3 0.1 C 0 km/h
1959 06-03-2010 08:25:01 0.2 C 4.22 g/m*3 0.2 C 0 km/h
1960 06-03-2010 08:37:02 0.4 C 4.23 g/m*3 0.4 C 0 km/h
1961 06-03-2010 08:49:01 0.4 C 4.13 g/m*3 0.4 C 0 km/h
1962 06-03-2010 09:01:02 0.4 C 4.03 g/m*3 0.4 C 0 km/h
1963 06-03-2010 09:13:02 0.4 C 4.03 g/m*3 0.4 C 0 km/h
1964 06-03-2010 09:25:02 0.4 C 4.08 g/m*3 0.4 C 0 km/h
1965 06-03-2010 09:37:02 0.3 C 4.06 g/m*3 0.3 C 0 km/h
1966 06-03-2010 09:49:02 0.4 C 4.03 g/m*3 0.4 C 0 km/h
1967 06-03-2010 10:01:02 0.4 C 3.88 g/m*3 0.4 C 0 km/h
1968 06-03-2010 10:13:02 0.5 C 3.71 g/m*3 0.5 C 0 km/h
1969 06-03-2010 10:25:02 0.5 C 3.71 g/m*3 0.5 C 0 km/h
1970 06-03-2010 10:37:02 0.5 C 3.71 g/m*3 0.5 C 0 km/h
1971 06-03-2010 10:49:01 0.4 C 3.59 g/m*3 0.4 C 0 km/h
1972 06-03-2010 11:01:02 0.5 C 3.66 g/m*3 0.5 C 0 km/h
1973 06-03-2010 11:13:02 0.4 C 3.59 g/m*3 0.4 C 0 km/h
1974 06-03-2010 11:25:01 0.5 C 3.56 g/m*3 0.5 C 0 km/h
1975 06-03-2010 11:37:01 0.4 C 3.39 g/m*3 0.4 C 0 km/h
Sensor: Nr:Datum:Temp:Abs-Feuchte:Windchill:Wind:
Aussen-T/F 1976 06-03-2010 11:49:01 0.3 C 3.26 g/m*3 0.3 C 0 km/h
1977 06-03-2010 12:01:02 0.4 C 3.34 g/m*3 0.4 C 0 km/h
1978 06-03-2010 12:13:02 0.5 C 3.26 g/m*3 0.5 C 0 km/h
1979 06-03-2010 12:25:01 0.4 C 3.19 g/m*3 0.4 C 0 km/h
1980 06-03-2010 12:37:02 0.6 C 3.23 g/m*3 0.6 C 0 km/h
1981 06-03-2010 12:49:02 0.7 C 3.36 g/m*3 0.7 C 0 km/h
1982 06-03-2010 13:01:02 0.8 C 3.28 g/m*3 0.8 C 0 km/h
1983 06-03-2010 13:13:02 1.1 C 3.29 g/m*3 1.1 C 0 km/h
1984 06-03-2010 13:25:01 0.9 C 2.94 g/m*3 0.9 C 0 km/h
1985 06-03-2010 13:37:02 0.5 C 3.11 g/m*3 0.5 C 0 km/h
1986 06-03-2010 13:49:02 0.4 C 3.34 g/m*3 0.4 C 0 km/h
1987 06-03-2010 14:01:02 0.2 C 3.19 g/m*3 0.2 C 0 km/h
1988 06-03-2010 14:13:02 0.5 C 3.36 g/m*3 0.5 C 0 km/h
1989 06-03-2010 14:25:02 1 C 3.32 g/m*3 1 C 0 km/h
1990 06-03-2010 14:37:02 1.7 C 3.27 g/m*3 1.7 C 0 km/h
1991 06-03-2010 14:49:02 1.4 C 3.04 g/m*3 1.4 C 0 km/h
1992 06-03-2010 15:01:02 1.3 C 3.02 g/m*3 1.3 C 0 km/h
1993 06-03-2010 15:13:02 1.3 C 2.97 g/m*3 1.3 C 0 km/h
1994 06-03-2010 15:25:02 1.5 C 2.79 g/m*3 1.5 C 0 km/h
1995 06-03-2010 15:37:02 1.3 C 2.7 g/m*3 1.3 C 0 km/h
1996 06-03-2010 15:49:02 1.4 C 2.67 g/m*3 1.4 C 0 km/h
1997 06-03-2010 16:01:02 1.4 C 2.72 g/m*3 1.4 C 0 km/h
1998 06-03-2010 16:13:02 0.9 C 2.63 g/m*3 0.9 C 0 km/h
1999 06-03-2010 16:25:02 1 C 2.6 g/m*3 1 C 0 km/h
2000 06-03-2010 16:37:02 0.8 C 2.66 g/m*3 0.8 C 0 km/h
Sensor: Nr:Datum:Temp:Abs-Feuchte:Windchill:Wind:
Aussen-T/F 2001 06-03-2010 16:49:02 0.5 C 2.71 g/m*3 0.5 C 0 km/h
2002 06-03-2010 17:01:02 0.2 C 2.55 g/m*3 0.2 C 0 km/h
2003 06-03-2010 17:13:02 -0.2 C 2.25 g/m*3 -0.2 C 0 km/h
2004 06-03-2010 17:25:02 -0.5 C 2.15 g/m*3 -0.5 C 0 km/h
2005 06-03-2010 17:37:02 -0.6 C 2.14 g/m*3 -0.6 C 0 km/h
2006 06-03-2010 17:49:01 -1 C 2.08 g/m*3 -1 C 0 km/h
2007 06-03-2010 18:01:02 -1.4 C 2.02 g/m*3 -1.4 C 0 km/h
2008 06-03-2010 18:13:02 -1.6 C 2.08 g/m*3 -1.6 C 0 km/h
2009 06-03-2010 18:25:02 -1.8 C 2.05 g/m*3 -1.8 C 0 km/h
2010 06-03-2010 18:37:02 -1.9 C 2.08 g/m*3 -1.9 C 0 km/h
2011 06-03-2010 18:49:02 -1.8 C 2.05 g/m*3 -1.8 C 0 km/h
2012 06-03-2010 19:01:02 -2 C 2.11 g/m*3 -2 C 0 km/h
2013 06-03-2010 19:13:02 -2.3 C 2.1 g/m*3 -2.3 C 0 km/h
2014 06-03-2010 19:25:02 -2.5 C 2.2 g/m*3 -2.5 C 0 km/h
2015 06-03-2010 19:37:01 -2.6 C 2.22 g/m*3 -2.6 C 0 km/h
2016 06-03-2010 19:49:02 -2.7 C 2.21 g/m*3 -2.7 C 0 km/h
2017 06-03-2010 20:01:01 -2.7 C 2.21 g/m*3 -2.7 C 0 km/h
2018 06-03-2010 20:13:01 -2.8 C 2.15 g/m*3 -2.8 C 0 km/h
2019 06-03-2010 20:25:02 -3.1 C 2.15 g/m*3 -3.1 C 0 km/h
2020 06-03-2010 20:37:01 -3.4 C 2.25 g/m*3 -3.4 C 0 km/h
2021 06-03-2010 20:49:02 -3.6 C 2.3 g/m*3 -3.6 C 0 km/h
2022 06-03-2010 21:01:01 -3.8 C 2.3 g/m*3 -3.8 C 0 km/h
2023 06-03-2010 21:13:01 -4 C 2.34 g/m*3 -4 C 0 km/h
2024 06-03-2010 21:25:02 -4 C 2.38 g/m*3 -4 C 0 km/h
2025 06-03-2010 21:37:01 -4.2 C 2.38 g/m*3 -4.2 C 0 km/h
Sensor: Nr:Datum:Temp:Abs-Feuchte:Windchill:Wind:
Aussen-T/F 2026 06-03-2010 21:50:03 -4.2 C 2.42 g/m*3 -4.2 C 0 km/h
2027 06-03-2010 22:02:03 -4.3 C 2.43 g/m*3 -4.3 C 0 km/h
2028 06-03-2010 22:14:03 -4.2 C 2.49 g/m*3 -4.2 C 0 km/h
2029 06-03-2010 22:26:03 -4 C 2.52 g/m*3 -4 C 0 km/h
2030 06-03-2010 22:38:03 -3.7 C 2.58 g/m*3 -3.7 C 0 km/h
2031 06-03-2010 22:50:03 -3.4 C 2.6 g/m*3 -3.4 C 0 km/h
2032 06-03-2010 23:02:03 -3.4 C 2.6 g/m*3 -3.4 C 0 km/h
2033 06-03-2010 23:14:03 -3.3 C 2.58 g/m*3 -3.3 C 0 km/h
2034 06-03-2010 23:26:03 -3.3 C 2.58 g/m*3 -3.3 C 0 km/h
2035 06-03-2010 23:38:03 -3.5 C 2.5 g/m*3 -3.5 C 0 km/h
2036 06-03-2010 23:50:03 -3.8 C 2.45 g/m*3 -3.8 C 0 km/h
2037 07-03-2010 00:02:03 -4.2 C 2.42 g/m*3 -4.2 C 0 km/h
2038 07-03-2010 00:14:03 -4.4 C 2.42 g/m*3 -4.4 C 0 km/h
2039 07-03-2010 00:26:04 -4.5 C 2.4 g/m*3 -4.5 C 0 km/h
2040 07-03-2010 00:38:04 -4.7 C 2.4 g/m*3 -4.7 C 0 km/h
2041 07-03-2010 00:50:04 -4.6 C 2.42 g/m*3 -4.6 C 0 km/h
2042 07-03-2010 01:02:04 -4.4 C 2.49 g/m*3 -4.4 C 0 km/h
2043 07-03-2010 01:14:04 -4.3 C 2.47 g/m*3 -4.3 C 0 km/h
2044 07-03-2010 01:26:04 -4.4 C 2.45 g/m*3 -4.4 C 0 km/h
2045 07-03-2010 01:38:04 -4.5 C 2.44 g/m*3 -4.5 C 0 km/h
2046 07-03-2010 01:50:04 -4.4 C 2.45 g/m*3 -4.4 C 0 km/h
2047 07-03-2010 02:02:04 -4.4 C 2.49 g/m*3 -4.4 C 0 km/h
2048 07-03-2010 02:14:04 -4.4 C 2.49 g/m*3 -4.4 C 0 km/h
2049 07-03-2010 02:26:04 -4.6 C 2.45 g/m*3 -4.6 C 0 km/h
2050 07-03-2010 02:38:04 -4.4 C 2.52 g/m*3 -4.4 C 0 km/h
Sensor: Nr:Datum:Temp:Abs-Feuchte:Windchill:Wind:
Aussen-T/F 2051 07-03-2010 02:50:04 -4.5 C 2.51 g/m*3 -4.5 C 0 km/h
2052 07-03-2010 03:02:04 -4.6 C 2.49 g/m*3 -4.6 C 0 km/h
2053 07-03-2010 03:14:04 -4.8 C 2.45 g/m*3 -4.8 C 0 km/h
2054 07-03-2010 03:26:04 -5 C 2.45 g/m*3 -5 C 0 km/h
2055 07-03-2010 03:38:04 -5.1 C 2.43 g/m*3 -5.1 C 0 km/h
2056 07-03-2010 03:50:04 -5.2 C 2.45 g/m*3 -5.2 C 0 km/h
2057 07-03-2010 04:02:04 -5.3 C 2.43 g/m*3 -5.3 C 0 km/h
2058 07-03-2010 04:14:04 -5.1 C 2.5 g/m*3 -5.1 C 0 km/h
2059 07-03-2010 04:26:05 -4.9 C 2.54 g/m*3 -4.9 C 0 km/h
2060 07-03-2010 04:38:05 -4.6 C 2.63 g/m*3 -4.6 C 0 km/h
2061 07-03-2010 04:50:05 -4.6 C 2.63 g/m*3 -4.6 C 0 km/h
2062 07-03-2010 05:02:05 -4.8 C 2.56 g/m*3 -4.8 C 0 km/h
2063 07-03-2010 05:14:05 -5 C 2.52 g/m*3 -5 C 0 km/h
2064 07-03-2010 05:26:05 -5.2 C 2.48 g/m*3 -5.2 C 0 km/h
2065 07-03-2010 05:38:05 -5.3 C 2.47 g/m*3 -5.3 C 0 km/h
2066 07-03-2010 05:50:05 -5.3 C 2.47 g/m*3 -5.3 C 0 km/h
2067 07-03-2010 06:02:05 -5.6 C 2.41 g/m*3 -5.6 C 0 km/h
2068 07-03-2010 06:14:05 -5.8 C 2.38 g/m*3 -5.8 C 0 km/h
2069 07-03-2010 06:26:05 -5.8 C 2.41 g/m*3 -5.8 C 0 km/h
2070 07-03-2010 06:38:05 -5.9 C 2.42 g/m*3 -5.9 C 0 km/h
2071 07-03-2010 06:50:05 -6 C 2.41 g/m*3 -6 C 0 km/h
2072 07-03-2010 07:02:05 -6 C 2.44 g/m*3 -6 C 0 km/h
2073 07-03-2010 07:14:05 -6.1 C 2.42 g/m*3 -6.1 C 0 km/h
2074 07-03-2010 07:26:05 -6.1 C 2.42 g/m*3 -6.1 C 0 km/h
2075 07-03-2010 07:38:05 -6.4 C 2.34 g/m*3 -6.4 C 0 km/h
Sensor: Nr:Datum:Temp:Abs-Feuchte:Windchill:Wind:
Aussen-T/F 2076 07-03-2010 07:50:05 -6.5 C 2.32 g/m*3 -6.5 C 0 km/h
2077 07-03-2010 08:02:05 -6.5 C 2.32 g/m*3 -6.5 C 0 km/h
2078 07-03-2010 08:14:05 -6.4 C 2.34 g/m*3 -6.4 C 0 km/h
2079 07-03-2010 08:26:02 -6.2 C 2.4 g/m*3 -6.2 C 0 km/h
2080 07-03-2010 08:38:03 -5.7 C 2.49 g/m*3 -5.7 C 0 km/h
2081 07-03-2010 08:50:02 -5.3 C 2.57 g/m*3 -5.3 C 0 km/h
2082 07-03-2010 09:02:02 -5 C 2.59 g/m*3 -5 C 0 km/h
2083 07-03-2010 09:14:02 -4.6 C 2.63 g/m*3 -4.6 C 0 km/h
2084 07-03-2010 09:26:02 -4.1 C 2.65 g/m*3 -4.1 C 0 km/h
2085 07-03-2010 09:38:02 -3.5 C 2.65 g/m*3 -3.5 C 0 km/h
2086 07-03-2010 09:50:02 -3 C 2.59 g/m*3 -3 C 0 km/h
2087 07-03-2010 10:02:01 -2 C 2.66 g/m*3 -2 C 0 km/h
2088 07-03-2010 10:14:01 -1.4 C 2.51 g/m*3 -1.4 C 0 km/h
2089 07-03-2010 10:26:02 -1 C 2.4 g/m*3 -1 C 0 km/h
2090 07-03-2010 10:38:02 -1 C 2.35 g/m*3 -1 C 0 km/h
2091 07-03-2010 10:50:02 -1 C 2.31 g/m*3 -1 C 0 km/h
2092 07-03-2010 11:02:03 -0.7 C 2.35 g/m*3 -0.7 C 0 km/h
2093 07-03-2010 11:14:03 -0.5 C 2.29 g/m*3 -0.5 C 0 km/h
2094 07-03-2010 11:26:02 -0.5 C 2.2 g/m*3 -0.5 C 0 km/h
2095 07-03-2010 11:38:02 -0.4 C 2.22 g/m*3 -0.4 C 0 km/h
2096 07-03-2010 11:50:02 -0.1 C 2.26 g/m*3 -0.1 C 0 km/h
2097 07-03-2010 12:02:02 -0.2 C 2.15 g/m*3 -0.2 C 0 km/h
2098 07-03-2010 12:14:02 0 C 2.23 g/m*3 0 C 0 km/h
2099 07-03-2010 12:26:01 0.4 C 2.29 g/m*3 0.4 C 0 km/h
2100 07-03-2010 12:38:02 0.9 C 2.32 g/m*3 0.9 C 0 km/h
Sensor: Nr:Datum:Temp:Abs-Feuchte:Windchill:Wind:
Aussen-T/F 2101 07-03-2010 12:50:02 1.5 C 2.31 g/m*3 1.5 C 0 km/h
2102 07-03-2010 13:02:02 1.6 C 2.16 g/m*3 1.6 C 0 km/h
2103 07-03-2010 13:14:02 1.8 C 2.14 g/m*3 1.8 C 0 km/h
2104 07-03-2010 13:26:02 2.2 C 2.14 g/m*3 2.2 C 0 km/h
2105 07-03-2010 13:38:02 2.5 C 2.07 g/m*3 2.5 C 0 km/h
2106 07-03-2010 13:50:02 2.9 C 2.07 g/m*3 2.9 C 0 km/h
2107 07-03-2010 14:02:03 3 C 1.96 g/m*3 3 C 0 km/h
2108 07-03-2010 14:14:03 3.3 C 2.06 g/m*3 3.3 C 0 km/h
2109 07-03-2010 14:26:02 3.7 C 1.99 g/m*3 3.7 C 0 km/h
2110 07-03-2010 14:38:02 3.7 C 1.74 g/m*3 3.7 C 0 km/h
2111 07-03-2010 14:50:01 3.9 C 1.77 g/m*3 3.9 C 0 km/h
2112 07-03-2010 15:02:02 4.2 C 1.68 g/m*3 4.2 C 0 km/h
2113 07-03-2010 15:14:02 4.5 C 1.31 g/m*3 4.5 C 0 km/h
2114 07-03-2010 15:26:01 4.6 C 1.32 g/m*3 4.6 C 0 km/h
2115 07-03-2010 15:38:02 4.7 C 1.33 g/m*3 4.7 C 0 km/h
2116 07-03-2010 15:50:02 5 C 1.36 g/m*3 5 C 0 km/h
2117 07-03-2010 16:02:02 5.1 C 1.37 g/m*3 5.1 C 0 km/h
2118 07-03-2010 16:14:02 5.3 C 1.39 g/m*3 5.3 C 0 km/h
2119 07-03-2010 16:26:01 5.8 C 1.43 g/m*3 5.8 C 0 km/h
2120 07-03-2010 16:38:02 5.9 C 1.44 g/m*3 5.9 C 0 km/h
2121 07-03-2010 16:50:02 5.7 C 1.42 g/m*3 5.7 C 0 km/h
2122 07-03-2010 17:02:02 5.8 C 1.43 g/m*3 5.8 C 0 km/h
2123 07-03-2010 17:14:02 5.1 C 1.37 g/m*3 5.1 C 0 km/h
2124 07-03-2010 17:26:02 4.9 C 1.35 g/m*3 4.9 C 0 km/h
2125 07-03-2010 17:38:02 4.7 C 1.33 g/m*3 4.7 C 0 km/h
Sensor: Nr:Datum:Temp:Abs-Feuchte:Windchill:Wind:
Aussen-T/F 2126 07-03-2010 17:50:02 4.1 C 1.28 g/m*3 4.1 C 0 km/h
2127 07-03-2010 18:02:02 3.2 C 1.21 g/m*3 3.2 C 0 km/h
2128 07-03-2010 18:14:03 2.2 C 1.63 g/m*3 2.2 C 0 km/h
2129 07-03-2010 18:26:02 1.4 C 1.71 g/m*3 1.4 C 0 km/h
2130 07-03-2010 18:38:02 0.6 C 1.77 g/m*3 0.6 C 0 km/h
2131 07-03-2010 18:50:02 0.1 C 1.76 g/m*3 0.1 C 0 km/h
2132 07-03-2010 19:02:02 -0.2 C 1.77 g/m*3 -0.2 C 0 km/h
2133 07-03-2010 19:14:02 -0.4 C 1.74 g/m*3 -0.4 C 0 km/h
2134 07-03-2010 19:26:02 -0.6 C 1.81 g/m*3 -0.6 C 0 km/h
2135 07-03-2010 19:38:02 -0.7 C 1.85 g/m*3 -0.7 C 0 km/h
2136 07-03-2010 19:50:01 -1.2 C 1.87 g/m*3 -1.2 C 0 km/h
2137 07-03-2010 20:02:01 -1.4 C 1.89 g/m*3 -1.4 C 0 km/h
2138 07-03-2010 20:14:02 -1.5 C 1.83 g/m*3 -1.5 C 0 km/h
2139 07-03-2010 20:26:01 -1.7 C 1.89 g/m*3 -1.7 C 0 km/h
2140 07-03-2010 20:38:01 -1.9 C 1.95 g/m*3 -1.9 C 0 km/h
2141 07-03-2010 20:50:01 -2 C 2.02 g/m*3 -2 C 0 km/h
2142 07-03-2010 21:02:01 -2.3 C 2.02 g/m*3 -2.3 C 0 km/h
2143 07-03-2010 21:14:01 -2.4 C 2.01 g/m*3 -2.4 C 0 km/h
2144 07-03-2010 21:26:01 -2.5 C 1.95 g/m*3 -2.5 C 0 km/h
2145 07-03-2010 21:38:01 -2.5 C 1.83 g/m*3 -2.5 C 0 km/h
2146 07-03-2010 21:51:03 -2.5 C 1.87 g/m*3 -2.5 C 0 km/h
2147 07-03-2010 22:03:03 -2.6 C 1.82 g/m*3 -2.6 C 0 km/h
2148 07-03-2010 22:15:03 -2.8 C 1.79 g/m*3 -2.8 C 0 km/h
2149 07-03-2010 22:27:03 -2.8 C 1.83 g/m*3 -2.8 C 0 km/h
2150 07-03-2010 22:39:03 -3 C 1.85 g/m*3 -3 C 0 km/h
Sensor: Nr:Datum:Temp:Abs-Feuchte:Windchill:Wind:
Aussen-T/F 2151 07-03-2010 22:51:03 -3.2 C 1.9 g/m*3 -3.2 C 0 km/h
2152 07-03-2010 23:03:04 -3.3 C 1.96 g/m*3 -3.3 C 0 km/h
2153 07-03-2010 23:15:04 -3.4 C 1.95 g/m*3 -3.4 C 0 km/h
2154 07-03-2010 23:27:04 -3.4 C 1.91 g/m*3 -3.4 C 0 km/h
2155 07-03-2010 23:39:04 -3.4 C 1.83 g/m*3 -3.4 C 0 km/h
2156 07-03-2010 23:51:04 -3.7 C 1.76 g/m*3 -3.7 C 0 km/h
2157 08-03-2010 00:03:04 -3.9 C 1.81 g/m*3 -3.9 C 0 km/h
2158 08-03-2010 00:15:04 -4 C 1.83 g/m*3 -4 C 0 km/h
2159 08-03-2010 00:27:04 -4.2 C 1.77 g/m*3 -4.2 C 0 km/h
2160 08-03-2010 00:39:04 -4.3 C 1.79 g/m*3 -4.3 C 0 km/h
2161 08-03-2010 00:51:04 -4.5 C 1.8 g/m*3 -4.5 C 0 km/h
2162 08-03-2010 01:03:04 -4.5 C 1.76 g/m*3 -4.5 C 0 km/h
2163 08-03-2010 01:15:04 -4.6 C 1.75 g/m*3 -4.6 C 0 km/h
2164 08-03-2010 01:27:04 -4.6 C 1.75 g/m*3 -4.6 C 0 km/h
2165 08-03-2010 01:39:04 -4.7 C 1.7 g/m*3 -4.7 C 0 km/h
2166 08-03-2010 01:51:04 -4.8 C 1.73 g/m*3 -4.8 C 0 km/h
2167 08-03-2010 02:03:04 -5 C 1.7 g/m*3 -5 C 0 km/h
2168 08-03-2010 02:15:04 -4.9 C 1.68 g/m*3 -4.9 C 0 km/h
2169 08-03-2010 02:27:04 -5 C 1.6 g/m*3 -5 C 0 km/h
2170 08-03-2010 02:39:04 -4.7 C 1.53 g/m*3 -4.7 C 0 km/h
2171 08-03-2010 02:51:04 -5 C 1.63 g/m*3 -5 C 0 km/h
2172 08-03-2010 03:03:04 -5.3 C 1.7 g/m*3 -5.3 C 0 km/h
2173 08-03-2010 03:15:05 -5.8 C 1.67 g/m*3 -5.8 C 0 km/h
2174 08-03-2010 03:27:05 -5.9 C 1.72 g/m*3 -5.9 C 0 km/h
2175 08-03-2010 03:39:05 -5.8 C 1.74 g/m*3 -5.8 C 0 km/h
Sensor: Nr:Datum:Temp:Abs-Feuchte:Windchill:Wind:
Aussen-T/F 2176 08-03-2010 03:51:05 -6 C 1.71 g/m*3 -6 C 0 km/h
2177 08-03-2010 04:03:05 -6.1 C 1.73 g/m*3 -6.1 C 0 km/h
2178 08-03-2010 04:15:05 -6.1 C 1.73 g/m*3 -6.1 C 0 km/h
2179 08-03-2010 04:27:05 -6.4 C 1.72 g/m*3 -6.4 C 0 km/h
2180 08-03-2010 04:39:05 -6.4 C 1.75 g/m*3 -6.4 C 0 km/h
2181 08-03-2010 04:51:05 -6.6 C 1.73 g/m*3 -6.6 C 0 km/h
2182 08-03-2010 05:03:05 -6.6 C 1.73 g/m*3 -6.6 C 0 km/h
2183 08-03-2010 05:15:05 -6.8 C 1.73 g/m*3 -6.8 C 0 km/h
2184 08-03-2010 05:27:05 -6.9 C 1.75 g/m*3 -6.9 C 0 km/h
2185 08-03-2010 05:39:05 -7.1 C 1.72 g/m*3 -7.1 C 0 km/h
2186 08-03-2010 05:51:05 -7.2 C 1.74 g/m*3 -7.2 C 0 km/h
2187 08-03-2010 06:03:05 -7.3 C 1.76 g/m*3 -7.3 C 0 km/h
2188 08-03-2010 06:15:05 -7.3 C 1.76 g/m*3 -7.3 C 0 km/h
2189 08-03-2010 06:27:05 -7.3 C 1.76 g/m*3 -7.3 C 0 km/h
2190 08-03-2010 06:39:05 -7.2 C 1.83 g/m*3 -7.2 C 0 km/h
2191 08-03-2010 06:51:05 -7.4 C 1.83 g/m*3 -7.4 C 0 km/h
2192 08-03-2010 07:03:02 -7.4 C 1.83 g/m*3 -7.4 C 0 km/h
2193 08-03-2010 07:15:03 -7.5 C 1.82 g/m*3 -7.5 C 0 km/h
2194 08-03-2010 07:27:03 -7.3 C 1.9 g/m*3 -7.3 C 0 km/h
2195 08-03-2010 07:39:03 -7 C 1.97 g/m*3 -7 C 0 km/h
2196 08-03-2010 07:51:01 -6.5 C 2.05 g/m*3 -6.5 C 0 km/h
2197 08-03-2010 08:03:01 -6.1 C 2.11 g/m*3 -6.1 C 0 km/h
2198 08-03-2010 08:15:01 -5.8 C 2.09 g/m*3 -5.8 C 0 km/h
2199 08-03-2010 08:27:01 -5.3 C 2.1 g/m*3 -5.3 C 0 km/h
2200 08-03-2010 08:39:02 -5 C 2.08 g/m*3 -5 C 0 km/h
Sensor: Nr:Datum:Temp:Abs-Feuchte:Windchill:Wind:
Aussen-T/F 2201 08-03-2010 08:51:02 -4.5 C 2.12 g/m*3 -4.5 C 0 km/h
2202 08-03-2010 09:03:02 -4.2 C 2.02 g/m*3 -4.2 C 0 km/h
2203 08-03-2010 09:15:02 -3.7 C 2.06 g/m*3 -3.7 C 0 km/h
2204 08-03-2010 09:27:02 -3.1 C 2.15 g/m*3 -3.1 C 0 km/h
2205 08-03-2010 09:39:02 -2.5 C 2.12 g/m*3 -2.5 C 0 km/h
2206 08-03-2010 09:51:02 -2.1 C 2.01 g/m*3 -2.1 C 0 km/h
2207 08-03-2010 10:03:01 -1.7 C 2.02 g/m*3 -1.7 C 0 km/h
2208 08-03-2010 10:15:01 -1.3 C 1.99 g/m*3 -1.3 C 0 km/h
2209 08-03-2010 10:27:01 -0.6 C 1.95 g/m*3 -0.6 C 0 km/h
2210 08-03-2010 10:39:02 0 C 1.94 g/m*3 0 C 0 km/h
2211 08-03-2010 10:51:02 0.4 C 1.74 g/m*3 0.4 C 0 km/h
2212 08-03-2010 11:03:01 0.7 C 1.78 g/m*3 0.7 C 0 km/h
2213 08-03-2010 11:15:02 1.1 C 1.83 g/m*3 1.1 C 0 km/h
2214 08-03-2010 11:27:02 1.3 C 1.7 g/m*3 1.3 C 0 km/h
2215 08-03-2010 11:39:02 1.7 C 1.85 g/m*3 1.7 C 0 km/h
2216 08-03-2010 11:51:01 2.4 C 1.77 g/m*3 2.4 C 0 km/h
2217 08-03-2010 12:03:02 2.6 C 1.62 g/m*3 2.6 C 0 km/h
2218 08-03-2010 12:15:01 3.1 C 1.68 g/m*3 3.1 C 0 km/h
2219 08-03-2010 12:27:01 3.2 C 1.63 g/m*3 3.2 C 0 km/h
2220 08-03-2010 12:39:02 3.4 C 1.53 g/m*3 3.4 C 0 km/h
2221 08-03-2010 12:51:02 3.2 C 1.39 g/m*3 3.2 C 0 km/h
2222 08-03-2010 13:03:02 3.2 C 1.51 g/m*3 3.2 C 0 km/h
2223 08-03-2010 13:15:02 3.6 C 1.61 g/m*3 3.6 C 0 km/h
2224 08-03-2010 13:27:02 4.5 C 1.31 g/m*3 4.5 C 0 km/h
2225 08-03-2010 13:39:02 4.9 C 1.35 g/m*3 4.9 C 0 km/h
Sensor: Nr:Datum:Temp:Abs-Feuchte:Windchill:Wind:
Aussen-T/F 2226 08-03-2010 13:51:02 4.9 C 1.35 g/m*3 4.9 C 0 km/h
2227 08-03-2010 14:03:02 4.8 C 1.34 g/m*3 4.8 C 0 km/h
2228 08-03-2010 14:15:02 3.9 C 1.26 g/m*3 3.9 C 0 km/h
2229 08-03-2010 14:27:02 3.5 C 1.41 g/m*3 3.5 C 0 km/h
2230 08-03-2010 14:39:02 3.8 C 1.44 g/m*3 3.8 C 0 km/h
2231 08-03-2010 14:51:02 4.6 C 1.32 g/m*3 4.6 C 0 km/h
2232 08-03-2010 15:03:01 4.3 C 1.3 g/m*3 4.3 C 0 km/h
2233 08-03-2010 15:15:02 4.9 C 1.35 g/m*3 4.9 C 0 km/h
2234 08-03-2010 15:27:02 5.1 C 1.37 g/m*3 5.1 C 0 km/h
2235 08-03-2010 15:39:01 6.4 C 1.49 g/m*3 6.4 C 0 km/h
2236 08-03-2010 15:51:02 6.7 C 1.52 g/m*3 6.7 C 0 km/h
2237 08-03-2010 16:03:01 6.5 C 1.5 g/m*3 6.5 C 0 km/h
2238 08-03-2010 16:15:02 6.6 C 1.51 g/m*3 6.6 C 0 km/h
2239 08-03-2010 16:27:02 6.9 C 1.54 g/m*3 6.9 C 0 km/h
2240 08-03-2010 16:39:01 6.7 C 1.52 g/m*3 6.7 C 0 km/h
2241 08-03-2010 16:51:02 6.4 C 1.49 g/m*3 6.4 C 0 km/h
2242 08-03-2010 17:03:02 6.2 C 1.47 g/m*3 6.2 C 0 km/h
2243 08-03-2010 17:15:02 6.3 C 1.48 g/m*3 6.3 C 0 km/h
2244 08-03-2010 17:27:02 5.8 C 1.43 g/m*3 5.8 C 0 km/h
2245 08-03-2010 17:39:02 4.6 C 1.32 g/m*3 4.6 C 0 km/h
2246 08-03-2010 17:51:02 4.2 C 1.29 g/m*3 4.2 C 0 km/h
2247 08-03-2010 18:03:02 3.7 C 1.56 g/m*3 3.7 C 0 km/h
2248 08-03-2010 18:15:01 2.9 C 1.71 g/m*3 2.9 C 0 km/h
2249 08-03-2010 18:27:01 1.8 C 1.75 g/m*3 1.8 C 0 km/h
2250 08-03-2010 18:39:02 1.4 C 1.87 g/m*3 1.4 C 0 km/h
Sensor: Nr:Datum:Temp:Abs-Feuchte:Windchill:Wind:
Aussen-T/F 2251 08-03-2010 18:51:02 0.7 C 2.03 g/m*3 0.7 C 0 km/h
2252 08-03-2010 19:03:02 0.4 C 2.04 g/m*3 0.4 C 0 km/h
2253 08-03-2010 19:15:02 0.1 C 2.1 g/m*3 0.1 C 0 km/h
2254 08-03-2010 19:27:02 -0.2 C 2.15 g/m*3 -0.2 C 0 km/h
2255 08-03-2010 19:39:02 -0.3 C 2.04 g/m*3 -0.3 C 0 km/h
2256 08-03-2010 19:51:01 -0.3 C 1.99 g/m*3 -0.3 C 0 km/h
2257 08-03-2010 20:03:02 -0.6 C 2 g/m*3 -0.6 C 0 km/h
2258 08-03-2010 20:15:01 -0.7 C 2.08 g/m*3 -0.7 C 0 km/h
2259 08-03-2010 20:27:01 -1.1 C 2.11 g/m*3 -1.1 C 0 km/h
2260 08-03-2010 20:39:01 -1.2 C 2.1 g/m*3 -1.2 C 0 km/h
2261 08-03-2010 20:51:01 -1.4 C 2.15 g/m*3 -1.4 C 0 km/h
2262 08-03-2010 21:03:02 -1.4 C 2.15 g/m*3 -1.4 C 0 km/h
2263 08-03-2010 21:15:01 -1.5 C 2.18 g/m*3 -1.5 C 0 km/h
2264 08-03-2010 21:27:01 -1.3 C 2.26 g/m*3 -1.3 C 0 km/h
2265 08-03-2010 21:40:03 -1.3 C 2.26 g/m*3 -1.3 C 0 km/h
2266 08-03-2010 21:52:03 -1.2 C 2.32 g/m*3 -1.2 C 0 km/h
2267 08-03-2010 22:04:03 -1.2 C 2.36 g/m*3 -1.2 C 0 km/h
2268 08-03-2010 22:16:03 -1.2 C 2.32 g/m*3 -1.2 C 0 km/h
2269 08-03-2010 22:28:03 -1.1 C 2.24 g/m*3 -1.1 C 0 km/h
2270 08-03-2010 22:40:03 -0.9 C 2.09 g/m*3 -0.9 C 0 km/h
2271 08-03-2010 22:52:03 -1 C 2.08 g/m*3 -1 C 0 km/h
2272 08-03-2010 23:04:03 -1.4 C 2.07 g/m*3 -1.4 C 0 km/h
2273 08-03-2010 23:16:04 -1.8 C 2.05 g/m*3 -1.8 C 0 km/h
2274 08-03-2010 23:28:04 -1.9 C 2.04 g/m*3 -1.9 C 0 km/h
2275 08-03-2010 23:40:04 -1.9 C 2.08 g/m*3 -1.9 C 0 km/h
Sensor: Nr:Datum:Temp:Abs-Feuchte:Windchill:Wind:
Aussen-T/F 2276 08-03-2010 23:52:04 -2 C 2.11 g/m*3 -2 C 0 km/h
2277 09-03-2010 00:04:04 -2.1 C 2.13 g/m*3 -2.1 C 0 km/h
2278 09-03-2010 00:16:04 -2.2 C 2.12 g/m*3 -2.2 C 0 km/h
2279 09-03-2010 00:28:04 -2.4 C 2.09 g/m*3 -2.4 C 0 km/h
2280 09-03-2010 00:40:04 -2.4 C 2.09 g/m*3 -2.4 C 0 km/h
2281 09-03-2010 00:52:04 -2.6 C 2.14 g/m*3 -2.6 C 0 km/h
2282 09-03-2010 01:04:04 -2.8 C 2.15 g/m*3 -2.8 C 0 km/h
2283 09-03-2010 01:16:04 -3 C 2.2 g/m*3 -3 C 0 km/h
2284 09-03-2010 01:28:04 -3.1 C 2.22 g/m*3 -3.1 C 0 km/h
2285 09-03-2010 01:40:04 -3.2 C 2.21 g/m*3 -3.2 C 0 km/h
2286 09-03-2010 01:52:04 -3.3 C 2.19 g/m*3 -3.3 C 0 km/h
2287 09-03-2010 02:04:04 -3.4 C 2.18 g/m*3 -3.4 C 0 km/h
2288 09-03-2010 02:16:05 -3.4 C 2.21 g/m*3 -3.4 C 0 km/h
2289 09-03-2010 02:28:05 -3.3 C 2.23 g/m*3 -3.3 C 0 km/h
2290 09-03-2010 02:40:05 -3.3 C 2.23 g/m*3 -3.3 C 0 km/h
2291 09-03-2010 02:52:05 -3.5 C 2.24 g/m*3 -3.5 C 0 km/h
2292 09-03-2010 03:04:05 -3.7 C 2.24 g/m*3 -3.7 C 0 km/h
2293 09-03-2010 03:16:05 -3.8 C 2.23 g/m*3 -3.8 C 0 km/h
2294 09-03-2010 03:28:05 -3.9 C 2.25 g/m*3 -3.9 C 0 km/h
2295 09-03-2010 03:40:05 -4 C 2.27 g/m*3 -4 C 0 km/h
2296 09-03-2010 03:52:05 -4.1 C 2.29 g/m*3 -4.1 C 0 km/h
2297 09-03-2010 04:04:05 -4.2 C 2.27 g/m*3 -4.2 C 0 km/h
2298 09-03-2010 04:16:05 -4.3 C 2.29 g/m*3 -4.3 C 0 km/h
2299 09-03-2010 04:28:05 -4.5 C 2.22 g/m*3 -4.5 C 0 km/h
2300 09-03-2010 04:40:05 -4.5 C 2.19 g/m*3 -4.5 C 0 km/h
Sensor: Nr:Datum:Temp:Abs-Feuchte:Windchill:Wind:
Aussen-T/F 2301 09-03-2010 04:52:05 -4.5 C 2.19 g/m*3 -4.5 C 0 km/h
2302 09-03-2010 05:04:05 -4.6 C 2.17 g/m*3 -4.6 C 0 km/h
2303 09-03-2010 05:16:05 -4.7 C 2.16 g/m*3 -4.7 C 0 km/h
2304 09-03-2010 05:28:05 -4.8 C 2.14 g/m*3 -4.8 C 0 km/h
2305 09-03-2010 05:40:05 -4.9 C 2.16 g/m*3 -4.9 C 0 km/h
2306 09-03-2010 05:52:05 -4.9 C 2.16 g/m*3 -4.9 C 0 km/h
2307 09-03-2010 06:04:05 -4.8 C 2.14 g/m*3 -4.8 C 0 km/h
2308 09-03-2010 06:16:05 -4.8 C 2.14 g/m*3 -4.8 C 0 km/h
2309 09-03-2010 06:28:05 -4.9 C 2.13 g/m*3 -4.9 C 0 km/h
2310 09-03-2010 06:40:06 -5.2 C 2.08 g/m*3 -5.2 C 0 km/h
2311 09-03-2010 06:52:06 -5.3 C 2.07 g/m*3 -5.3 C 0 km/h
2312 09-03-2010 07:04:03 -5.6 C 2.05 g/m*3 -5.6 C 0 km/h
2313 09-03-2010 07:16:03 -5.6 C 2.09 g/m*3 -5.6 C 0 km/h
2314 09-03-2010 07:28:03 -5.4 C 2.15 g/m*3 -5.4 C 0 km/h
2315 09-03-2010 07:40:03 -5.3 C 2.17 g/m*3 -5.3 C 0 km/h
2316 09-03-2010 07:52:02 -5.3 C 2.17 g/m*3 -5.3 C 0 km/h
2317 09-03-2010 08:04:02 -5.2 C 2.18 g/m*3 -5.2 C 0 km/h
2318 09-03-2010 08:16:02 -5 C 2.18 g/m*3 -5 C 0 km/h
2319 09-03-2010 08:28:02 -4.9 C 2.16 g/m*3 -4.9 C 0 km/h
2320 09-03-2010 08:40:02 -4.8 C 2.14 g/m*3 -4.8 C 0 km/h
2321 09-03-2010 08:52:02 -4.7 C 2.16 g/m*3 -4.7 C 0 km/h
2322 09-03-2010 09:04:01 -4.5 C 2.19 g/m*3 -4.5 C 0 km/h
2323 09-03-2010 09:16:02 -4.2 C 2.16 g/m*3 -4.2 C 0 km/h
2324 09-03-2010 09:28:02 -3.9 C 2.17 g/m*3 -3.9 C 0 km/h
2325 09-03-2010 09:40:01 -3.4 C 2.18 g/m*3 -3.4 C 0 km/h
Sensor: Nr:Datum:Temp:Abs-Feuchte:Windchill:Wind:
Aussen-T/F 2326 09-03-2010 09:52:02 -2.7 C 2.13 g/m*3 -2.7 C 0 km/h
2327 09-03-2010 10:04:01 -2.4 C 2.09 g/m*3 -2.4 C 0 km/h
2328 09-03-2010 10:16:01 -1.9 C 2.08 g/m*3 -1.9 C 0 km/h
2329 09-03-2010 10:28:01 -1.2 C 2.05 g/m*3 -1.2 C 0 km/h
2330 09-03-2010 10:40:02 -0.7 C 1.94 g/m*3 -0.7 C 0 km/h
2331 09-03-2010 10:52:02 -0.4 C 1.84 g/m*3 -0.4 C 0 km/h
2332 09-03-2010 11:04:01 -0.1 C 1.73 g/m*3 -0.1 C 0 km/h
2333 09-03-2010 11:16:02 0.3 C 1.63 g/m*3 0.3 C 0 km/h
2334 09-03-2010 11:28:02 0.5 C 1.5 g/m*3 0.5 C 0 km/h
2335 09-03-2010 11:40:02 0.5 C 1.3 g/m*3 0.5 C 0 km/h
2336 09-03-2010 11:52:01 0.8 C 1.28 g/m*3 0.8 C 0 km/h
2337 09-03-2010 12:04:02 1 C 1.09 g/m*3 1 C 0 km/h
2338 09-03-2010 12:16:01 1.3 C 1.06 g/m*3 1.3 C 0 km/h
2339 09-03-2010 12:28:01 1.6 C 1.14 g/m*3 1.6 C 0 km/h
2340 09-03-2010 12:40:02 1.8 C 1.1 g/m*3 1.8 C 0 km/h
2341 09-03-2010 12:52:02 2.2 C 1.13 g/m*3 2.2 C 0 km/h
2342 09-03-2010 13:04:02 2.2 C 1.13 g/m*3 2.2 C 0 km/h
2343 09-03-2010 13:16:01 2.9 C 1.18 g/m*3 2.9 C 0 km/h
2344 09-03-2010 13:28:01 3.2 C 1.21 g/m*3 3.2 C 0 km/h
2345 09-03-2010 13:40:02 3.5 C 1.23 g/m*3 3.5 C 0 km/h
2346 09-03-2010 13:52:02 3.7 C 1.25 g/m*3 3.7 C 0 km/h
2347 09-03-2010 14:04:02 3.9 C 1.26 g/m*3 3.9 C 0 km/h
2348 09-03-2010 14:16:02 4.5 C 1.31 g/m*3 4.5 C 0 km/h
2349 09-03-2010 14:28:02 4.9 C 1.35 g/m*3 4.9 C 0 km/h
2350 09-03-2010 14:40:02 5.3 C 1.39 g/m*3 5.3 C 0 km/h
Sensor: Nr:Datum:Temp:Abs-Feuchte:Windchill:Wind:
Aussen-T/F 2351 09-03-2010 14:52:02 5.7 C 1.42 g/m*3 5.7 C 0 km/h
2352 09-03-2010 15:04:02 5.7 C 1.42 g/m*3 5.7 C 0 km/h
2353 09-03-2010 15:16:02 5.7 C 1.42 g/m*3 5.7 C 0 km/h
2354 09-03-2010 15:28:02 5.7 C 1.42 g/m*3 5.7 C 0 km/h
2355 09-03-2010 15:40:02 6.2 C 1.47 g/m*3 6.2 C 0 km/h
2356 09-03-2010 15:52:02 6 C 1.45 g/m*3 6 C 0 km/h
2357 09-03-2010 16:04:02 5.9 C 1.44 g/m*3 5.9 C 0 km/h
2358 09-03-2010 16:16:02 5.8 C 1.43 g/m*3 5.8 C 0 km/h
2359 09-03-2010 16:28:02 6.3 C 1.48 g/m*3 6.3 C 0 km/h
2360 09-03-2010 16:40:02 6.3 C 1.48 g/m*3 6.3 C 0 km/h
2361 09-03-2010 16:52:02 6.2 C 1.47 g/m*3 6.2 C 0 km/h
2362 09-03-2010 17:04:02 5.5 C 1.4 g/m*3 5.5 C 0 km/h
2363 09-03-2010 17:16:03 5.2 C 1.38 g/m*3 5.2 C 0 km/h
2364 09-03-2010 17:28:03 4.8 C 1.34 g/m*3 4.8 C 0 km/h
2365 09-03-2010 17:40:02 4.4 C 1.31 g/m*3 4.4 C 0 km/h
2366 09-03-2010 17:52:02 4 C 1.27 g/m*3 4 C 0 km/h
2367 09-03-2010 18:04:02 3.2 C 1.21 g/m*3 3.2 C 0 km/h
2368 09-03-2010 18:16:02 2.4 C 1.14 g/m*3 2.4 C 0 km/h
2369 09-03-2010 18:28:02 1.5 C 1.07 g/m*3 1.5 C 0 km/h
2370 09-03-2010 18:40:02 1.1 C 1.05 g/m*3 1.1 C 0 km/h
2371 09-03-2010 18:52:02 0.7 C 1.02 g/m*3 0.7 C 0 km/h
2372 09-03-2010 19:04:02 0.5 C 1 g/m*3 0.5 C 0 km/h
2373 09-03-2010 19:16:02 0.2 C 0.98 g/m*3 0.2 C 0 km/h
2374 09-03-2010 19:28:02 -0.1 C 0.96 g/m*3 -0.1 C 0 km/h
2375 09-03-2010 19:40:02 -0.3 C 0.95 g/m*3 -0.3 C 0 km/h
Sensor: Nr:Datum:Temp:Abs-Feuchte:Windchill:Wind:
Aussen-T/F 2376 09-03-2010 19:52:02 -0.6 C 0.93 g/m*3 -0.6 C 0 km/h
2377 09-03-2010 20:04:01 -0.6 C 0.93 g/m*3 -0.6 C 0 km/h
2378 09-03-2010 20:16:02 -0.8 C 0.92 g/m*3 -0.8 C 0 km/h
2379 09-03-2010 20:28:03 -1.2 C 0.89 g/m*3 -1.2 C 0 km/h
2380 09-03-2010 20:40:01 -1.4 C 0.88 g/m*3 -1.4 C 0 km/h
2381 09-03-2010 20:52:02 -1.5 C 0.92 g/m*3 -1.5 C 0 km/h
2382 09-03-2010 21:04:01 -1.7 C 0.9 g/m*3 -1.7 C 0 km/h
2383 09-03-2010 21:16:02 -1.7 C 0.86 g/m*3 -1.7 C 0 km/h
2384 09-03-2010 21:28:02 -1.9 C 0.85 g/m*3 -1.9 C 0 km/h
2385 09-03-2010 21:40:02 -1.8 C 0.85 g/m*3 -1.8 C 0 km/h
2386 09-03-2010 21:52:02 -1.9 C 0.85 g/m*3 -1.9 C 0 km/h
2387 09-03-2010 22:04:02 -1.8 C 0.85 g/m*3 -1.8 C 0 km/h
2388 09-03-2010 22:16:02 -1.7 C 0.86 g/m*3 -1.7 C 0 km/h
2389 09-03-2010 22:28:02 -1.7 C 0.86 g/m*3 -1.7 C 0 km/h
2390 09-03-2010 22:40:02 -1.8 C 0.85 g/m*3 -1.8 C 0 km/h
2391 09-03-2010 22:52:02 -1.8 C 0.9 g/m*3 -1.8 C 0 km/h
2392 09-03-2010 23:05:02 -2 C 1.1 g/m*3 -2 C 0 km/h
2393 09-03-2010 23:17:02 -2.3 C 1.24 g/m*3 -2.3 C 0 km/h
2394 09-03-2010 23:29:02 -2.4 C 1.27 g/m*3 -2.4 C 0 km/h
2395 09-03-2010 23:41:02 -2.5 C 1.34 g/m*3 -2.5 C 0 km/h
2396 09-03-2010 23:53:02 -2.6 C 1.41 g/m*3 -2.6 C 0 km/h
2397 10-03-2010 00:05:02 -2.7 C 1.48 g/m*3 -2.7 C 0 km/h
2398 10-03-2010 00:17:02 -2.8 C 1.55 g/m*3 -2.8 C 0 km/h
2399 10-03-2010 00:29:02 -2.7 C 1.56 g/m*3 -2.7 C 0 km/h
2400 10-03-2010 00:41:02 -2.6 C 1.58 g/m*3 -2.6 C 0 km/h
Sensor: Nr:Datum:Temp:Abs-Feuchte:Windchill:Wind:
Aussen-T/F 2401 10-03-2010 00:53:02 -2.7 C 1.6 g/m*3 -2.7 C 0 km/h
2402 10-03-2010 01:05:03 -3 C 1.65 g/m*3 -3 C 0 km/h
2403 10-03-2010 01:17:03 -3.1 C 1.68 g/m*3 -3.1 C 0 km/h
2404 10-03-2010 01:29:03 -3.2 C 1.7 g/m*3 -3.2 C 0 km/h
2405 10-03-2010 01:41:03 -3 C 1.73 g/m*3 -3 C 0 km/h
2406 10-03-2010 01:53:03 -3.4 C 1.72 g/m*3 -3.4 C 0 km/h
2407 10-03-2010 02:05:03 -3.4 C 1.76 g/m*3 -3.4 C 0 km/h
2408 10-03-2010 02:17:03 -3.5 C 1.74 g/m*3 -3.5 C 0 km/h
2409 10-03-2010 02:29:03 -3.6 C 1.77 g/m*3 -3.6 C 0 km/h
2410 10-03-2010 02:41:03 -3.8 C 1.78 g/m*3 -3.8 C 0 km/h
2411 10-03-2010 02:53:03 -3.8 C 1.78 g/m*3 -3.8 C 0 km/h
2412 10-03-2010 03:05:03 -3.8 C 1.78 g/m*3 -3.8 C 0 km/h
2413 10-03-2010 03:17:03 -3.8 C 1.82 g/m*3 -3.8 C 0 km/h
2414 10-03-2010 03:29:03 -3.9 C 1.81 g/m*3 -3.9 C 0 km/h
2415 10-03-2010 03:41:03 -3.9 C 1.77 g/m*3 -3.9 C 0 km/h
2416 10-03-2010 03:53:03 -3.9 C 1.77 g/m*3 -3.9 C 0 km/h
2417 10-03-2010 04:05:03 -3.6 C 1.81 g/m*3 -3.6 C 0 km/h
2418 10-03-2010 04:17:03 -3.5 C 1.78 g/m*3 -3.5 C 0 km/h
2419 10-03-2010 04:29:03 -3.5 C 1.74 g/m*3 -3.5 C 0 km/h
2420 10-03-2010 04:41:03 -3.5 C 1.74 g/m*3 -3.5 C 0 km/h
2421 10-03-2010 04:53:03 -3.5 C 1.71 g/m*3 -3.5 C 0 km/h
2422 10-03-2010 05:05:03 -3.6 C 1.69 g/m*3 -3.6 C 0 km/h
2423 10-03-2010 05:17:03 -3.5 C 1.71 g/m*3 -3.5 C 0 km/h
2424 10-03-2010 05:29:04 -3.5 C 1.71 g/m*3 -3.5 C 0 km/h
2425 10-03-2010 05:41:04 -3.5 C 1.71 g/m*3 -3.5 C 0 km/h
Sensor: Nr:Datum:Temp:Abs-Feuchte:Windchill:Wind:
Aussen-T/F 2426 10-03-2010 05:53:04 -3.4 C 1.68 g/m*3 -3.4 C 0 km/h
2427 10-03-2010 06:05:04 -3.6 C 1.66 g/m*3 -3.6 C 0 km/h
2428 10-03-2010 06:17:04 -3.6 C 1.69 g/m*3 -3.6 C 0 km/h
2429 10-03-2010 06:29:04 -3.9 C 1.69 g/m*3 -3.9 C 0 km/h
2430 10-03-2010 06:41:04 -3.8 C 1.67 g/m*3 -3.8 C 0 km/h
2431 10-03-2010 06:53:04 -3.7 C 1.68 g/m*3 -3.7 C 0 km/h
2432 10-03-2010 07:05:02 -3.7 C 1.68 g/m*3 -3.7 C 0 km/h
2433 10-03-2010 07:17:02 -3.6 C 1.69 g/m*3 -3.6 C 0 km/h
2434 10-03-2010 07:29:02 -3.6 C 1.69 g/m*3 -3.6 C 0 km/h
2435 10-03-2010 07:41:02 -3.4 C 1.72 g/m*3 -3.4 C 0 km/h
2436 10-03-2010 07:53:02 -3 C 1.69 g/m*3 -3 C 0 km/h
2437 10-03-2010 08:05:02 -2.7 C 1.69 g/m*3 -2.7 C 0 km/h
2438 10-03-2010 08:17:02 -2.5 C 1.67 g/m*3 -2.5 C 0 km/h
2439 10-03-2010 08:29:02 -2.1 C 1.67 g/m*3 -2.1 C 0 km/h
2440 10-03-2010 08:41:02 -1.8 C 1.62 g/m*3 -1.8 C 0 km/h
2441 10-03-2010 08:53:02 -1.3 C 1.51 g/m*3 -1.3 C 0 km/h
2442 10-03-2010 09:05:02 -1 C 1.4 g/m*3 -1 C 0 km/h
2443 10-03-2010 09:17:02 -0.8 C 1.38 g/m*3 -0.8 C 0 km/h
2444 10-03-2010 09:29:02 -0.4 C 1.23 g/m*3 -0.4 C 0 km/h
2445 10-03-2010 09:41:01 -0.1 C 1.2 g/m*3 -0.1 C 0 km/h
2446 10-03-2010 09:53:01 0.5 C 1 g/m*3 0.5 C 0 km/h
2447 10-03-2010 10:05:01 1.1 C 1.05 g/m*3 1.1 C 0 km/h
2448 10-03-2010 10:17:02 1.4 C 1.07 g/m*3 1.4 C 0 km/h
2449 10-03-2010 10:29:02 1.8 C 1.1 g/m*3 1.8 C 0 km/h
2450 10-03-2010 10:41:01 2.3 C 1.13 g/m*3 2.3 C 0 km/h
Sensor: Nr:Datum:Temp:Abs-Feuchte:Windchill:Wind:
Aussen-T/F 2451 10-03-2010 10:53:02 2.8 C 1.17 g/m*3 2.8 C 0 km/h
2452 10-03-2010 11:05:01 3.3 C 1.21 g/m*3 3.3 C 0 km/h
2453 10-03-2010 11:17:02 3.6 C 1.24 g/m*3 3.6 C 0 km/h
2454 10-03-2010 11:29:02 3.9 C 1.26 g/m*3 3.9 C 0 km/h
2455 10-03-2010 11:41:01 4.1 C 1.28 g/m*3 4.1 C 0 km/h
2456 10-03-2010 11:53:02 4.3 C 1.62 g/m*3 4.3 C 0 km/h
2457 10-03-2010 12:05:02 4.6 C 1.52 g/m*3 4.6 C 0 km/h
2458 10-03-2010 12:17:02 5.1 C 1.57 g/m*3 5.1 C 0 km/h
2459 10-03-2010 12:29:02 5.7 C 1.49 g/m*3 5.7 C 0 km/h
2460 10-03-2010 12:41:01 6.1 C 1.46 g/m*3 6.1 C 0 km/h
2461 10-03-2010 12:53:02 6.5 C 1.5 g/m*3 6.5 C 0 km/h
2462 10-03-2010 13:05:01 6.6 C 1.51 g/m*3 6.6 C 0 km/h
2463 10-03-2010 13:17:01 7 C 1.55 g/m*3 7 C 0 km/h
2464 10-03-2010 13:29:01 7.4 C 1.59 g/m*3 7.4 C 0 km/h
2465 10-03-2010 13:41:02 7.6 C 1.61 g/m*3 7.6 C 0 km/h
2466 10-03-2010 13:53:02 8 C 1.65 g/m*3 8 C 0 km/h
2467 10-03-2010 14:05:02 8.2 C 1.67 g/m*3 8.2 C 0 km/h
2468 10-03-2010 14:17:02 8.2 C 1.67 g/m*3 8.2 C 0 km/h
2469 10-03-2010 14:29:02 8.3 C 1.69 g/m*3 8.3 C 0 km/h
2470 10-03-2010 14:41:02 8.5 C 1.71 g/m*3 8.5 C 0 km/h
2471 10-03-2010 14:53:02 8.2 C 1.67 g/m*3 8.2 C 0 km/h
2472 10-03-2010 15:05:03 8.7 C 1.73 g/m*3 8.7 C 0 km/h
2473 10-03-2010 15:17:02 9.3 C 1.8 g/m*3 9.3 C 0 km/h
2474 10-03-2010 15:29:02 8.7 C 1.73 g/m*3 8.7 C 0 km/h
2475 10-03-2010 15:41:02 8.4 C 1.7 g/m*3 8.4 C 0 km/h
Sensor: Nr:Datum:Temp:Abs-Feuchte:Windchill:Wind:
Aussen-T/F 2476 10-03-2010 15:53:01 8.8 C 1.74 g/m*3 8.8 C 0 km/h
2477 10-03-2010 16:05:02 8.7 C 1.73 g/m*3 8.7 C 0 km/h
2478 10-03-2010 16:17:01 8.3 C 1.69 g/m*3 8.3 C 0 km/h
2479 10-03-2010 16:29:01 7.8 C 1.63 g/m*3 7.8 C 0 km/h
2480 10-03-2010 16:41:01 7.4 C 1.59 g/m*3 7.4 C 0 km/h
2481 10-03-2010 16:53:01 7.1 C 1.56 g/m*3 7.1 C 0 km/h
2482 10-03-2010 17:05:02 6.8 C 1.53 g/m*3 6.8 C 0 km/h
2483 10-03-2010 17:17:02 6.5 C 1.5 g/m*3 6.5 C 0 km/h
2484 10-03-2010 17:29:02 6.2 C 1.47 g/m*3 6.2 C 0 km/h
2485 10-03-2010 17:41:01 6.1 C 1.46 g/m*3 6.1 C 0 km/h
2486 10-03-2010 17:53:01 5.7 C 1.42 g/m*3 5.7 C 0 km/h
2487 10-03-2010 18:05:01 5.4 C 1.4 g/m*3 5.4 C 0 km/h
2488 10-03-2010 18:17:02 5 C 1.36 g/m*3 5 C 0 km/h
2489 10-03-2010 18:29:02 4.4 C 1.5 g/m*3 4.4 C 0 km/h
2490 10-03-2010 18:41:01 4 C 1.78 g/m*3 4 C 0 km/h
2491 10-03-2010 18:53:02 3.7 C 1.93 g/m*3 3.7 C 0 km/h
2492 10-03-2010 19:05:01 3.7 C 1.81 g/m*3 3.7 C 0 km/h
2493 10-03-2010 19:17:02 3.5 C 1.72 g/m*3 3.5 C 0 km/h
2494 10-03-2010 19:29:02 3.3 C 1.7 g/m*3 3.3 C 0 km/h
2495 10-03-2010 19:41:01 2.9 C 1.89 g/m*3 2.9 C 0 km/h
2496 10-03-2010 19:53:03 2.7 C 1.81 g/m*3 2.7 C 0 km/h
2497 10-03-2010 20:05:02 2.7 C 1.81 g/m*3 2.7 C 0 km/h
2498 10-03-2010 20:17:02 2.5 C 1.78 g/m*3 2.5 C 0 km/h
2499 10-03-2010 20:29:02 2.4 C 1.83 g/m*3 2.4 C 0 km/h
2500 10-03-2010 20:41:02 2.3 C 1.76 g/m*3 2.3 C 0 km/h
Sensor: Nr:Datum:Temp:Abs-Feuchte:Windchill:Wind:
Aussen-T/F 2501 10-03-2010 20:53:02 2.2 C 1.8 g/m*3 2.2 C 0 km/h
2502 10-03-2010 21:05:01 2.2 C 1.75 g/m*3 2.2 C 0 km/h
2503 10-03-2010 21:18:02 2.1 C 1.73 g/m*3 2.1 C 0 km/h
2504 10-03-2010 21:30:02 1.9 C 1.93 g/m*3 1.9 C 0 km/h
2505 10-03-2010 21:42:02 1.8 C 1.92 g/m*3 1.8 C 0 km/h
2506 10-03-2010 21:54:02 1.7 C 1.96 g/m*3 1.7 C 0 km/h
2507 10-03-2010 22:06:02 1.5 C 1.99 g/m*3 1.5 C 0 km/h
2508 10-03-2010 22:18:02 1.5 C 1.99 g/m*3 1.5 C 0 km/h
2509 10-03-2010 22:30:02 1.4 C 2.03 g/m*3 1.4 C 0 km/h
2510 10-03-2010 22:42:02 1.4 C 2.03 g/m*3 1.4 C 0 km/h
2511 10-03-2010 22:54:02 1.4 C 2.08 g/m*3 1.4 C 0 km/h
2512 10-03-2010 23:06:02 1.1 C 2.09 g/m*3 1.1 C 0 km/h
2513 10-03-2010 23:18:02 0.8 C 2.15 g/m*3 0.8 C 0 km/h
2514 10-03-2010 23:30:02 0.6 C 2.22 g/m*3 0.6 C 0 km/h
2515 10-03-2010 23:42:02 0.4 C 2.24 g/m*3 0.4 C 0 km/h
2516 10-03-2010 23:54:02 0.2 C 2.26 g/m*3 0.2 C 0 km/h
2517 11-03-2010 00:06:02 0 C 2.33 g/m*3 0 C 0 km/h
2518 11-03-2010 00:18:02 0 C 2.33 g/m*3 0 C 0 km/h
2519 11-03-2010 00:30:02 -0.2 C 2.29 g/m*3 -0.2 C 0 km/h
2520 11-03-2010 00:42:02 -0.2 C 2.29 g/m*3 -0.2 C 0 km/h
2521 11-03-2010 00:54:02 -0.2 C 2.29 g/m*3 -0.2 C 0 km/h
2522 11-03-2010 01:06:02 -0.3 C 2.28 g/m*3 -0.3 C 0 km/h
2523 11-03-2010 01:18:03 -0.5 C 2.25 g/m*3 -0.5 C 0 km/h
2524 11-03-2010 01:30:03 -0.9 C 2.28 g/m*3 -0.9 C 0 km/h
2525 11-03-2010 01:42:03 -0.9 C 2.37 g/m*3 -0.9 C 0 km/h
Sensor: Nr:Datum:Temp:Abs-Feuchte:Windchill:Wind:
Aussen-T/F 2526 11-03-2010 01:54:03 -1.1 C 2.29 g/m*3 -1.1 C 0 km/h
2527 11-03-2010 02:06:03 -1 C 2.31 g/m*3 -1 C 0 km/h
2528 11-03-2010 02:18:03 -1.1 C 2.29 g/m*3 -1.1 C 0 km/h
2529 11-03-2010 02:30:03 -1.3 C 2.3 g/m*3 -1.3 C 0 km/h
2530 11-03-2010 02:42:03 -1.3 C 2.3 g/m*3 -1.3 C 0 km/h
2531 11-03-2010 02:54:03 -1.4 C 2.33 g/m*3 -1.4 C 0 km/h
2532 11-03-2010 03:06:03 -1.5 C 2.31 g/m*3 -1.5 C 0 km/h
2533 11-03-2010 03:18:03 -1.5 C 2.36 g/m*3 -1.5 C 0 km/h
2534 11-03-2010 03:30:03 -1.7 C 2.32 g/m*3 -1.7 C 0 km/h
2535 11-03-2010 03:42:03 -1.8 C 2.31 g/m*3 -1.8 C 0 km/h
2536 11-03-2010 03:54:03 -1.9 C 2.29 g/m*3 -1.9 C 0 km/h
2537 11-03-2010 04:06:03 -2 C 2.32 g/m*3 -2 C 0 km/h
2538 11-03-2010 04:18:03 -2 C 2.32 g/m*3 -2 C 0 km/h
2539 11-03-2010 04:30:03 -2.1 C 2.3 g/m*3 -2.1 C 0 km/h
2540 11-03-2010 04:42:03 -2.2 C 2.29 g/m*3 -2.2 C 0 km/h
2541 11-03-2010 04:54:03 -2.3 C 2.31 g/m*3 -2.3 C 0 km/h
2542 11-03-2010 05:06:03 -2.6 C 2.26 g/m*3 -2.6 C 0 km/h
2543 11-03-2010 05:18:03 -3 C 2.2 g/m*3 -3 C 0 km/h
2544 11-03-2010 05:30:04 -3 C 2.32 g/m*3 -3 C 0 km/h
2545 11-03-2010 05:42:04 -3 C 2.4 g/m*3 -3 C 0 km/h
2546 11-03-2010 05:54:04 -2.8 C 2.39 g/m*3 -2.8 C 0 km/h
2547 11-03-2010 06:06:04 -2.7 C 2.37 g/m*3 -2.7 C 0 km/h
2548 11-03-2010 06:18:04 -2.8 C 2.35 g/m*3 -2.8 C 0 km/h
2549 11-03-2010 06:30:04 -2.8 C 2.39 g/m*3 -2.8 C 0 km/h
2550 11-03-2010 06:42:04 -2.8 C 2.39 g/m*3 -2.8 C 0 km/h
Sensor: Nr:Datum:Temp:Abs-Feuchte:Windchill:Wind:
Aussen-T/F 2551 11-03-2010 06:54:04 -2.8 C 2.43 g/m*3 -2.8 C 0 km/h
2552 11-03-2010 07:06:02 -2.9 C 2.45 g/m*3 -2.9 C 0 km/h
2553 11-03-2010 07:18:01 -3 C 2.44 g/m*3 -3 C 0 km/h
2554 11-03-2010 07:30:01 -3 C 2.47 g/m*3 -3 C 0 km/h
2555 11-03-2010 07:42:02 -2.9 C 2.49 g/m*3 -2.9 C 0 km/h
2556 11-03-2010 07:54:01 -2.7 C 2.53 g/m*3 -2.7 C 0 km/h
2557 11-03-2010 08:06:02 -2.4 C 2.58 g/m*3 -2.4 C 0 km/h
2558 11-03-2010 08:18:02 -2.1 C 2.55 g/m*3 -2.1 C 0 km/h
2559 11-03-2010 08:30:02 -1.8 C 2.52 g/m*3 -1.8 C 0 km/h
2560 11-03-2010 08:42:01 -1.3 C 2.52 g/m*3 -1.3 C 0 km/h
2561 11-03-2010 08:54:02 -0.9 C 2.55 g/m*3 -0.9 C 0 km/h
2562 11-03-2010 09:06:01 -0.7 C 2.54 g/m*3 -0.7 C 0 km/h
2563 11-03-2010 09:18:02 -0.4 C 2.45 g/m*3 -0.4 C 0 km/h
2564 11-03-2010 09:30:03 -0.3 C 2.42 g/m*3 -0.3 C 0 km/h
2565 11-03-2010 09:42:01 -0.2 C 2.39 g/m*3 -0.2 C 0 km/h
2566 11-03-2010 09:54:02 -0.2 C 2.29 g/m*3 -0.2 C 0 km/h
2567 11-03-2010 10:06:02 0.1 C 2.34 g/m*3 0.1 C 0 km/h
2568 11-03-2010 10:18:02 0.2 C 2.36 g/m*3 0.2 C 0 km/h
2569 11-03-2010 10:30:02 0.2 C 2.31 g/m*3 0.2 C 0 km/h
2570 11-03-2010 10:42:03 0.4 C 2.39 g/m*3 0.4 C 0 km/h
2571 11-03-2010 10:54:02 0.9 C 2.42 g/m*3 0.9 C 0 km/h
2572 11-03-2010 11:06:01 1.1 C 2.35 g/m*3 1.1 C 0 km/h
2573 11-03-2010 11:18:02 1.4 C 2.35 g/m*3 1.4 C 0 km/h
2574 11-03-2010 11:30:02 1.6 C 2.27 g/m*3 1.6 C 0 km/h
2575 11-03-2010 11:42:02 1.9 C 2.26 g/m*3 1.9 C 0 km/h
Sensor: Nr:Datum:Temp:Abs-Feuchte:Windchill:Wind:
Aussen-T/F 2576 11-03-2010 11:54:02 2 C 2.17 g/m*3 2 C 0 km/h
2577 11-03-2010 12:06:03 2.2 C 2.2 g/m*3 2.2 C 0 km/h
2578 11-03-2010 12:18:02 2.7 C 2.21 g/m*3 2.7 C 0 km/h
2579 11-03-2010 12:30:02 3.1 C 2.04 g/m*3 3.1 C 0 km/h
2580 11-03-2010 12:42:02 3.6 C 1.98 g/m*3 3.6 C 0 km/h
2581 11-03-2010 12:54:02 4 C 1.91 g/m*3 4 C 0 km/h
2582 11-03-2010 13:06:02 4.5 C 1.84 g/m*3 4.5 C 0 km/h
2583 11-03-2010 13:18:01 4.8 C 1.68 g/m*3 4.8 C 0 km/h
2584 11-03-2010 13:30:01 5.1 C 1.78 g/m*3 5.1 C 0 km/h
2585 11-03-2010 13:42:02 5.9 C 1.87 g/m*3 5.9 C 0 km/h
2586 11-03-2010 13:54:02 5.6 C 1.84 g/m*3 5.6 C 0 km/h
2587 11-03-2010 14:06:02 6.1 C 1.9 g/m*3 6.1 C 0 km/h
2588 11-03-2010 14:18:01 6.5 C 1.95 g/m*3 6.5 C 0 km/h
2589 11-03-2010 14:30:01 6.2 C 2.13 g/m*3 6.2 C 0 km/h
2590 11-03-2010 14:42:02 6.6 C 2.04 g/m*3 6.6 C 0 km/h
2591 11-03-2010 14:54:02 6.3 C 2.07 g/m*3 6.3 C 0 km/h
2592 11-03-2010 15:06:02 5.7 C 2.35 g/m*3 5.7 C 0 km/h
2593 11-03-2010 15:18:01 5.9 C 2.45 g/m*3 5.9 C 0 km/h
2594 11-03-2010 15:30:01 4.9 C 2.57 g/m*3 4.9 C 0 km/h
2595 11-03-2010 15:42:02 4.6 C 2.65 g/m*3 4.6 C 0 km/h
2596 11-03-2010 15:54:02 4.8 C 2.68 g/m*3 4.8 C 0 km/h
2597 11-03-2010 16:06:02 4.7 C 2.66 g/m*3 4.7 C 0 km/h
2598 11-03-2010 16:18:02 4.8 C 2.68 g/m*3 4.8 C 0 km/h
2599 11-03-2010 16:30:02 4.3 C 2.66 g/m*3 4.3 C 0 km/h
2600 11-03-2010 16:42:02 4.2 C 2.71 g/m*3 4.2 C 0 km/h
Sensor: Nr:Datum:Temp:Abs-Feuchte:Windchill:Wind:
Aussen-T/F 2601 11-03-2010 16:54:02 4 C 2.67 g/m*3 4 C 0 km/h
2602 11-03-2010 17:06:02 3.9 C 2.78 g/m*3 3.9 C 0 km/h
2603 11-03-2010 17:18:02 3.6 C 2.79 g/m*3 3.6 C 0 km/h
2604 11-03-2010 17:30:02 3.1 C 2.75 g/m*3 3.1 C 0 km/h
2605 11-03-2010 17:42:04 2.8 C 2.82 g/m*3 2.8 C 0 km/h
2606 11-03-2010 17:54:02 2.2 C 2.76 g/m*3 2.2 C 0 km/h
2607 11-03-2010 18:06:01 2 C 2.78 g/m*3 2 C 0 km/h
2608 11-03-2010 18:18:02 1.6 C 2.87 g/m*3 1.6 C 0 km/h
2609 11-03-2010 18:30:02 1.2 C 2.84 g/m*3 1.2 C 0 km/h
2610 11-03-2010 18:42:02 0.9 C 2.89 g/m*3 0.9 C 0 km/h
2611 11-03-2010 18:54:02 0.7 C 2.9 g/m*3 0.7 C 0 km/h
2612 11-03-2010 19:06:02 0.4 C 2.89 g/m*3 0.4 C 0 km/h
2613 11-03-2010 19:18:02 0.3 C 2.92 g/m*3 0.3 C 0 km/h
2614 11-03-2010 19:30:02 0.3 C 2.97 g/m*3 0.3 C 0 km/h
2615 11-03-2010 19:42:02 0.1 C 2.93 g/m*3 0.1 C 0 km/h
2616 11-03-2010 19:54:02 0 C 2.91 g/m*3 0 C 0 km/h
2617 11-03-2010 20:06:02 -0.1 C 2.89 g/m*3 -0.1 C 0 km/h
2618 11-03-2010 20:18:02 -0.2 C 2.91 g/m*3 -0.2 C 0 km/h
2619 11-03-2010 20:30:02 -0.4 C 2.92 g/m*3 -0.4 C 0 km/h
2620 11-03-2010 20:42:02 -0.4 C 2.97 g/m*3 -0.4 C 0 km/h
2621 11-03-2010 20:54:01 -0.6 C 2.97 g/m*3 -0.6 C 0 km/h
2622 11-03-2010 21:07:04 -0.8 C 2.93 g/m*3 -0.8 C 0 km/h
2623 11-03-2010 21:19:04 -0.8 C 2.98 g/m*3 -0.8 C 0 km/h
2624 11-03-2010 21:31:04 -0.9 C 2.96 g/m*3 -0.9 C 0 km/h
2625 11-03-2010 21:43:05 -1.1 C 2.96 g/m*3 -1.1 C 0 km/h
Sensor: Nr:Datum:Temp:Abs-Feuchte:Windchill:Wind:
Aussen-T/F 2626 11-03-2010 21:55:05 -1.1 C 2.96 g/m*3 -1.1 C 0 km/h
2627 11-03-2010 22:07:05 -1.2 C 3.03 g/m*3 -1.2 C 0 km/h
2628 11-03-2010 22:19:05 -1.3 C 3.01 g/m*3 -1.3 C 0 km/h
2629 11-03-2010 22:31:05 -1.2 C 3.08 g/m*3 -1.2 C 0 km/h
2630 11-03-2010 22:43:05 -1.4 C 3.03 g/m*3 -1.4 C 0 km/h
2631 11-03-2010 22:55:05 -1.5 C 3.06 g/m*3 -1.5 C 0 km/h
2632 11-03-2010 23:07:05 -1.7 C 3.01 g/m*3 -1.7 C 0 km/h
2633 11-03-2010 23:19:05 -1.9 C 2.97 g/m*3 -1.9 C 0 km/h
2634 11-03-2010 23:31:05 -2 C 2.99 g/m*3 -2 C 0 km/h
2635 11-03-2010 23:43:05 -2.2 C 2.95 g/m*3 -2.2 C 0 km/h
2636 11-03-2010 23:55:05 -2.5 C 2.89 g/m*3 -2.5 C 0 km/h
2637 12-03-2010 00:07:05 -2.6 C 2.87 g/m*3 -2.6 C 0 km/h
2638 12-03-2010 00:19:05 -2.6 C 2.87 g/m*3 -2.6 C 0 km/h
2639 12-03-2010 00:31:05 -2.7 C 2.89 g/m*3 -2.7 C 0 km/h
2640 12-03-2010 00:43:05 -2.7 C 2.89 g/m*3 -2.7 C 0 km/h
2641 12-03-2010 00:55:05 -2.3 C 2.97 g/m*3 -2.3 C 0 km/h
2642 12-03-2010 01:07:05 -1.9 C 3.06 g/m*3 -1.9 C 0 km/h
2643 12-03-2010 01:19:05 -1.6 C 3.08 g/m*3 -1.6 C 0 km/h
2644 12-03-2010 01:31:05 -1.5 C 3.06 g/m*3 -1.5 C 0 km/h
2645 12-03-2010 01:43:05 -1.3 C 3.1 g/m*3 -1.3 C 0 km/h
2646 12-03-2010 01:55:06 -1.4 C 3.03 g/m*3 -1.4 C 0 km/h
2647 12-03-2010 02:07:06 -1.4 C 3.03 g/m*3 -1.4 C 0 km/h
2648 12-03-2010 02:19:06 -1.3 C 3.1 g/m*3 -1.3 C 0 km/h
2649 12-03-2010 02:31:06 -1.3 C 3.1 g/m*3 -1.3 C 0 km/h
2650 12-03-2010 02:43:06 -1.3 C 3.1 g/m*3 -1.3 C 0 km/h
Sensor: Nr:Datum:Temp:Abs-Feuchte:Windchill:Wind:
Aussen-T/F 2651 12-03-2010 02:55:06 -1.3 C 3.1 g/m*3 -1.3 C 0 km/h
2652 12-03-2010 03:07:06 -1.2 C 3.12 g/m*3 -1.2 C 0 km/h
2653 12-03-2010 03:19:06 -1.3 C 3.1 g/m*3 -1.3 C 0 km/h
2654 12-03-2010 03:31:06 -1.3 C 3.1 g/m*3 -1.3 C 0 km/h
2655 12-03-2010 03:43:06 -1.3 C 3.14 g/m*3 -1.3 C 0 km/h
2656 12-03-2010 03:55:06 -1.2 C 3.17 g/m*3 -1.2 C 0 km/h
2657 12-03-2010 04:07:06 -1.3 C 3.14 g/m*3 -1.3 C 0 km/h
2658 12-03-2010 04:19:06 -1.3 C 3.14 g/m*3 -1.3 C 0 km/h
2659 12-03-2010 04:31:06 -1.3 C 3.14 g/m*3 -1.3 C 0 km/h
2660 12-03-2010 04:43:06 -1.3 C 3.14 g/m*3 -1.3 C 0 km/h
2661 12-03-2010 04:55:06 -1.3 C 3.14 g/m*3 -1.3 C 0 km/h
2662 12-03-2010 05:07:06 -1.2 C 3.17 g/m*3 -1.2 C 0 km/h
2663 12-03-2010 05:19:06 -1.2 C 3.21 g/m*3 -1.2 C 0 km/h
2664 12-03-2010 05:31:06 -1.2 C 3.21 g/m*3 -1.2 C 0 km/h
2665 12-03-2010 05:43:06 -1.1 C 3.23 g/m*3 -1.1 C 0 km/h
2666 12-03-2010 05:55:06 -1.1 C 3.23 g/m*3 -1.1 C 0 km/h
2667 12-03-2010 06:07:07 -1.1 C 3.28 g/m*3 -1.1 C 0 km/h
2668 12-03-2010 06:19:07 -1.1 C 3.28 g/m*3 -1.1 C 0 km/h
2669 12-03-2010 06:31:07 -0.9 C 3.32 g/m*3 -0.9 C 0 km/h
2670 12-03-2010 06:43:07 -0.9 C 3.32 g/m*3 -0.9 C 0 km/h
2671 12-03-2010 06:55:07 -0.9 C 3.37 g/m*3 -0.9 C 0 km/h
2672 12-03-2010 07:07:03 -0.9 C 3.41 g/m*3 -0.9 C 0 km/h
2673 12-03-2010 07:19:04 -0.9 C 3.46 g/m*3 -0.9 C 0 km/h
2674 12-03-2010 07:31:03 -0.9 C 3.51 g/m*3 -0.9 C 0 km/h
2675 12-03-2010 07:43:03 -0.9 C 3.55 g/m*3 -0.9 C 0 km/h
Sensor: Nr:Datum:Temp:Abs-Feuchte:Windchill:Wind:
Aussen-T/F 2676 12-03-2010 07:55:01 -0.9 C 3.6 g/m*3 -0.9 C 0 km/h
2677 12-03-2010 08:07:02 -0.7 C 3.69 g/m*3 -0.7 C 0 km/h
2678 12-03-2010 08:19:02 -0.7 C 3.69 g/m*3 -0.7 C 0 km/h
2679 12-03-2010 08:31:01 -0.5 C 3.74 g/m*3 -0.5 C 0 km/h
2680 12-03-2010 08:43:01 -0.4 C 3.77 g/m*3 -0.4 C 0 km/h
2681 12-03-2010 08:55:03 -0.4 C 3.82 g/m*3 -0.4 C 0 km/h
2682 12-03-2010 09:07:02 -0.3 C 3.89 g/m*3 -0.3 C 0 km/h
2683 12-03-2010 09:19:02 -0.2 C 3.92 g/m*3 -0.2 C 0 km/h
2684 12-03-2010 09:31:03 0 C 4.02 g/m*3 0 C 0 km/h
2685 12-03-2010 09:43:03 0.1 C 4.05 g/m*3 0.1 C 0 km/h
2686 12-03-2010 09:55:02 0.3 C 4.06 g/m*3 0.3 C 0 km/h
2687 12-03-2010 10:07:01 0.4 C 4.08 g/m*3 0.4 C 0 km/h
2688 12-03-2010 10:19:02 0.7 C 4.12 g/m*3 0.7 C 0 km/h
2689 12-03-2010 10:31:02 0.9 C 4.12 g/m*3 0.9 C 0 km/h
2690 12-03-2010 10:43:02 1.3 C 4.13 g/m*3 1.3 C 0 km/h
2691 12-03-2010 10:55:02 1.5 C 4.14 g/m*3 1.5 C 0 km/h
2692 12-03-2010 11:07:03 1.8 C 4.11 g/m*3 1.8 C 0 km/h
2693 12-03-2010 11:19:02 2.1 C 4.08 g/m*3 2.1 C 0 km/h
2694 12-03-2010 11:31:02 2.2 C 4.06 g/m*3 2.2 C 0 km/h
2695 12-03-2010 11:43:03 2.6 C 4.17 g/m*3 2.6 C 0 km/h
2696 12-03-2010 11:55:01 2.7 C 4.2 g/m*3 2.7 C 0 km/h
2697 12-03-2010 12:07:02 2.8 C 4.16 g/m*3 2.8 C 0 km/h
2698 12-03-2010 12:19:01 3.1 C 4.19 g/m*3 3.1 C 0 km/h
2699 12-03-2010 12:31:01 3.4 C 4.28 g/m*3 3.4 C 0 km/h
2700 12-03-2010 12:43:01 3.8 C 4.27 g/m*3 3.8 C 0 km/h
Sensor: Nr:Datum:Temp:Abs-Feuchte:Windchill:Wind:
Aussen-T/F 2701 12-03-2010 12:55:01 3.9 C 4.29 g/m*3 3.9 C 0 km/h
2702 12-03-2010 13:07:02 4.4 C 4.31 g/m*3 4.4 C 0 km/h
2703 12-03-2010 13:19:01 4.4 C 4.24 g/m*3 4.4 C 0 km/h
2704 12-03-2010 13:31:02 4.6 C 4.3 g/m*3 4.6 C 0 km/h
2705 12-03-2010 13:43:02 5 C 4.14 g/m*3 5 C 0 km/h
2706 12-03-2010 13:55:01 5.2 C 4.27 g/m*3 5.2 C 0 km/h
2707 12-03-2010 14:07:02 4.8 C 4.16 g/m*3 4.8 C 0 km/h
2708 12-03-2010 14:19:02 5 C 4.08 g/m*3 5 C 0 km/h
2709 12-03-2010 14:31:01 5.1 C 4.1 g/m*3 5.1 C 0 km/h
2710 12-03-2010 14:43:01 5.4 C 4.12 g/m*3 5.4 C 0 km/h
2711 12-03-2010 14:55:01 6.1 C 4.09 g/m*3 6.1 C 0 km/h
2712 12-03-2010 15:07:02 7.1 C 4.29 g/m*3 7.1 C 0 km/h
2713 12-03-2010 15:19:02 6.9 C 3.85 g/m*3 6.9 C 0 km/h
2714 12-03-2010 15:31:01 7.4 C 4.06 g/m*3 7.4 C 0 km/h
2715 12-03-2010 15:43:01 7.3 C 3.95 g/m*3 7.3 C 0 km/h
2716 12-03-2010 15:55:01 6.1 C 3.8 g/m*3 6.1 C 0 km/h
2717 12-03-2010 16:07:01 5.3 C 4.09 g/m*3 5.3 C 0 km/h
2718 12-03-2010 16:19:02 4.9 C 4.25 g/m*3 4.9 C 0 km/h
2719 12-03-2010 16:31:01 5.1 C 4.38 g/m*3 5.1 C 0 km/h
2720 12-03-2010 16:43:01 5.2 C 4.41 g/m*3 5.2 C 0 km/h
2721 12-03-2010 16:55:02 5.1 C 4.31 g/m*3 5.1 C 0 km/h
2722 12-03-2010 17:07:01 4.9 C 4.32 g/m*3 4.9 C 0 km/h
2723 12-03-2010 17:19:01 4.9 C 4.32 g/m*3 4.9 C 0 km/h
2724 12-03-2010 17:31:01 4.8 C 4.29 g/m*3 4.8 C 0 km/h
2725 12-03-2010 17:43:01 4.4 C 4.24 g/m*3 4.4 C 0 km/h
Sensor: Nr:Datum:Temp:Abs-Feuchte:Windchill:Wind:
Aussen-T/F 2726 12-03-2010 17:55:02 4.1 C 4.29 g/m*3 4.1 C 0 km/h
2727 12-03-2010 18:07:02 3.9 C 4.36 g/m*3 3.9 C 0 km/h
2728 12-03-2010 18:19:02 3.7 C 4.36 g/m*3 3.7 C 0 km/h
2729 12-03-2010 18:31:01 3.5 C 4.37 g/m*3 3.5 C 0 km/h
2730 12-03-2010 18:43:01 3.2 C 4.28 g/m*3 3.2 C 0 km/h
2731 12-03-2010 18:55:02 3 C 4.28 g/m*3 3 C 0 km/h
2732 12-03-2010 19:07:01 2.8 C 4.34 g/m*3 2.8 C 0 km/h
2733 12-03-2010 19:19:02 2.8 C 4.34 g/m*3 2.8 C 0 km/h
2734 12-03-2010 19:31:01 2.8 C 4.4 g/m*3 2.8 C 0 km/h
2735 12-03-2010 19:43:01 2.9 C 4.43 g/m*3 2.9 C 0 km/h
2736 12-03-2010 19:55:02 3.1 C 4.43 g/m*3 3.1 C 0 km/h
2737 12-03-2010 20:07:02 3.1 C 4.43 g/m*3 3.1 C 0 km/h
2738 12-03-2010 20:19:02 3.1 C 4.43 g/m*3 3.1 C 0 km/h
2739 12-03-2010 20:31:03 3.2 C 4.46 g/m*3 3.2 C 0 km/h
2740 12-03-2010 20:43:03 3.1 C 4.37 g/m*3 3.1 C 0 km/h
2741 12-03-2010 20:55:02 2.9 C 4.43 g/m*3 2.9 C 0 km/h
2742 12-03-2010 21:07:01 2.8 C 4.4 g/m*3 2.8 C 0 km/h
2743 12-03-2010 21:19:02 2.8 C 4.46 g/m*3 2.8 C 0 km/h
2744 12-03-2010 21:31:02 2.7 C 4.43 g/m*3 2.7 C 0 km/h
2745 12-03-2010 21:43:02 2.7 C 4.43 g/m*3 2.7 C 0 km/h
2746 12-03-2010 21:55:03 2.6 C 4.4 g/m*3 2.6 C 0 km/h
2747 12-03-2010 22:07:03 2.6 C 4.4 g/m*3 2.6 C 0 km/h
2748 12-03-2010 22:20:03 2.6 C 4.46 g/m*3 2.6 C 0 km/h
2749 12-03-2010 22:32:03 2.4 C 4.4 g/m*3 2.4 C 0 km/h
2750 12-03-2010 22:44:03 2.4 C 4.45 g/m*3 2.4 C 0 km/h
Sensor: Nr:Datum:Temp:Abs-Feuchte:Windchill:Wind:
Aussen-T/F 2751 12-03-2010 22:56:03 2.4 C 4.45 g/m*3 2.4 C 0 km/h
2752 12-03-2010 23:08:03 2.4 C 4.45 g/m*3 2.4 C 0 km/h
2753 12-03-2010 23:20:03 2.4 C 4.45 g/m*3 2.4 C 0 km/h
2754 12-03-2010 23:32:03 2.3 C 4.42 g/m*3 2.3 C 0 km/h
2755 12-03-2010 23:44:03 2.2 C 4.45 g/m*3 2.2 C 0 km/h
2756 12-03-2010 23:56:03 2.3 C 4.48 g/m*3 2.3 C 0 km/h
2757 13-03-2010 00:08:03 2.3 C 4.48 g/m*3 2.3 C 0 km/h
2758 13-03-2010 00:20:03 2.2 C 4.45 g/m*3 2.2 C 0 km/h
2759 13-03-2010 00:32:03 2.3 C 4.48 g/m*3 2.3 C 0 km/h
2760 13-03-2010 00:44:03 2.3 C 4.48 g/m*3 2.3 C 0 km/h
2761 13-03-2010 00:56:03 2.3 C 4.48 g/m*3 2.3 C 0 km/h
2762 13-03-2010 01:08:03 2.2 C 4.45 g/m*3 2.2 C 0 km/h
2763 13-03-2010 01:20:03 2.2 C 4.39 g/m*3 2.2 C 0 km/h
2764 13-03-2010 01:32:03 2.3 C 4.42 g/m*3 2.3 C 0 km/h
2765 13-03-2010 01:44:03 2.2 C 4.39 g/m*3 2.2 C 0 km/h
2766 13-03-2010 01:56:03 2.2 C 4.39 g/m*3 2.2 C 0 km/h
2767 13-03-2010 02:08:03 2.2 C 4.39 g/m*3 2.2 C 0 km/h
2768 13-03-2010 02:20:03 2.1 C 4.31 g/m*3 2.1 C 0 km/h
2769 13-03-2010 02:32:03 2.2 C 4.34 g/m*3 2.2 C 0 km/h
2770 13-03-2010 02:44:04 2.1 C 4.25 g/m*3 2.1 C 0 km/h
2771 13-03-2010 02:56:04 2.2 C 4.28 g/m*3 2.2 C 0 km/h
2772 13-03-2010 03:08:04 2.2 C 4.22 g/m*3 2.2 C 0 km/h
2773 13-03-2010 03:20:04 2.2 C 4.22 g/m*3 2.2 C 0 km/h
2774 13-03-2010 03:32:04 2.2 C 4.22 g/m*3 2.2 C 0 km/h
2775 13-03-2010 03:44:04 2 C 4.17 g/m*3 2 C 0 km/h
Sensor: Nr:Datum:Temp:Abs-Feuchte:Windchill:Wind:
Aussen-T/F 2776 13-03-2010 03:56:04 1.8 C 4.22 g/m*3 1.8 C 0 km/h
2777 13-03-2010 04:08:04 1.9 C 4.19 g/m*3 1.9 C 0 km/h
2778 13-03-2010 04:20:04 2 C 4.17 g/m*3 2 C 0 km/h
2779 13-03-2010 04:32:04 2 C 4.17 g/m*3 2 C 0 km/h
2780 13-03-2010 04:44:04 2 C 4.17 g/m*3 2 C 0 km/h
2781 13-03-2010 04:56:04 2 C 4.17 g/m*3 2 C 0 km/h
2782 13-03-2010 05:08:04 2 C 4.17 g/m*3 2 C 0 km/h
2783 13-03-2010 05:20:04 1.8 C 4.17 g/m*3 1.8 C 0 km/h
2784 13-03-2010 05:32:04 1.9 C 4.19 g/m*3 1.9 C 0 km/h
2785 13-03-2010 05:44:04 2 C 4.11 g/m*3 2 C 0 km/h
2786 13-03-2010 05:56:04 2 C 4.11 g/m*3 2 C 0 km/h
2787 13-03-2010 06:08:04 2 C 4.11 g/m*3 2 C 0 km/h
2788 13-03-2010 06:20:04 2.1 C 4.08 g/m*3 2.1 C 0 km/h
2789 13-03-2010 06:32:04 2.2 C 4.11 g/m*3 2.2 C 0 km/h
2790 13-03-2010 06:44:04 2.1 C 4.08 g/m*3 2.1 C 0 km/h
2791 13-03-2010 06:56:02 2.3 C 4.2 g/m*3 2.3 C 0 km/h
2792 13-03-2010 07:08:02 2.3 C 4.25 g/m*3 2.3 C 0 km/h
2793 13-03-2010 07:20:02 2.3 C 4.31 g/m*3 2.3 C 0 km/h
2794 13-03-2010 07:32:02 2.3 C 4.31 g/m*3 2.3 C 0 km/h
2795 13-03-2010 07:44:02 2.4 C 4.45 g/m*3 2.4 C 0 km/h
2796 13-03-2010 07:56:02 2.6 C 4.63 g/m*3 2.6 C 0 km/h
2797 13-03-2010 08:08:02 2.7 C 4.66 g/m*3 2.7 C 0 km/h
2798 13-03-2010 08:20:02 2.8 C 4.69 g/m*3 2.8 C 0 km/h
2799 13-03-2010 08:32:02 2.9 C 4.72 g/m*3 2.9 C 0 km/h
2800 13-03-2010 08:44:02 3.1 C 4.73 g/m*3 3.1 C 0 km/h
Sensor: Nr:Datum:Temp:Abs-Feuchte:Windchill:Wind:
Aussen-T/F 2801 13-03-2010 08:56:02 3.3 C 4.73 g/m*3 3.3 C 0 km/h
2802 13-03-2010 09:08:01 3.4 C 4.7 g/m*3 3.4 C 0 km/h
2803 13-03-2010 09:20:02 3.4 C 4.64 g/m*3 3.4 C 0 km/h
2804 13-03-2010 09:32:01 3.6 C 4.7 g/m*3 3.6 C 0 km/h
2805 13-03-2010 09:44:01 3.6 C 4.7 g/m*3 3.6 C 0 km/h
2806 13-03-2010 09:56:02 3.7 C 4.74 g/m*3 3.7 C 0 km/h
2807 13-03-2010 10:08:01 4 C 4.7 g/m*3 4 C 0 km/h
2808 13-03-2010 10:20:02 4.4 C 4.7 g/m*3 4.4 C 0 km/h
2809 13-03-2010 10:32:02 4.8 C 4.69 g/m*3 4.8 C 0 km/h
2810 13-03-2010 10:44:02 4.8 C 4.49 g/m*3 4.8 C 0 km/h
2811 13-03-2010 10:56:02 5 C 4.42 g/m*3 5 C 0 km/h
2812 13-03-2010 11:08:02 4.8 C 4.22 g/m*3 4.8 C 0 km/h
2813 13-03-2010 11:20:02 4.7 C 4.26 g/m*3 4.7 C 0 km/h
2814 13-03-2010 11:32:02 5.2 C 4.34 g/m*3 5.2 C 0 km/h
2815 13-03-2010 11:44:02 5.3 C 4.23 g/m*3 5.3 C 0 km/h
2816 13-03-2010 11:56:02 6 C 4.06 g/m*3 6 C 0 km/h
2817 13-03-2010 12:08:02 6.5 C 4.05 g/m*3 6.5 C 0 km/h
2818 13-03-2010 12:20:01 6.2 C 3.75 g/m*3 6.2 C 0 km/h
2819 13-03-2010 12:32:02 5.8 C 3.72 g/m*3 5.8 C 0 km/h
2820 13-03-2010 12:44:02 6.3 C 3.78 g/m*3 6.3 C 0 km/h
2821 13-03-2010 12:56:02 6.7 C 3.72 g/m*3 6.7 C 0 km/h
2822 13-03-2010 13:08:02 6.3 C 3.7 g/m*3 6.3 C 0 km/h
2823 13-03-2010 13:20:02 6 C 3.7 g/m*3 6 C 0 km/h
2824 13-03-2010 13:32:02 5.8 C 3.94 g/m*3 5.8 C 0 km/h
2825 13-03-2010 13:44:02 5.8 C 4.01 g/m*3 5.8 C 0 km/h
Sensor: Nr:Datum:Temp:Abs-Feuchte:Windchill:Wind:
Aussen-T/F 2826 13-03-2010 13:56:02 6.1 C 4.16 g/m*3 6.1 C 0 km/h
2827 13-03-2010 14:08:02 6.3 C 4.07 g/m*3 6.3 C 0 km/h
2828 13-03-2010 14:20:02 6.3 C 4.07 g/m*3 6.3 C 0 km/h
2829 13-03-2010 14:32:02 6.1 C 4.02 g/m*3 6.1 C 0 km/h
2830 13-03-2010 14:44:02 6.2 C 3.97 g/m*3 6.2 C 0 km/h
2831 13-03-2010 14:56:02 6.3 C 4 g/m*3 6.3 C 0 km/h
2832 13-03-2010 15:08:02 6.5 C 4.05 g/m*3 6.5 C 0 km/h
2833 13-03-2010 15:20:02 6.5 C 3.9 g/m*3 6.5 C 0 km/h
2834 13-03-2010 15:32:02 6.5 C 3.9 g/m*3 6.5 C 0 km/h
2835 13-03-2010 15:44:02 6.7 C 4.03 g/m*3 6.7 C 0 km/h
2836 13-03-2010 15:56:02 6.6 C 3.93 g/m*3 6.6 C 0 km/h
2837 13-03-2010 16:08:02 6.6 C 3.93 g/m*3 6.6 C 0 km/h
2838 13-03-2010 16:20:03 6.5 C 3.9 g/m*3 6.5 C 0 km/h
2839 13-03-2010 16:32:02 6.5 C 3.9 g/m*3 6.5 C 0 km/h
2840 13-03-2010 16:44:02 6.4 C 3.87 g/m*3 6.4 C 0 km/h
2841 13-03-2010 16:56:02 6.4 C 3.95 g/m*3 6.4 C 0 km/h
2842 13-03-2010 17:08:02 6.4 C 3.95 g/m*3 6.4 C 0 km/h
2843 13-03-2010 17:20:02 6.3 C 3.92 g/m*3 6.3 C 0 km/h
2844 13-03-2010 17:32:02 6.3 C 4 g/m*3 6.3 C 0 km/h
2845 13-03-2010 17:44:02 6.2 C 3.97 g/m*3 6.2 C 0 km/h
2846 13-03-2010 17:56:02 6.2 C 3.97 g/m*3 6.2 C 0 km/h
2847 13-03-2010 18:08:02 6.2 C 3.97 g/m*3 6.2 C 0 km/h
2848 13-03-2010 18:20:02 6.1 C 3.95 g/m*3 6.1 C 0 km/h
2849 13-03-2010 18:32:01 6.1 C 3.95 g/m*3 6.1 C 0 km/h
2850 13-03-2010 18:44:01 6 C 3.92 g/m*3 6 C 0 km/h
Sensor: Nr:Datum:Temp:Abs-Feuchte:Windchill:Wind:
Aussen-T/F 2851 13-03-2010 18:56:02 6.1 C 3.95 g/m*3 6.1 C 0 km/h
2852 13-03-2010 19:08:01 6 C 3.92 g/m*3 6 C 0 km/h
2853 13-03-2010 19:20:02 6 C 3.99 g/m*3 6 C 0 km/h
2854 13-03-2010 19:32:02 6 C 3.99 g/m*3 6 C 0 km/h
2855 13-03-2010 19:44:02 6 C 3.99 g/m*3 6 C 0 km/h
2856 13-03-2010 19:56:02 6 C 3.99 g/m*3 6 C 0 km/h
2857 13-03-2010 20:08:01 5.8 C 4.08 g/m*3 5.8 C 0 km/h
2858 13-03-2010 20:20:01 5.8 C 4.23 g/m*3 5.8 C 0 km/h
2859 13-03-2010 20:32:02 5.5 C 4.28 g/m*3 5.5 C 0 km/h
2860 13-03-2010 20:44:02 5.5 C 4.42 g/m*3 5.5 C 0 km/h
2861 13-03-2010 20:56:02 5.6 C 4.45 g/m*3 5.6 C 0 km/h
2862 13-03-2010 21:08:02 5.6 C 4.45 g/m*3 5.6 C 0 km/h
2863 13-03-2010 21:20:02 5.5 C 4.35 g/m*3 5.5 C 0 km/h
2864 13-03-2010 21:32:02 5.6 C 4.17 g/m*3 5.6 C 0 km/h
2865 13-03-2010 21:44:02 5.5 C 4.07 g/m*3 5.5 C 0 km/h
2866 13-03-2010 21:56:01 5.4 C 4.05 g/m*3 5.4 C 0 km/h
2867 13-03-2010 22:08:02 5.3 C 4.02 g/m*3 5.3 C 0 km/h
2868 13-03-2010 22:21:03 5.2 C 4.13 g/m*3 5.2 C 0 km/h
2869 13-03-2010 22:33:04 5 C 4.21 g/m*3 5 C 0 km/h
2870 13-03-2010 22:45:04 5 C 4.08 g/m*3 5 C 0 km/h
2871 13-03-2010 22:57:04 5.2 C 3.79 g/m*3 5.2 C 0 km/h
2872 13-03-2010 23:09:04 5.1 C 3.63 g/m*3 5.1 C 0 km/h
2873 13-03-2010 23:21:04 5.1 C 3.63 g/m*3 5.1 C 0 km/h
2874 13-03-2010 23:33:04 5.1 C 3.63 g/m*3 5.1 C 0 km/h
2875 13-03-2010 23:45:04 5 C 3.67 g/m*3 5 C 0 km/h
Sensor: Nr:Datum:Temp:Abs-Feuchte:Windchill:Wind:
Aussen-T/F 2876 13-03-2010 23:57:04 4.9 C 3.71 g/m*3 4.9 C 0 km/h
2877 14-03-2010 00:09:04 4.8 C 3.62 g/m*3 4.8 C 0 km/h
2878 14-03-2010 00:21:04 4.7 C 3.6 g/m*3 4.7 C 0 km/h
2879 14-03-2010 00:33:04 4.7 C 3.6 g/m*3 4.7 C 0 km/h
2880 14-03-2010 00:45:04 4.7 C 3.6 g/m*3 4.7 C 0 km/h
2881 14-03-2010 00:57:04 4.6 C 3.57 g/m*3 4.6 C 0 km/h
2882 14-03-2010 01:09:04 4.6 C 3.64 g/m*3 4.6 C 0 km/h
2883 14-03-2010 01:21:04 4.5 C 3.68 g/m*3 4.5 C 0 km/h
2884 14-03-2010 01:33:04 4.4 C 3.66 g/m*3 4.4 C 0 km/h
2885 14-03-2010 01:45:04 4.3 C 3.7 g/m*3 4.3 C 0 km/h
2886 14-03-2010 01:57:04 4.3 C 3.76 g/m*3 4.3 C 0 km/h
2887 14-03-2010 02:09:04 4.3 C 3.76 g/m*3 4.3 C 0 km/h
2888 14-03-2010 02:21:04 4.3 C 3.83 g/m*3 4.3 C 0 km/h
2889 14-03-2010 02:33:04 4.3 C 3.83 g/m*3 4.3 C 0 km/h
2890 14-03-2010 02:45:05 4.2 C 3.8 g/m*3 4.2 C 0 km/h
2891 14-03-2010 02:57:05 4.3 C 3.83 g/m*3 4.3 C 0 km/h
2892 14-03-2010 03:09:05 4.3 C 3.89 g/m*3 4.3 C 0 km/h
2893 14-03-2010 03:21:05 4.3 C 3.89 g/m*3 4.3 C 0 km/h
2894 14-03-2010 03:33:05 4.4 C 3.85 g/m*3 4.4 C 0 km/h
2895 14-03-2010 03:45:05 4.4 C 3.85 g/m*3 4.4 C 0 km/h
2896 14-03-2010 03:57:05 4.4 C 3.85 g/m*3 4.4 C 0 km/h
2897 14-03-2010 04:09:05 4.4 C 3.85 g/m*3 4.4 C 0 km/h
2898 14-03-2010 04:21:05 4.5 C 3.88 g/m*3 4.5 C 0 km/h
2899 14-03-2010 04:33:05 4.4 C 3.92 g/m*3 4.4 C 0 km/h
2900 14-03-2010 04:45:05 4.4 C 3.92 g/m*3 4.4 C 0 km/h
Sensor: Nr:Datum:Temp:Abs-Feuchte:Windchill:Wind:
Aussen-T/F 2901 14-03-2010 04:57:05 4.3 C 3.96 g/m*3 4.3 C 0 km/h
2902 14-03-2010 05:09:05 4.3 C 4.02 g/m*3 4.3 C 0 km/h
2903 14-03-2010 05:21:05 4.3 C 4.02 g/m*3 4.3 C 0 km/h
2904 14-03-2010 05:33:05 4.3 C 4.02 g/m*3 4.3 C 0 km/h
2905 14-03-2010 05:45:05 4.2 C 3.99 g/m*3 4.2 C 0 km/h
2906 14-03-2010 05:57:05 4.2 C 3.99 g/m*3 4.2 C 0 km/h
2907 14-03-2010 06:09:05 4.3 C 4.02 g/m*3 4.3 C 0 km/h
2908 14-03-2010 06:21:05 4.2 C 3.99 g/m*3 4.2 C 0 km/h
2909 14-03-2010 06:33:05 4.2 C 3.99 g/m*3 4.2 C 0 km/h
2910 14-03-2010 06:45:06 4.2 C 3.99 g/m*3 4.2 C 0 km/h
2911 14-03-2010 06:57:06 4.2 C 4.06 g/m*3 4.2 C 0 km/h
2912 14-03-2010 07:09:06 4.3 C 4.02 g/m*3 4.3 C 0 km/h
2913 14-03-2010 07:21:06 4.3 C 4.02 g/m*3 4.3 C 0 km/h
2914 14-03-2010 07:33:06 4.5 C 4.08 g/m*3 4.5 C 0 km/h
2915 14-03-2010 07:45:06 4.6 C 4.04 g/m*3 4.6 C 0 km/h
2916 14-03-2010 07:57:06 4.7 C 4 g/m*3 4.7 C 0 km/h
2917 14-03-2010 08:09:06 4.8 C 3.96 g/m*3 4.8 C 0 km/h
2918 14-03-2010 08:21:06 4.9 C 3.92 g/m*3 4.9 C 0 km/h
2919 14-03-2010 08:33:06 5.2 C 3.86 g/m*3 5.2 C 0 km/h
2920 14-03-2010 08:45:01 5.3 C 3.81 g/m*3 5.3 C 0 km/h
2921 14-03-2010 08:57:01 5.4 C 3.77 g/m*3 5.4 C 0 km/h
2922 14-03-2010 09:09:02 5.6 C 3.82 g/m*3 5.6 C 0 km/h
2923 14-03-2010 09:21:01 5.7 C 3.77 g/m*3 5.7 C 0 km/h
2924 14-03-2010 09:33:02 6 C 3.7 g/m*3 6 C 0 km/h
2925 14-03-2010 09:45:02 5.9 C 3.75 g/m*3 5.9 C 0 km/h
Sensor: Nr:Datum:Temp:Abs-Feuchte:Windchill:Wind:
Aussen-T/F 2926 14-03-2010 09:57:02 6 C 3.77 g/m*3 6 C 0 km/h
2927 14-03-2010 10:09:02 6.3 C 3.78 g/m*3 6.3 C 0 km/h
2928 14-03-2010 10:21:02 6.5 C 3.75 g/m*3 6.5 C 0 km/h
2929 14-03-2010 10:33:02 6.8 C 3.82 g/m*3 6.8 C 0 km/h
2930 14-03-2010 10:45:02 7 C 3.64 g/m*3 7 C 0 km/h
2931 14-03-2010 10:57:02 6.9 C 3.7 g/m*3 6.9 C 0 km/h
2932 14-03-2010 11:09:02 7.2 C 3.69 g/m*3 7.2 C 0 km/h
2933 14-03-2010 11:21:02 7.5 C 3.76 g/m*3 7.5 C 0 km/h
2934 14-03-2010 11:33:02 7.4 C 3.66 g/m*3 7.4 C 0 km/h
2935 14-03-2010 11:45:01 7.5 C 3.76 g/m*3 7.5 C 0 km/h
2936 14-03-2010 11:57:01 7.6 C 3.63 g/m*3 7.6 C 0 km/h
2937 14-03-2010 12:09:02 7.8 C 3.51 g/m*3 7.8 C 0 km/h
2938 14-03-2010 12:21:01 7.8 C 3.43 g/m*3 7.8 C 0 km/h
2939 14-03-2010 12:33:01 7.7 C 3.49 g/m*3 7.7 C 0 km/h
2940 14-03-2010 12:45:01 7.6 C 3.54 g/m*3 7.6 C 0 km/h
2941 14-03-2010 12:57:01 7.6 C 3.63 g/m*3 7.6 C 0 km/h
2942 14-03-2010 13:09:02 7.6 C 3.63 g/m*3 7.6 C 0 km/h
2943 14-03-2010 13:21:01 7.7 C 3.73 g/m*3 7.7 C 0 km/h
2944 14-03-2010 13:33:02 7.7 C 3.73 g/m*3 7.7 C 0 km/h
2945 14-03-2010 13:45:02 7.5 C 3.76 g/m*3 7.5 C 0 km/h
2946 14-03-2010 13:57:02 7.5 C 3.76 g/m*3 7.5 C 0 km/h
2947 14-03-2010 14:09:02 7.4 C 3.74 g/m*3 7.4 C 0 km/h
2948 14-03-2010 14:21:01 7.3 C 3.79 g/m*3 7.3 C 0 km/h
2949 14-03-2010 14:33:02 7.4 C 3.82 g/m*3 7.4 C 0 km/h
2950 14-03-2010 14:45:02 7.5 C 3.84 g/m*3 7.5 C 0 km/h
Sensor: Nr:Datum:Temp:Abs-Feuchte:Windchill:Wind:
Aussen-T/F 2951 14-03-2010 14:57:02 7.5 C 3.84 g/m*3 7.5 C 0 km/h
2952 14-03-2010 15:09:02 7.7 C 3.89 g/m*3 7.7 C 0 km/h
2953 14-03-2010 15:21:02 7.7 C 3.89 g/m*3 7.7 C 0 km/h
2954 14-03-2010 15:33:02 7.8 C 3.84 g/m*3 7.8 C 0 km/h
2955 14-03-2010 15:45:02 7.8 C 3.92 g/m*3 7.8 C 0 km/h
2956 14-03-2010 15:57:02 7.7 C 3.97 g/m*3 7.7 C 0 km/h
2957 14-03-2010 16:09:02 7.6 C 3.95 g/m*3 7.6 C 0 km/h
2958 14-03-2010 16:21:02 7.3 C 4.03 g/m*3 7.3 C 0 km/h
2959 14-03-2010 16:33:02 7.2 C 4.08 g/m*3 7.2 C 0 km/h
2960 14-03-2010 16:45:02 6.9 C 4.31 g/m*3 6.9 C 0 km/h
2961 14-03-2010 16:57:02 6.5 C 4.27 g/m*3 6.5 C 0 km/h
2962 14-03-2010 17:09:02 6.4 C 4.47 g/m*3 6.4 C 0 km/h
2963 14-03-2010 17:21:02 6.7 C 4.18 g/m*3 6.7 C 0 km/h
2964 14-03-2010 17:33:02 6.8 C 4.21 g/m*3 6.8 C 0 km/h
2965 14-03-2010 17:45:02 6.6 C 4.23 g/m*3 6.6 C 0 km/h
2966 14-03-2010 17:57:02 6.4 C 4.32 g/m*3 6.4 C 0 km/h
2967 14-03-2010 18:09:02 6.4 C 4.4 g/m*3 6.4 C 0 km/h
2968 14-03-2010 18:21:02 6.2 C 4.49 g/m*3 6.2 C 0 km/h
2969 14-03-2010 18:33:02 5.9 C 4.61 g/m*3 5.9 C 0 km/h
2970 14-03-2010 18:45:02 5.7 C 4.84 g/m*3 5.7 C 0 km/h
2971 14-03-2010 18:57:02 5.4 C 4.95 g/m*3 5.4 C 0 km/h
2972 14-03-2010 19:09:01 5.4 C 4.95 g/m*3 5.4 C 0 km/h
2973 14-03-2010 19:21:02 5.4 C 4.95 g/m*3 5.4 C 0 km/h
2974 14-03-2010 19:33:01 5.6 C 5.02 g/m*3 5.6 C 0 km/h
2975 14-03-2010 19:45:02 5.7 C 4.98 g/m*3 5.7 C 0 km/h
Sensor: Nr:Datum:Temp:Abs-Feuchte:Windchill:Wind:
Aussen-T/F 2976 14-03-2010 19:57:02 5.8 C 4.94 g/m*3 5.8 C 0 km/h
2977 14-03-2010 20:09:01 5.7 C 4.91 g/m*3 5.7 C 0 km/h
2978 14-03-2010 20:21:02 5.7 C 4.84 g/m*3 5.7 C 0 km/h
2979 14-03-2010 20:33:01 5.7 C 4.77 g/m*3 5.7 C 0 km/h
2980 14-03-2010 20:45:02 5.8 C 4.73 g/m*3 5.8 C 0 km/h
2981 14-03-2010 20:57:02 5.7 C 4.63 g/m*3 5.7 C 0 km/h
2982 14-03-2010 21:09:02 5.7 C 4.55 g/m*3 5.7 C 0 km/h
2983 14-03-2010 21:21:02 5.7 C 4.55 g/m*3 5.7 C 0 km/h
2984 14-03-2010 21:33:02 5.9 C 4.4 g/m*3 5.9 C 0 km/h
2985 14-03-2010 21:46:05 5.8 C 4.37 g/m*3 5.8 C 0 km/h
2986 14-03-2010 21:58:06 5.8 C 4.3 g/m*3 5.8 C 0 km/h
2987 14-03-2010 22:10:06 5.8 C 4.3 g/m*3 5.8 C 0 km/h
2988 14-03-2010 22:22:06 5.9 C 4.33 g/m*3 5.9 C 0 km/h
2989 14-03-2010 22:34:06 5.8 C 4.3 g/m*3 5.8 C 0 km/h
2990 14-03-2010 22:46:06 5.9 C 4.33 g/m*3 5.9 C 0 km/h
2991 14-03-2010 22:58:06 5.9 C 4.33 g/m*3 5.9 C 0 km/h
2992 14-03-2010 23:10:06 6.1 C 4.31 g/m*3 6.1 C 0 km/h
2993 14-03-2010 23:22:06 6 C 4.5 g/m*3 6 C 0 km/h
2994 14-03-2010 23:34:06 5.8 C 4.58 g/m*3 5.8 C 0 km/h
2995 14-03-2010 23:46:06 6.1 C 4.75 g/m*3 6.1 C 0 km/h
2996 14-03-2010 23:58:06 5.7 C 4.77 g/m*3 5.7 C 0 km/h
2997 15-03-2010 00:10:06 5.8 C 4.73 g/m*3 5.8 C 0 km/h
2998 15-03-2010 00:22:06 5.8 C 4.73 g/m*3 5.8 C 0 km/h
2999 15-03-2010 00:34:06 5.9 C 4.76 g/m*3 5.9 C 0 km/h
3000 15-03-2010 00:46:06 5.8 C 4.8 g/m*3 5.8 C 0 km/h
Sensor: Nr:Datum:Temp:Abs-Feuchte:Windchill:Wind:
Aussen-T/F 3001 15-03-2010 00:58:06 5.8 C 4.73 g/m*3 5.8 C 0 km/h
3002 15-03-2010 01:10:06 5.8 C 4.73 g/m*3 5.8 C 0 km/h
3003 15-03-2010 01:22:06 5.8 C 4.73 g/m*3 5.8 C 0 km/h
3004 15-03-2010 01:34:06 5.7 C 4.63 g/m*3 5.7 C 0 km/h
3005 15-03-2010 01:46:06 5.7 C 4.7 g/m*3 5.7 C 0 km/h
3006 15-03-2010 01:58:07 5.7 C 4.77 g/m*3 5.7 C 0 km/h
3007 15-03-2010 02:10:07 5.4 C 4.81 g/m*3 5.4 C 0 km/h
3008 15-03-2010 02:22:07 5.2 C 4.82 g/m*3 5.2 C 0 km/h
3009 15-03-2010 02:34:07 4.9 C 4.93 g/m*3 4.9 C 0 km/h
3010 15-03-2010 02:46:07 4.8 C 5.03 g/m*3 4.8 C 0 km/h
3011 15-03-2010 02:58:07 4.7 C 5 g/m*3 4.7 C 0 km/h
3012 15-03-2010 03:10:07 5 C 4.76 g/m*3 5 C 0 km/h
3013 15-03-2010 03:22:07 5 C 4.69 g/m*3 5 C 0 km/h
3014 15-03-2010 03:34:07 4.9 C 4.79 g/m*3 4.9 C 0 km/h
3015 15-03-2010 03:46:07 4.8 C 4.69 g/m*3 4.8 C 0 km/h
3016 15-03-2010 03:58:07 4.7 C 4.73 g/m*3 4.7 C 0 km/h
3017 15-03-2010 04:10:07 4.6 C 4.63 g/m*3 4.6 C 0 km/h
3018 15-03-2010 04:22:07 4.6 C 4.63 g/m*3 4.6 C 0 km/h
3019 15-03-2010 04:34:07 4.6 C 4.63 g/m*3 4.6 C 0 km/h
3020 15-03-2010 04:46:07 4.6 C 4.57 g/m*3 4.6 C 0 km/h
3021 15-03-2010 04:58:07 4.7 C 4.6 g/m*3 4.7 C 0 km/h
3022 15-03-2010 05:10:07 4.6 C 4.5 g/m*3 4.6 C 0 km/h
3023 15-03-2010 05:22:07 4.6 C 4.57 g/m*3 4.6 C 0 km/h
3024 15-03-2010 05:34:07 4.6 C 4.43 g/m*3 4.6 C 0 km/h
3025 15-03-2010 05:46:07 4.7 C 4.33 g/m*3 4.7 C 0 km/h
Sensor: Nr:Datum:Temp:Abs-Feuchte:Windchill:Wind:
Aussen-T/F 3026 15-03-2010 05:58:07 4.7 C 4.33 g/m*3 4.7 C 0 km/h
3027 15-03-2010 06:10:08 4.7 C 4.26 g/m*3 4.7 C 0 km/h
3028 15-03-2010 06:22:03 4.7 C 4.2 g/m*3 4.7 C 0 km/h
3029 15-03-2010 06:34:04 4.6 C 4.17 g/m*3 4.6 C 0 km/h
3030 15-03-2010 06:46:02 4.6 C 4.23 g/m*3 4.6 C 0 km/h
3031 15-03-2010 06:58:02 4.7 C 4.2 g/m*3 4.7 C 0 km/h
3032 15-03-2010 07:10:02 4.4 C 4.37 g/m*3 4.4 C 0 km/h
3033 15-03-2010 07:22:02 4 C 4.64 g/m*3 4 C 0 km/h
3034 15-03-2010 07:34:02 3.7 C 4.86 g/m*3 3.7 C 0 km/h
3035 15-03-2010 07:46:02 3.6 C 4.95 g/m*3 3.6 C 0 km/h
3036 15-03-2010 07:58:02 3.7 C 5.11 g/m*3 3.7 C 0 km/h
3037 15-03-2010 08:10:02 3.8 C 5.21 g/m*3 3.8 C 0 km/h
3038 15-03-2010 08:22:02 3.7 C 5.23 g/m*3 3.7 C 0 km/h
3039 15-03-2010 08:34:02 3.8 C 5.33 g/m*3 3.8 C 0 km/h
3040 15-03-2010 08:46:02 4 C 5.4 g/m*3 4 C 0 km/h
3041 15-03-2010 08:58:02 4.2 C 5.54 g/m*3 4.2 C 0 km/h
3042 15-03-2010 09:10:02 4.3 C 5.51 g/m*3 4.3 C 0 km/h
3043 15-03-2010 09:22:02 4.3 C 5.51 g/m*3 4.3 C 0 km/h
3044 15-03-2010 09:34:02 4.4 C 5.55 g/m*3 4.4 C 0 km/h
3045 15-03-2010 09:46:02 4.6 C 5.62 g/m*3 4.6 C 0 km/h
3046 15-03-2010 09:58:02 4.5 C 5.52 g/m*3 4.5 C 0 km/h
3047 15-03-2010 10:10:02 4.5 C 5.52 g/m*3 4.5 C 0 km/h
3048 15-03-2010 10:22:02 4.6 C 5.56 g/m*3 4.6 C 0 km/h
3049 15-03-2010 10:34:02 5.1 C 5.61 g/m*3 5.1 C 0 km/h
3050 15-03-2010 10:46:02 5.5 C 5.48 g/m*3 5.5 C 0 km/h
Sensor: Nr:Datum:Temp:Abs-Feuchte:Windchill:Wind:
Aussen-T/F 3051 15-03-2010 10:58:02 6 C 5.44 g/m*3 6 C 0 km/h
3052 15-03-2010 11:10:02 5.9 C 5.26 g/m*3 5.9 C 0 km/h
3053 15-03-2010 11:22:02 6 C 5.08 g/m*3 6 C 0 km/h
3054 15-03-2010 11:34:01 5.9 C 5.05 g/m*3 5.9 C 0 km/h
3055 15-03-2010 11:46:02 5.9 C 4.98 g/m*3 5.9 C 0 km/h
3056 15-03-2010 11:58:02 6 C 4.94 g/m*3 6 C 0 km/h
3057 15-03-2010 12:10:01 6 C 4.79 g/m*3 6 C 0 km/h
3058 15-03-2010 12:22:02 6.6 C 4.98 g/m*3 6.6 C 0 km/h
3059 15-03-2010 12:34:01 7.4 C 4.85 g/m*3 7.4 C 0 km/h
3060 15-03-2010 12:46:02 7.8 C 4.98 g/m*3 7.8 C 0 km/h
3061 15-03-2010 12:58:02 8.5 C 4.87 g/m*3 8.5 C 0 km/h
3062 15-03-2010 13:10:02 9.3 C 4.67 g/m*3 9.3 C 0 km/h
3063 15-03-2010 13:22:02 9 C 4.58 g/m*3 9 C 0 km/h
3064 15-03-2010 13:34:02 9.4 C 4.61 g/m*3 9.4 C 0 km/h
3065 15-03-2010 13:46:02 9.9 C 4.58 g/m*3 9.9 C 0 km/h
3066 15-03-2010 13:58:03 9.7 C 4.33 g/m*3 9.7 C 0 km/h
3067 15-03-2010 14:10:01 10.1 C 4.35 g/m*3 10.1 C 0 km/h
3068 15-03-2010 14:22:01 10 C 4.04 g/m*3 10 C 0 km/h
3069 15-03-2010 14:34:02 10.4 C 3.95 g/m*3 10.4 C 0 km/h
3070 15-03-2010 14:46:02 10.5 C 4.07 g/m*3 10.5 C 0 km/h
3071 15-03-2010 14:58:02 10.3 C 4.02 g/m*3 10.3 C 0 km/h
3072 15-03-2010 15:10:01 10.4 C 4.05 g/m*3 10.4 C 0 km/h
3073 15-03-2010 15:22:02 11 C 4.1 g/m*3 11 C 0 km/h
3074 15-03-2010 15:34:02 10.5 C 3.98 g/m*3 10.5 C 0 km/h
3075 15-03-2010 15:46:02 10.4 C 4.05 g/m*3 10.4 C 0 km/h
Sensor: Nr:Datum:Temp:Abs-Feuchte:Windchill:Wind:
Aussen-T/F 3076 15-03-2010 15:58:02 10.1 C 4.07 g/m*3 10.1 C 0 km/h
3077 15-03-2010 16:10:03 9.9 C 4.2 g/m*3 9.9 C 0 km/h
3078 15-03-2010 16:22:02 10 C 4.23 g/m*3 10 C 0 km/h
3079 15-03-2010 16:34:02 9.9 C 4.29 g/m*3 9.9 C 0 km/h
3080 15-03-2010 16:46:01 9.8 C 4.27 g/m*3 9.8 C 0 km/h
3081 15-03-2010 16:58:01 9.7 C 4.43 g/m*3 9.7 C 0 km/h
3082 15-03-2010 17:10:02 9.6 C 4.4 g/m*3 9.6 C 0 km/h
3083 15-03-2010 17:22:01 9.2 C 4.55 g/m*3 9.2 C 0 km/h
3084 15-03-2010 17:34:01 8.6 C 4.98 g/m*3 8.6 C 0 km/h
3085 15-03-2010 17:46:01 8.3 C 5.06 g/m*3 8.3 C 0 km/h
3086 15-03-2010 17:58:01 8.2 C 4.94 g/m*3 8.2 C 0 km/h
3087 15-03-2010 18:10:02 8.2 C 5.11 g/m*3 8.2 C 0 km/h
3088 15-03-2010 18:22:01 8.1 C 5.16 g/m*3 8.1 C 0 km/h
3089 15-03-2010 18:34:02 8 C 5.21 g/m*3 8 C 0 km/h
3090 15-03-2010 18:46:01 8.1 C 5.08 g/m*3 8.1 C 0 km/h
3091 15-03-2010 18:58:01 7.7 C 5.27 g/m*3 7.7 C 0 km/h
3092 15-03-2010 19:10:02 7.5 C 5.36 g/m*3 7.5 C 0 km/h
3093 15-03-2010 19:22:01 7.2 C 5.42 g/m*3 7.2 C 0 km/h
3094 15-03-2010 19:34:02 7.1 C 5.46 g/m*3 7.1 C 0 km/h
3095 15-03-2010 19:46:01 7 C 5.5 g/m*3 7 C 0 km/h
3096 15-03-2010 19:58:01 7 C 5.58 g/m*3 7 C 0 km/h
3097 15-03-2010 20:10:02 6.7 C 5.77 g/m*3 6.7 C 0 km/h
3098 15-03-2010 20:22:01 6.8 C 5.81 g/m*3 6.8 C 0 km/h
3099 15-03-2010 20:34:02 6.9 C 5.62 g/m*3 6.9 C 0 km/h
3100 15-03-2010 20:46:01 6.8 C 5.58 g/m*3 6.8 C 0 km/h
Sensor: Nr:Datum:Temp:Abs-Feuchte:Windchill:Wind:
Aussen-T/F 3101 15-03-2010 20:58:01 6.8 C 5.58 g/m*3 6.8 C 0 km/h
3102 15-03-2010 21:10:02 6.9 C 5.47 g/m*3 6.9 C 0 km/h
3103 15-03-2010 21:22:02 6.6 C 5.59 g/m*3 6.6 C 0 km/h
3104 15-03-2010 21:34:02 6.4 C 5.66 g/m*3 6.4 C 0 km/h
3105 15-03-2010 21:46:01 6.3 C 5.85 g/m*3 6.3 C 0 km/h
3106 15-03-2010 21:58:01 6.2 C 5.81 g/m*3 6.2 C 0 km/h
3107 15-03-2010 22:10:01 6.1 C 5.77 g/m*3 6.1 C 0 km/h
3108 15-03-2010 22:23:02 6 C 5.73 g/m*3 6 C 0 km/h
3109 15-03-2010 22:35:02 6 C 5.88 g/m*3 6 C 0 km/h
3110 15-03-2010 22:47:02 5.8 C 5.95 g/m*3 5.8 C 0 km/h
3111 15-03-2010 22:59:02 5.8 C 6.02 g/m*3 5.8 C 0 km/h
3112 15-03-2010 23:11:02 5.7 C 6.05 g/m*3 5.7 C 0 km/h
3113 15-03-2010 23:23:02 5.6 C 6.08 g/m*3 5.6 C 0 km/h
3114 15-03-2010 23:35:03 5.5 C 6.11 g/m*3 5.5 C 0 km/h
3115 15-03-2010 23:47:03 5.5 C 6.11 g/m*3 5.5 C 0 km/h
3116 15-03-2010 23:59:03 5.4 C 6.07 g/m*3 5.4 C 0 km/h
3117 16-03-2010 00:11:03 5.4 C 6.14 g/m*3 5.4 C 0 km/h
3118 16-03-2010 00:23:03 5.4 C 6.14 g/m*3 5.4 C 0 km/h
3119 16-03-2010 00:35:03 5.3 C 6.1 g/m*3 5.3 C 0 km/h
3120 16-03-2010 00:47:03 5.2 C 6.13 g/m*3 5.2 C 0 km/h
3121 16-03-2010 00:59:03 5.1 C 6.09 g/m*3 5.1 C 0 km/h
3122 16-03-2010 01:11:03 5 C 5.98 g/m*3 5 C 0 km/h
3123 16-03-2010 01:23:03 5 C 6.05 g/m*3 5 C 0 km/h
3124 16-03-2010 01:35:03 5 C 6.05 g/m*3 5 C 0 km/h
3125 16-03-2010 01:47:03 5 C 6.05 g/m*3 5 C 0 km/h
Sensor: Nr:Datum:Temp:Abs-Feuchte:Windchill:Wind:
Aussen-T/F 3126 16-03-2010 01:59:03 5 C 6.05 g/m*3 5 C 0 km/h
3127 16-03-2010 02:11:03 5 C 6.12 g/m*3 5 C 0 km/h
3128 16-03-2010 02:23:03 4.9 C 6.08 g/m*3 4.9 C 0 km/h
3129 16-03-2010 02:35:03 4.9 C 6.08 g/m*3 4.9 C 0 km/h
3130 16-03-2010 02:47:03 4.9 C 6.08 g/m*3 4.9 C 0 km/h
3131 16-03-2010 02:59:03 4.8 C 5.97 g/m*3 4.8 C 0 km/h
3132 16-03-2010 03:11:03 4.8 C 5.97 g/m*3 4.8 C 0 km/h
3133 16-03-2010 03:23:03 4.7 C 5.93 g/m*3 4.7 C 0 km/h
3134 16-03-2010 03:35:04 4.8 C 6.04 g/m*3 4.8 C 0 km/h
3135 16-03-2010 03:47:04 4.8 C 6.04 g/m*3 4.8 C 0 km/h
3136 16-03-2010 03:59:04 4.8 C 6.1 g/m*3 4.8 C 0 km/h
3137 16-03-2010 04:11:04 4.8 C 6.1 g/m*3 4.8 C 0 km/h
3138 16-03-2010 04:23:04 4.8 C 6.1 g/m*3 4.8 C 0 km/h
3139 16-03-2010 04:35:04 4.7 C 6.06 g/m*3 4.7 C 0 km/h
3140 16-03-2010 04:47:04 4.8 C 6.1 g/m*3 4.8 C 0 km/h
3141 16-03-2010 04:59:04 4.7 C 6.06 g/m*3 4.7 C 0 km/h
3142 16-03-2010 05:11:04 4.7 C 6.06 g/m*3 4.7 C 0 km/h
3143 16-03-2010 05:23:04 4.7 C 6.13 g/m*3 4.7 C 0 km/h
3144 16-03-2010 05:35:04 4.7 C 6.13 g/m*3 4.7 C 0 km/h
3145 16-03-2010 05:47:04 4.6 C 6.02 g/m*3 4.6 C 0 km/h
3146 16-03-2010 05:59:04 4.6 C 6.02 g/m*3 4.6 C 0 km/h
3147 16-03-2010 06:11:04 4.6 C 6.02 g/m*3 4.6 C 0 km/h
3148 16-03-2010 06:23:04 4.6 C 5.96 g/m*3 4.6 C 0 km/h
3149 16-03-2010 06:35:04 4.6 C 5.96 g/m*3 4.6 C 0 km/h
3150 16-03-2010 06:47:04 4.7 C 6.06 g/m*3 4.7 C 0 km/h
Sensor: Nr:Datum:Temp:Abs-Feuchte:Windchill:Wind:
Aussen-T/F 3151 16-03-2010 06:59:04 4.7 C 6.06 g/m*3 4.7 C 0 km/h
3152 16-03-2010 07:11:02 4.7 C 6.06 g/m*3 4.7 C 0 km/h
3153 16-03-2010 07:23:01 4.8 C 6.1 g/m*3 4.8 C 0 km/h
3154 16-03-2010 07:35:02 4.9 C 6.21 g/m*3 4.9 C 0 km/h
3155 16-03-2010 07:47:02 5 C 6.18 g/m*3 5 C 0 km/h
3156 16-03-2010 07:59:02 5 C 6.18 g/m*3 5 C 0 km/h
3157 16-03-2010 08:11:02 5 C 6.18 g/m*3 5 C 0 km/h
3158 16-03-2010 08:23:02 5.1 C 6.22 g/m*3 5.1 C 0 km/h
3159 16-03-2010 08:35:02 5.3 C 6.31 g/m*3 5.3 C 0 km/h
3160 16-03-2010 08:47:02 5.3 C 6.24 g/m*3 5.3 C 0 km/h
3161 16-03-2010 08:59:02 5.5 C 6.32 g/m*3 5.5 C 0 km/h
3162 16-03-2010 09:11:01 5.7 C 6.4 g/m*3 5.7 C 0 km/h
3163 16-03-2010 09:23:02 6 C 6.46 g/m*3 6 C 0 km/h
3164 16-03-2010 09:35:01 6.4 C 6.48 g/m*3 6.4 C 0 km/h
3165 16-03-2010 09:47:02 6.4 C 6.26 g/m*3 6.4 C 0 km/h
3166 16-03-2010 09:59:02 6.6 C 6.11 g/m*3 6.6 C 0 km/h
3167 16-03-2010 10:11:01 6.7 C 6 g/m*3 6.7 C 0 km/h
3168 16-03-2010 10:23:01 6.8 C 5.97 g/m*3 6.8 C 0 km/h
3169 16-03-2010 10:35:02 6.8 C 5.81 g/m*3 6.8 C 0 km/h
3170 16-03-2010 10:47:02 6.8 C 5.66 g/m*3 6.8 C 0 km/h
3171 16-03-2010 10:59:03 6.9 C 5.7 g/m*3 6.9 C 0 km/h
3172 16-03-2010 11:11:01 7.1 C 5.62 g/m*3 7.1 C 0 km/h
3173 16-03-2010 11:23:02 7.5 C 5.44 g/m*3 7.5 C 0 km/h
3174 16-03-2010 11:35:02 8.1 C 5.41 g/m*3 8.1 C 0 km/h
3175 16-03-2010 11:47:02 8.5 C 5.29 g/m*3 8.5 C 0 km/h
Sensor: Nr:Datum:Temp:Abs-Feuchte:Windchill:Wind:
Aussen-T/F 3176 16-03-2010 11:59:02 8.7 C 5.1 g/m*3 8.7 C 0 km/h
3177 16-03-2010 12:11:03 8.7 C 5.1 g/m*3 8.7 C 0 km/h
3178 16-03-2010 12:23:02 8.9 C 5.26 g/m*3 8.9 C 0 km/h
3179 16-03-2010 12:35:02 8.4 C 5.17 g/m*3 8.4 C 0 km/h
3180 16-03-2010 12:47:02 7.9 C 5.34 g/m*3 7.9 C 0 km/h
3181 16-03-2010 12:59:02 7.8 C 5.39 g/m*3 7.8 C 0 km/h
3182 16-03-2010 13:11:02 8 C 5.29 g/m*3 8 C 0 km/h
3183 16-03-2010 13:23:01 7.8 C 5.14 g/m*3 7.8 C 0 km/h
3184 16-03-2010 13:35:02 8.7 C 5.45 g/m*3 8.7 C 0 km/h
3185 16-03-2010 13:47:02 8.2 C 5.11 g/m*3 8.2 C 0 km/h
3186 16-03-2010 13:59:02 8.1 C 5.08 g/m*3 8.1 C 0 km/h
3187 16-03-2010 14:11:02 8.1 C 5.16 g/m*3 8.1 C 0 km/h
3188 16-03-2010 14:23:01 8.7 C 5.36 g/m*3 8.7 C 0 km/h
3189 16-03-2010 14:35:02 8.7 C 5.1 g/m*3 8.7 C 0 km/h
3190 16-03-2010 14:47:02 8.2 C 4.94 g/m*3 8.2 C 0 km/h
3191 16-03-2010 14:59:02 8.1 C 4.99 g/m*3 8.1 C 0 km/h
3192 16-03-2010 15:11:02 8.1 C 5.08 g/m*3 8.1 C 0 km/h
3193 16-03-2010 15:23:01 8.5 C 5.12 g/m*3 8.5 C 0 km/h
3194 16-03-2010 15:35:02 8.6 C 4.81 g/m*3 8.6 C 0 km/h
3195 16-03-2010 15:47:01 8.8 C 4.79 g/m*3 8.8 C 0 km/h
3196 16-03-2010 15:59:01 9 C 4.85 g/m*3 9 C 0 km/h
3197 16-03-2010 16:11:02 8.7 C 4.76 g/m*3 8.7 C 0 km/h
3198 16-03-2010 16:23:02 8.5 C 4.78 g/m*3 8.5 C 0 km/h
3199 16-03-2010 16:35:02 8.7 C 4.84 g/m*3 8.7 C 0 km/h
3200 16-03-2010 16:47:02 8.7 C 4.84 g/m*3 8.7 C 0 km/h
Sensor: Nr:Datum:Temp:Abs-Feuchte:Windchill:Wind:
Aussen-T/F 3201 16-03-2010 16:59:02 8.7 C 4.84 g/m*3 8.7 C 0 km/h
3202 16-03-2010 17:11:02 8.9 C 4.99 g/m*3 8.9 C 0 km/h
3203 16-03-2010 17:23:02 8.8 C 5.05 g/m*3 8.8 C 0 km/h
3204 16-03-2010 17:35:01 8.6 C 4.98 g/m*3 8.6 C 0 km/h
3205 16-03-2010 17:47:02 8.6 C 4.98 g/m*3 8.6 C 0 km/h
3206 16-03-2010 17:59:02 8.4 C 5.01 g/m*3 8.4 C 0 km/h
3207 16-03-2010 18:11:01 8.2 C 5.28 g/m*3 8.2 C 0 km/h
3208 16-03-2010 18:23:02 8 C 5.37 g/m*3 8 C 0 km/h
3209 16-03-2010 18:35:01 7.8 C 5.55 g/m*3 7.8 C 0 km/h
3210 16-03-2010 18:47:02 7.5 C 5.52 g/m*3 7.5 C 0 km/h
3211 16-03-2010 18:59:02 7.3 C 5.53 g/m*3 7.3 C 0 km/h
3212 16-03-2010 19:11:02 7.1 C 5.46 g/m*3 7.1 C 0 km/h
3213 16-03-2010 19:23:02 7 C 5.58 g/m*3 7 C 0 km/h
3214 16-03-2010 19:35:03 6.9 C 5.62 g/m*3 6.9 C 0 km/h
3215 16-03-2010 19:47:02 6.8 C 5.58 g/m*3 6.8 C 0 km/h
3216 16-03-2010 19:59:02 6.6 C 5.51 g/m*3 6.6 C 0 km/h
3217 16-03-2010 20:11:01 6.2 C 5.37 g/m*3 6.2 C 0 km/h
3218 16-03-2010 20:23:02 5.7 C 5.34 g/m*3 5.7 C 0 km/h
3219 16-03-2010 20:35:02 5.3 C 5.2 g/m*3 5.3 C 0 km/h
3220 16-03-2010 20:47:02 4.9 C 5.2 g/m*3 4.9 C 0 km/h
3221 16-03-2010 20:59:03 4.6 C 5.16 g/m*3 4.6 C 0 km/h
3222 16-03-2010 21:11:01 4.4 C 5.09 g/m*3 4.4 C 0 km/h
3223 16-03-2010 21:23:01 4.2 C 5.03 g/m*3 4.2 C 0 km/h
3224 16-03-2010 21:36:04 4 C 5.02 g/m*3 4 C 0 km/h
3225 16-03-2010 21:48:04 3.8 C 5.02 g/m*3 3.8 C 0 km/h
Sensor: Nr:Datum:Temp:Abs-Feuchte:Windchill:Wind:
Aussen-T/F 3226 16-03-2010 22:00:04 3.7 C 5.05 g/m*3 3.7 C 0 km/h
3227 16-03-2010 22:12:04 3.3 C 4.91 g/m*3 3.3 C 0 km/h
3228 16-03-2010 22:24:04 3.2 C 4.88 g/m*3 3.2 C 0 km/h
3229 16-03-2010 22:36:04 2.9 C 4.84 g/m*3 2.9 C 0 km/h
3230 16-03-2010 22:48:04 2.8 C 4.81 g/m*3 2.8 C 0 km/h
3231 16-03-2010 23:00:04 2.7 C 4.78 g/m*3 2.7 C 0 km/h
3232 16-03-2010 23:12:04 2.5 C 4.71 g/m*3 2.5 C 0 km/h
3233 16-03-2010 23:24:04 2.4 C 4.74 g/m*3 2.4 C 0 km/h
3234 16-03-2010 23:36:04 2.2 C 4.68 g/m*3 2.2 C 0 km/h
3235 16-03-2010 23:48:04 2 C 4.61 g/m*3 2 C 0 km/h
3236 17-03-2010 00:00:04 2.3 C 4.76 g/m*3 2.3 C 0 km/h
3237 17-03-2010 00:12:04 2 C 4.67 g/m*3 2 C 0 km/h
3238 17-03-2010 00:24:05 2.2 C 4.73 g/m*3 2.2 C 0 km/h
3239 17-03-2010 00:36:05 2.3 C 4.82 g/m*3 2.3 C 0 km/h
3240 17-03-2010 00:48:05 2.3 C 4.76 g/m*3 2.3 C 0 km/h
3241 17-03-2010 01:00:05 2.3 C 4.76 g/m*3 2.3 C 0 km/h
3242 17-03-2010 01:12:05 2.3 C 4.76 g/m*3 2.3 C 0 km/h
3243 17-03-2010 01:24:05 1.8 C 4.6 g/m*3 1.8 C 0 km/h
3244 17-03-2010 01:36:05 1.6 C 4.54 g/m*3 1.6 C 0 km/h
3245 17-03-2010 01:48:05 1.7 C 4.63 g/m*3 1.7 C 0 km/h
3246 17-03-2010 02:00:05 2 C 4.67 g/m*3